<?xml version='1.0' encoding='UTF-8'?>
<gpx version="1.1" creator="https://www.komoot.de" xmlns="http://www.topografix.com/GPX/1/1" xmlns:xsi="http://www.w3.org/2001/XMLSchema-instance" xsi:schemaLocation="http://www.topografix.com/GPX/1/1 http://www.topografix.com/GPX/1/1/gpx.xsd">
  <metadata>
    <name>PW Bad Rappenau 3 Seenweg 14 km 14.05.2021 12:50</name>
    <author>
      <link href="https://www.komoot.de">
        <text>komoot</text>
        <type>text/html</type>
      </link>
    </author>
  </metadata>
  <trk>
    <name>PW Bad Rappenau 3 Seenweg 14 km 14.05.2021 12:50</name>
    <trkseg>
      <trkpt lat="49.238162" lon="9.101918">
        <ele>297.298118</ele>
        <time>2021-05-14T07:28:33.880Z</time>
      </trkpt>
      <trkpt lat="49.238262" lon="9.101950">
        <ele>297.298118</ele>
        <time>2021-05-14T07:29:21.548Z</time>
      </trkpt>
      <trkpt lat="49.238350" lon="9.101986">
        <ele>297.298118</ele>
        <time>2021-05-14T07:29:24.563Z</time>
      </trkpt>
      <trkpt lat="49.238463" lon="9.102032">
        <ele>297.298118</ele>
        <time>2021-05-14T07:29:28.570Z</time>
      </trkpt>
      <trkpt lat="49.238556" lon="9.102020">
        <ele>297.298118</ele>
        <time>2021-05-14T07:29:33.556Z</time>
      </trkpt>
      <trkpt lat="49.238651" lon="9.102014">
        <ele>297.298118</ele>
        <time>2021-05-14T07:29:39.556Z</time>
      </trkpt>
      <trkpt lat="49.238749" lon="9.102026">
        <ele>297.298118</ele>
        <time>2021-05-14T07:29:54.517Z</time>
      </trkpt>
      <trkpt lat="49.238845" lon="9.102060">
        <ele>297.298118</ele>
        <time>2021-05-14T07:30:02.690Z</time>
      </trkpt>
      <trkpt lat="49.238941" lon="9.102087">
        <ele>297.298118</ele>
        <time>2021-05-14T07:30:09.534Z</time>
      </trkpt>
      <trkpt lat="49.239065" lon="9.102094">
        <ele>297.259577</ele>
        <time>2021-05-14T07:31:57.552Z</time>
      </trkpt>
      <trkpt lat="49.239172" lon="9.102085">
        <ele>297.027438</ele>
        <time>2021-05-14T07:32:05.578Z</time>
      </trkpt>
      <trkpt lat="49.239262" lon="9.102062">
        <ele>296.829779</ele>
        <time>2021-05-14T07:32:11.557Z</time>
      </trkpt>
      <trkpt lat="49.239346" lon="9.101983">
        <ele>296.616247</ele>
        <time>2021-05-14T07:32:18.556Z</time>
      </trkpt>
      <trkpt lat="49.239445" lon="9.101946">
        <ele>296.395495</ele>
        <time>2021-05-14T07:32:26.551Z</time>
      </trkpt>
      <trkpt lat="49.239534" lon="9.101968">
        <ele>296.200203</ele>
        <time>2021-05-14T07:32:33.550Z</time>
      </trkpt>
      <trkpt lat="49.239624" lon="9.101996">
        <ele>296.001259</ele>
        <time>2021-05-14T07:33:07.556Z</time>
      </trkpt>
      <trkpt lat="49.239692" lon="9.101892">
        <ele>295.793089</ele>
        <time>2021-05-14T07:33:26.555Z</time>
      </trkpt>
      <trkpt lat="49.239772" lon="9.101821">
        <ele>295.592796</ele>
        <time>2021-05-14T07:33:33.559Z</time>
      </trkpt>
      <trkpt lat="49.239854" lon="9.101732">
        <ele>295.375085</ele>
        <time>2021-05-14T07:33:42.552Z</time>
      </trkpt>
      <trkpt lat="49.239931" lon="9.101652">
        <ele>295.173528</ele>
        <time>2021-05-14T07:33:48.549Z</time>
      </trkpt>
      <trkpt lat="49.240019" lon="9.101580">
        <ele>294.957404</ele>
        <time>2021-05-14T07:33:54.551Z</time>
      </trkpt>
      <trkpt lat="49.240112" lon="9.101534">
        <ele>294.745697</ele>
        <time>2021-05-14T07:34:01.562Z</time>
      </trkpt>
      <trkpt lat="49.240198" lon="9.101466">
        <ele>294.536039</ele>
        <time>2021-05-14T07:34:10.554Z</time>
      </trkpt>
      <trkpt lat="49.240271" lon="9.101332">
        <ele>294.289209</ele>
        <time>2021-05-14T07:34:16.553Z</time>
      </trkpt>
      <trkpt lat="49.240307" lon="9.101192">
        <ele>294.076400</ele>
        <time>2021-05-14T07:34:21.546Z</time>
      </trkpt>
      <trkpt lat="49.240412" lon="9.101153">
        <ele>293.842350</ele>
        <time>2021-05-14T07:34:49.542Z</time>
      </trkpt>
      <trkpt lat="49.240503" lon="9.101130">
        <ele>293.642555</ele>
        <time>2021-05-14T07:34:54.549Z</time>
      </trkpt>
      <trkpt lat="49.240596" lon="9.101128">
        <ele>293.441073</ele>
        <time>2021-05-14T07:35:03.543Z</time>
      </trkpt>
      <trkpt lat="49.240690" lon="9.101096">
        <ele>293.306696</ele>
        <time>2021-05-14T07:35:35.546Z</time>
      </trkpt>
      <trkpt lat="49.240781" lon="9.101063">
        <ele>293.192918</ele>
        <time>2021-05-14T07:35:42.532Z</time>
      </trkpt>
      <trkpt lat="49.240851" lon="9.100950">
        <ele>293.069183</ele>
        <time>2021-05-14T07:35:51.562Z</time>
      </trkpt>
      <trkpt lat="49.240942" lon="9.100959">
        <ele>292.958235</ele>
        <time>2021-05-14T07:35:56.554Z</time>
      </trkpt>
      <trkpt lat="49.241039" lon="9.100994">
        <ele>292.836988</ele>
        <time>2021-05-14T07:36:02.558Z</time>
      </trkpt>
      <trkpt lat="49.241131" lon="9.100988">
        <ele>292.724953</ele>
        <time>2021-05-14T07:36:10.541Z</time>
      </trkpt>
      <trkpt lat="49.241223" lon="9.100953">
        <ele>292.609618</ele>
        <time>2021-05-14T07:36:16.557Z</time>
      </trkpt>
      <trkpt lat="49.241315" lon="9.100915">
        <ele>292.493686</ele>
        <time>2021-05-14T07:36:22.547Z</time>
      </trkpt>
      <trkpt lat="49.241412" lon="9.100901">
        <ele>292.375146</ele>
        <time>2021-05-14T07:36:28.550Z</time>
      </trkpt>
      <trkpt lat="49.241501" lon="9.100816">
        <ele>292.247537</ele>
        <time>2021-05-14T07:36:36.545Z</time>
      </trkpt>
      <trkpt lat="49.241583" lon="9.100710">
        <ele>292.116989</ele>
        <time>2021-05-14T07:36:42.553Z</time>
      </trkpt>
      <trkpt lat="49.241676" lon="9.100661">
        <ele>291.997331</ele>
        <time>2021-05-14T07:36:48.569Z</time>
      </trkpt>
      <trkpt lat="49.241765" lon="9.100588">
        <ele>291.874499</ele>
        <time>2021-05-14T07:36:56.563Z</time>
      </trkpt>
      <trkpt lat="49.241843" lon="9.100487">
        <ele>291.750231</ele>
        <time>2021-05-14T07:37:05.549Z</time>
      </trkpt>
      <trkpt lat="49.241904" lon="9.100347">
        <ele>291.616535</ele>
        <time>2021-05-14T07:37:10.547Z</time>
      </trkpt>
      <trkpt lat="49.241953" lon="9.100230">
        <ele>291.506121</ele>
        <time>2021-05-14T07:37:22.555Z</time>
      </trkpt>
      <trkpt lat="49.242016" lon="9.100108">
        <ele>291.382564</ele>
        <time>2021-05-14T07:37:30.533Z</time>
      </trkpt>
      <trkpt lat="49.242052" lon="9.099982">
        <ele>291.273315</ele>
        <time>2021-05-14T07:37:38.547Z</time>
      </trkpt>
      <trkpt lat="49.242041" lon="9.099839">
        <ele>291.198658</ele>
        <time>2021-05-14T07:37:50.541Z</time>
      </trkpt>
      <trkpt lat="49.242051" lon="9.099656">
        <ele>291.159102</ele>
        <time>2021-05-14T07:37:58.552Z</time>
      </trkpt>
      <trkpt lat="49.242062" lon="9.099501">
        <ele>291.125518</ele>
        <time>2021-05-14T07:38:07.555Z</time>
      </trkpt>
      <trkpt lat="49.242060" lon="9.099362">
        <ele>291.095570</ele>
        <time>2021-05-14T07:38:16.550Z</time>
      </trkpt>
      <trkpt lat="49.242068" lon="9.099221">
        <ele>291.065084</ele>
        <time>2021-05-14T07:38:22.553Z</time>
      </trkpt>
      <trkpt lat="49.242098" lon="9.099081">
        <ele>291.033345</ele>
        <time>2021-05-14T07:38:28.554Z</time>
      </trkpt>
      <trkpt lat="49.242159" lon="9.098952">
        <ele>290.999035</ele>
        <time>2021-05-14T07:38:36.535Z</time>
      </trkpt>
      <trkpt lat="49.242229" lon="9.098834">
        <ele>290.964692</ele>
        <time>2021-05-14T07:38:41.541Z</time>
      </trkpt>
      <trkpt lat="49.242296" lon="9.098738">
        <ele>290.934423</ele>
        <time>2021-05-14T07:38:50.550Z</time>
      </trkpt>
      <trkpt lat="49.242368" lon="9.098653">
        <ele>290.904430</ele>
        <time>2021-05-14T07:38:55.556Z</time>
      </trkpt>
      <trkpt lat="49.242453" lon="9.098581">
        <ele>290.872384</ele>
        <time>2021-05-14T07:39:00.553Z</time>
      </trkpt>
      <trkpt lat="49.242511" lon="9.098474">
        <ele>290.842427</ele>
        <time>2021-05-14T07:39:05.554Z</time>
      </trkpt>
      <trkpt lat="49.242569" lon="9.098370">
        <ele>290.812965</ele>
        <time>2021-05-14T07:39:11.553Z</time>
      </trkpt>
      <trkpt lat="49.242651" lon="9.098293">
        <ele>290.781231</ele>
        <time>2021-05-14T07:39:20.571Z</time>
      </trkpt>
      <trkpt lat="49.242742" lon="9.098233">
        <ele>290.748544</ele>
        <time>2021-05-14T07:39:27.550Z</time>
      </trkpt>
      <trkpt lat="49.242803" lon="9.098129">
        <ele>290.718430</ele>
        <time>2021-05-14T07:39:36.546Z</time>
      </trkpt>
      <trkpt lat="49.242878" lon="9.098045">
        <ele>290.687775</ele>
        <time>2021-05-14T07:39:43.566Z</time>
      </trkpt>
      <trkpt lat="49.242952" lon="9.097958">
        <ele>290.656998</ele>
        <time>2021-05-14T07:39:50.559Z</time>
      </trkpt>
      <trkpt lat="49.243035" lon="9.097882">
        <ele>290.625093</ele>
        <time>2021-05-14T07:39:56.596Z</time>
      </trkpt>
      <trkpt lat="49.243116" lon="9.097808">
        <ele>290.760655</ele>
        <time>2021-05-14T07:40:02.543Z</time>
      </trkpt>
      <trkpt lat="49.243188" lon="9.097723">
        <ele>290.922725</ele>
        <time>2021-05-14T07:40:09.553Z</time>
      </trkpt>
      <trkpt lat="49.243255" lon="9.097619">
        <ele>291.092790</ele>
        <time>2021-05-14T07:40:17.539Z</time>
      </trkpt>
      <trkpt lat="49.243379" lon="9.097439">
        <ele>291.397372</ele>
        <time>2021-05-14T07:40:46.562Z</time>
      </trkpt>
      <trkpt lat="49.243445" lon="9.097329">
        <ele>291.571265</ele>
        <time>2021-05-14T07:40:53.536Z</time>
      </trkpt>
      <trkpt lat="49.243526" lon="9.097234">
        <ele>291.753150</ele>
        <time>2021-05-14T07:41:00.562Z</time>
      </trkpt>
      <trkpt lat="49.243593" lon="9.097117">
        <ele>291.934297</ele>
        <time>2021-05-14T07:41:08.553Z</time>
      </trkpt>
      <trkpt lat="49.243673" lon="9.097052">
        <ele>292.095750</ele>
        <time>2021-05-14T07:41:15.548Z</time>
      </trkpt>
      <trkpt lat="49.243644" lon="9.097183">
        <ele>292.256754</ele>
        <time>2021-05-14T07:41:39.585Z</time>
      </trkpt>
      <trkpt lat="49.243757" lon="9.097131">
        <ele>292.467115</ele>
        <time>2021-05-14T07:43:38.553Z</time>
      </trkpt>
      <trkpt lat="49.243844" lon="9.097059">
        <ele>292.643416</ele>
        <time>2021-05-14T07:43:43.558Z</time>
      </trkpt>
      <trkpt lat="49.243921" lon="9.096971">
        <ele>292.814698</ele>
        <time>2021-05-14T07:43:49.562Z</time>
      </trkpt>
      <trkpt lat="49.243821" lon="9.097045">
        <ele>293.012701</ele>
        <time>2021-05-14T07:44:13.550Z</time>
      </trkpt>
      <trkpt lat="49.243835" lon="9.096885">
        <ele>293.200596</ele>
        <time>2021-05-14T07:45:12.558Z</time>
      </trkpt>
      <trkpt lat="49.243920" lon="9.096811">
        <ele>293.374907</ele>
        <time>2021-05-14T07:45:22.551Z</time>
      </trkpt>
      <trkpt lat="49.243999" lon="9.096740">
        <ele>293.538208</ele>
        <time>2021-05-14T07:45:27.585Z</time>
      </trkpt>
      <trkpt lat="49.244077" lon="9.096643">
        <ele>293.717333</ele>
        <time>2021-05-14T07:45:33.571Z</time>
      </trkpt>
      <trkpt lat="49.244147" lon="9.096539">
        <ele>293.864836</ele>
        <time>2021-05-14T07:45:39.540Z</time>
      </trkpt>
      <trkpt lat="49.244220" lon="9.096435">
        <ele>293.969856</ele>
        <time>2021-05-14T07:45:45.556Z</time>
      </trkpt>
      <trkpt lat="49.244292" lon="9.096328">
        <ele>294.075533</ele>
        <time>2021-05-14T07:45:51.563Z</time>
      </trkpt>
      <trkpt lat="49.244347" lon="9.096216">
        <ele>294.171917</ele>
        <time>2021-05-14T07:45:57.560Z</time>
      </trkpt>
      <trkpt lat="49.244396" lon="9.096089">
        <ele>294.273370</ele>
        <time>2021-05-14T07:46:04.547Z</time>
      </trkpt>
      <trkpt lat="49.244453" lon="9.095967">
        <ele>294.376544</ele>
        <time>2021-05-14T07:46:12.556Z</time>
      </trkpt>
      <trkpt lat="49.244514" lon="9.095844">
        <ele>294.482773</ele>
        <time>2021-05-14T07:46:20.563Z</time>
      </trkpt>
      <trkpt lat="49.244563" lon="9.095716">
        <ele>294.584819</ele>
        <time>2021-05-14T07:46:27.553Z</time>
      </trkpt>
      <trkpt lat="49.244620" lon="9.095584">
        <ele>294.693660</ele>
        <time>2021-05-14T07:46:33.551Z</time>
      </trkpt>
      <trkpt lat="49.244680" lon="9.095456">
        <ele>294.802029</ele>
        <time>2021-05-14T07:46:41.559Z</time>
      </trkpt>
      <trkpt lat="49.244726" lon="9.095337">
        <ele>294.897137</ele>
        <time>2021-05-14T07:46:47.559Z</time>
      </trkpt>
      <trkpt lat="49.244762" lon="9.095198">
        <ele>294.999977</ele>
        <time>2021-05-14T07:46:55.546Z</time>
      </trkpt>
      <trkpt lat="49.244815" lon="9.095075">
        <ele>295.101330</ele>
        <time>2021-05-14T07:47:02.553Z</time>
      </trkpt>
      <trkpt lat="49.244860" lon="9.094952">
        <ele>295.198296</ele>
        <time>2021-05-14T07:47:09.564Z</time>
      </trkpt>
      <trkpt lat="49.244923" lon="9.094827">
        <ele>295.306898</ele>
        <time>2021-05-14T07:47:16.551Z</time>
      </trkpt>
      <trkpt lat="49.245006" lon="9.094732">
        <ele>295.416046</ele>
        <time>2021-05-14T07:47:22.581Z</time>
      </trkpt>
      <trkpt lat="49.245095" lon="9.094646">
        <ele>295.526897</ele>
        <time>2021-05-14T07:47:28.559Z</time>
      </trkpt>
      <trkpt lat="49.245188" lon="9.094606">
        <ele>295.628655</ele>
        <time>2021-05-14T07:47:36.553Z</time>
      </trkpt>
      <trkpt lat="49.245289" lon="9.094584">
        <ele>295.756862</ele>
        <time>2021-05-14T07:47:43.557Z</time>
      </trkpt>
      <trkpt lat="49.245389" lon="9.094571">
        <ele>296.012752</ele>
        <time>2021-05-14T07:47:49.555Z</time>
      </trkpt>
      <trkpt lat="49.245486" lon="9.094563">
        <ele>296.260435</ele>
        <time>2021-05-14T07:47:54.546Z</time>
      </trkpt>
      <trkpt lat="49.245590" lon="9.094530">
        <ele>296.531237</ele>
        <time>2021-05-14T07:48:00.552Z</time>
      </trkpt>
      <trkpt lat="49.245681" lon="9.094492">
        <ele>296.771729</ele>
        <time>2021-05-14T07:48:05.563Z</time>
      </trkpt>
      <trkpt lat="49.245770" lon="9.094430">
        <ele>297.021020</ele>
        <time>2021-05-14T07:48:12.543Z</time>
      </trkpt>
      <trkpt lat="49.245859" lon="9.094386">
        <ele>297.259472</ele>
        <time>2021-05-14T07:48:22.542Z</time>
      </trkpt>
      <trkpt lat="49.245963" lon="9.094364">
        <ele>297.527161</ele>
        <time>2021-05-14T07:48:29.546Z</time>
      </trkpt>
      <trkpt lat="49.246056" lon="9.094390">
        <ele>297.768204</ele>
        <time>2021-05-14T07:48:43.557Z</time>
      </trkpt>
      <trkpt lat="49.246085" lon="9.094207">
        <ele>298.081653</ele>
        <time>2021-05-14T07:50:35.532Z</time>
      </trkpt>
      <trkpt lat="49.246199" lon="9.094122">
        <ele>298.404927</ele>
        <time>2021-05-14T07:50:58.544Z</time>
      </trkpt>
      <trkpt lat="49.246285" lon="9.094063">
        <ele>298.645191</ele>
        <time>2021-05-14T07:51:03.570Z</time>
      </trkpt>
      <trkpt lat="49.246366" lon="9.094003">
        <ele>298.874599</ele>
        <time>2021-05-14T07:51:08.553Z</time>
      </trkpt>
      <trkpt lat="49.246451" lon="9.093915">
        <ele>299.136182</ele>
        <time>2021-05-14T07:51:15.547Z</time>
      </trkpt>
      <trkpt lat="49.246541" lon="9.093876">
        <ele>299.374663</ele>
        <time>2021-05-14T07:51:22.550Z</time>
      </trkpt>
      <trkpt lat="49.246630" lon="9.093824">
        <ele>299.617535</ele>
        <time>2021-05-14T07:51:42.548Z</time>
      </trkpt>
      <trkpt lat="49.246705" lon="9.093725">
        <ele>299.869969</ele>
        <time>2021-05-14T07:51:52.556Z</time>
      </trkpt>
      <trkpt lat="49.246785" lon="9.093644">
        <ele>300.114477</ele>
        <time>2021-05-14T07:51:58.556Z</time>
      </trkpt>
      <trkpt lat="49.246877" lon="9.093574">
        <ele>300.354110</ele>
        <time>2021-05-14T07:52:07.535Z</time>
      </trkpt>
      <trkpt lat="49.246957" lon="9.093484">
        <ele>300.525222</ele>
        <time>2021-05-14T07:52:15.576Z</time>
      </trkpt>
      <trkpt lat="49.247059" lon="9.093406">
        <ele>300.721756</ele>
        <time>2021-05-14T07:52:21.555Z</time>
      </trkpt>
      <trkpt lat="49.247125" lon="9.093307">
        <ele>300.881001</ele>
        <time>2021-05-14T07:52:28.544Z</time>
      </trkpt>
      <trkpt lat="49.247228" lon="9.093251">
        <ele>301.069419</ele>
        <time>2021-05-14T07:52:37.551Z</time>
      </trkpt>
      <trkpt lat="49.247319" lon="9.093220">
        <ele>301.230130</ele>
        <time>2021-05-14T07:52:41.551Z</time>
      </trkpt>
      <trkpt lat="49.247419" lon="9.093183">
        <ele>301.407482</ele>
        <time>2021-05-14T07:52:48.542Z</time>
      </trkpt>
      <trkpt lat="49.247498" lon="9.093086">
        <ele>301.582022</ele>
        <time>2021-05-14T07:52:55.556Z</time>
      </trkpt>
      <trkpt lat="49.247570" lon="9.092999">
        <ele>301.740113</ele>
        <time>2021-05-14T07:53:01.576Z</time>
      </trkpt>
      <trkpt lat="49.247634" lon="9.092898">
        <ele>301.898519</ele>
        <time>2021-05-14T07:53:09.535Z</time>
      </trkpt>
      <trkpt lat="49.247728" lon="9.092865">
        <ele>302.064770</ele>
        <time>2021-05-14T07:53:16.548Z</time>
      </trkpt>
      <trkpt lat="49.247777" lon="9.092736">
        <ele>302.232731</ele>
        <time>2021-05-14T07:53:28.550Z</time>
      </trkpt>
      <trkpt lat="49.247860" lon="9.092663">
        <ele>302.397725</ele>
        <time>2021-05-14T07:53:36.555Z</time>
      </trkpt>
      <trkpt lat="49.247952" lon="9.092647">
        <ele>302.557346</ele>
        <time>2021-05-14T07:53:45.549Z</time>
      </trkpt>
      <trkpt lat="49.248032" lon="9.092583">
        <ele>302.712935</ele>
        <time>2021-05-14T07:53:52.565Z</time>
      </trkpt>
      <trkpt lat="49.248122" lon="9.092549">
        <ele>302.872738</ele>
        <time>2021-05-14T07:53:59.541Z</time>
      </trkpt>
      <trkpt lat="49.248190" lon="9.092455">
        <ele>303.030639</ele>
        <time>2021-05-14T07:54:05.546Z</time>
      </trkpt>
      <trkpt lat="49.248276" lon="9.092409">
        <ele>303.187676</ele>
        <time>2021-05-14T07:54:11.532Z</time>
      </trkpt>
      <trkpt lat="49.248348" lon="9.092317">
        <ele>303.349311</ele>
        <time>2021-05-14T07:54:21.552Z</time>
      </trkpt>
      <trkpt lat="49.248435" lon="9.092229">
        <ele>303.456221</ele>
        <time>2021-05-14T07:54:27.551Z</time>
      </trkpt>
      <trkpt lat="49.248488" lon="9.092118">
        <ele>303.517615</ele>
        <time>2021-05-14T07:54:37.565Z</time>
      </trkpt>
      <trkpt lat="49.248563" lon="9.092035">
        <ele>303.580888</ele>
        <time>2021-05-14T07:54:45.556Z</time>
      </trkpt>
      <trkpt lat="49.248650" lon="9.091979">
        <ele>303.645423</ele>
        <time>2021-05-14T07:54:49.564Z</time>
      </trkpt>
      <trkpt lat="49.248741" lon="9.091904">
        <ele>303.716090</ele>
        <time>2021-05-14T07:54:56.550Z</time>
      </trkpt>
      <trkpt lat="49.248815" lon="9.091822">
        <ele>303.778548</ele>
        <time>2021-05-14T07:55:02.545Z</time>
      </trkpt>
      <trkpt lat="49.248892" lon="9.091739">
        <ele>303.842935</ele>
        <time>2021-05-14T07:55:12.556Z</time>
      </trkpt>
      <trkpt lat="49.248975" lon="9.091681">
        <ele>303.905323</ele>
        <time>2021-05-14T07:55:18.553Z</time>
      </trkpt>
      <trkpt lat="49.249083" lon="9.091615">
        <ele>303.984840</ele>
        <time>2021-05-14T07:55:25.550Z</time>
      </trkpt>
      <trkpt lat="49.249171" lon="9.091551">
        <ele>304.051458</ele>
        <time>2021-05-14T07:55:33.543Z</time>
      </trkpt>
      <trkpt lat="49.249242" lon="9.091461">
        <ele>304.114480</ele>
        <time>2021-05-14T07:55:45.554Z</time>
      </trkpt>
      <trkpt lat="49.249328" lon="9.091376">
        <ele>304.184471</ele>
        <time>2021-05-14T07:55:52.551Z</time>
      </trkpt>
      <trkpt lat="49.249405" lon="9.091280">
        <ele>304.252364</ele>
        <time>2021-05-14T07:56:00.536Z</time>
      </trkpt>
      <trkpt lat="49.249475" lon="9.091187">
        <ele>304.315729</ele>
        <time>2021-05-14T07:56:14.546Z</time>
      </trkpt>
      <trkpt lat="49.249560" lon="9.091126">
        <ele>304.379920</ele>
        <time>2021-05-14T07:56:21.553Z</time>
      </trkpt>
      <trkpt lat="49.249643" lon="9.091067">
        <ele>304.442494</ele>
        <time>2021-05-14T07:56:27.548Z</time>
      </trkpt>
      <trkpt lat="49.249720" lon="9.090976">
        <ele>304.509000</ele>
        <time>2021-05-14T07:56:35.545Z</time>
      </trkpt>
      <trkpt lat="49.249792" lon="9.090884">
        <ele>304.573118</ele>
        <time>2021-05-14T07:56:43.578Z</time>
      </trkpt>
      <trkpt lat="49.249876" lon="9.090833">
        <ele>304.634910</ele>
        <time>2021-05-14T07:56:52.544Z</time>
      </trkpt>
      <trkpt lat="49.249960" lon="9.090765">
        <ele>304.658593</ele>
        <time>2021-05-14T07:56:58.549Z</time>
      </trkpt>
      <trkpt lat="49.250048" lon="9.090701">
        <ele>304.680490</ele>
        <time>2021-05-14T07:57:03.534Z</time>
      </trkpt>
      <trkpt lat="49.250130" lon="9.090585">
        <ele>304.705578</ele>
        <time>2021-05-14T07:57:07.562Z</time>
      </trkpt>
      <trkpt lat="49.250187" lon="9.090477">
        <ele>304.725957</ele>
        <time>2021-05-14T07:57:11.548Z</time>
      </trkpt>
      <trkpt lat="49.250231" lon="9.090264">
        <ele>304.758737</ele>
        <time>2021-05-14T07:58:04.542Z</time>
      </trkpt>
      <trkpt lat="49.250300" lon="9.090153">
        <ele>304.781227</ele>
        <time>2021-05-14T07:58:11.546Z</time>
      </trkpt>
      <trkpt lat="49.250366" lon="9.090043">
        <ele>304.803149</ele>
        <time>2021-05-14T07:58:18.549Z</time>
      </trkpt>
      <trkpt lat="49.250443" lon="9.089960">
        <ele>304.824313</ele>
        <time>2021-05-14T07:58:36.549Z</time>
      </trkpt>
      <trkpt lat="49.250525" lon="9.089872">
        <ele>304.846817</ele>
        <time>2021-05-14T07:58:43.549Z</time>
      </trkpt>
      <trkpt lat="49.250566" lon="9.089747">
        <ele>304.867343</ele>
        <time>2021-05-14T07:58:47.553Z</time>
      </trkpt>
      <trkpt lat="49.250617" lon="9.089620">
        <ele>304.889221</ele>
        <time>2021-05-14T07:58:56.537Z</time>
      </trkpt>
      <trkpt lat="49.250682" lon="9.089523">
        <ele>304.909618</ele>
        <time>2021-05-14T07:59:02.557Z</time>
      </trkpt>
      <trkpt lat="49.250741" lon="9.089409">
        <ele>304.930964</ele>
        <time>2021-05-14T07:59:08.555Z</time>
      </trkpt>
      <trkpt lat="49.250799" lon="9.089292">
        <ele>304.952520</ele>
        <time>2021-05-14T07:59:22.547Z</time>
      </trkpt>
      <trkpt lat="49.250875" lon="9.089159">
        <ele>304.978456</ele>
        <time>2021-05-14T07:59:27.553Z</time>
      </trkpt>
      <trkpt lat="49.250950" lon="9.089044">
        <ele>305.002308</ele>
        <time>2021-05-14T07:59:32.551Z</time>
      </trkpt>
      <trkpt lat="49.251030" lon="9.088942">
        <ele>305.025703</ele>
        <time>2021-05-14T07:59:38.546Z</time>
      </trkpt>
      <trkpt lat="49.251106" lon="9.088840">
        <ele>305.026039</ele>
        <time>2021-05-14T07:59:45.549Z</time>
      </trkpt>
      <trkpt lat="49.251194" lon="9.088764">
        <ele>304.960200</ele>
        <time>2021-05-14T07:59:52.543Z</time>
      </trkpt>
      <trkpt lat="49.251291" lon="9.088796">
        <ele>304.895532</ele>
        <time>2021-05-14T08:00:01.543Z</time>
      </trkpt>
      <trkpt lat="49.251305" lon="9.088934">
        <ele>304.836120</ele>
        <time>2021-05-14T08:00:08.546Z</time>
      </trkpt>
      <trkpt lat="49.251309" lon="9.089098">
        <ele>304.766302</ele>
        <time>2021-05-14T08:00:13.545Z</time>
      </trkpt>
      <trkpt lat="49.251299" lon="9.089245">
        <ele>304.703427</ele>
        <time>2021-05-14T08:00:22.536Z</time>
      </trkpt>
      <trkpt lat="49.251308" lon="9.089400">
        <ele>304.637227</ele>
        <time>2021-05-14T08:00:31.549Z</time>
      </trkpt>
      <trkpt lat="49.251312" lon="9.089549">
        <ele>304.573786</ele>
        <time>2021-05-14T08:00:36.551Z</time>
      </trkpt>
      <trkpt lat="49.251324" lon="9.089691">
        <ele>304.512873</ele>
        <time>2021-05-14T08:00:44.580Z</time>
      </trkpt>
      <trkpt lat="49.251367" lon="9.089984">
        <ele>304.385113</ele>
        <time>2021-05-14T08:01:22.554Z</time>
      </trkpt>
      <trkpt lat="49.251281" lon="9.089929">
        <ele>304.324376</ele>
        <time>2021-05-14T08:02:23.576Z</time>
      </trkpt>
      <trkpt lat="49.251335" lon="9.090088">
        <ele>304.248127</ele>
        <time>2021-05-14T08:03:13.548Z</time>
      </trkpt>
      <trkpt lat="49.251350" lon="9.090235">
        <ele>304.184831</ele>
        <time>2021-05-14T08:03:21.541Z</time>
      </trkpt>
      <trkpt lat="49.251393" lon="9.090366">
        <ele>304.122451</ele>
        <time>2021-05-14T08:03:27.518Z</time>
      </trkpt>
      <trkpt lat="49.251451" lon="9.090473">
        <ele>304.063282</ele>
        <time>2021-05-14T08:03:37.563Z</time>
      </trkpt>
      <trkpt lat="49.251536" lon="9.090565">
        <ele>303.995454</ele>
        <time>2021-05-14T08:03:43.556Z</time>
      </trkpt>
      <trkpt lat="49.251620" lon="9.090634">
        <ele>303.933335</ele>
        <time>2021-05-14T08:03:48.554Z</time>
      </trkpt>
      <trkpt lat="49.251667" lon="9.090758">
        <ele>303.872334</ele>
        <time>2021-05-14T08:03:58.542Z</time>
      </trkpt>
      <trkpt lat="49.251632" lon="9.090897">
        <ele>303.756038</ele>
        <time>2021-05-14T08:04:05.511Z</time>
      </trkpt>
      <trkpt lat="49.251598" lon="9.091050">
        <ele>303.628095</ele>
        <time>2021-05-14T08:04:12.555Z</time>
      </trkpt>
      <trkpt lat="49.251570" lon="9.091182">
        <ele>303.518223</ele>
        <time>2021-05-14T08:04:17.554Z</time>
      </trkpt>
      <trkpt lat="49.251536" lon="9.091322">
        <ele>303.399975</ele>
        <time>2021-05-14T08:04:23.571Z</time>
      </trkpt>
      <trkpt lat="49.251495" lon="9.091457">
        <ele>303.282107</ele>
        <time>2021-05-14T08:04:29.553Z</time>
      </trkpt>
      <trkpt lat="49.251460" lon="9.091588">
        <ele>303.170055</ele>
        <time>2021-05-14T08:04:35.548Z</time>
      </trkpt>
      <trkpt lat="49.251427" lon="9.091721">
        <ele>303.057420</ele>
        <time>2021-05-14T08:04:40.551Z</time>
      </trkpt>
      <trkpt lat="49.251398" lon="9.091852">
        <ele>302.947917</ele>
        <time>2021-05-14T08:04:46.559Z</time>
      </trkpt>
      <trkpt lat="49.251344" lon="9.091985">
        <ele>302.823927</ele>
        <time>2021-05-14T08:04:53.562Z</time>
      </trkpt>
      <trkpt lat="49.251307" lon="9.092122">
        <ele>302.706560</ele>
        <time>2021-05-14T08:04:59.555Z</time>
      </trkpt>
      <trkpt lat="49.251282" lon="9.092266">
        <ele>302.588604</ele>
        <time>2021-05-14T08:05:04.562Z</time>
      </trkpt>
      <trkpt lat="49.251254" lon="9.092405">
        <ele>302.473449</ele>
        <time>2021-05-14T08:05:12.555Z</time>
      </trkpt>
      <trkpt lat="49.251215" lon="9.092547">
        <ele>302.351494</ele>
        <time>2021-05-14T08:05:19.551Z</time>
      </trkpt>
      <trkpt lat="49.251184" lon="9.092687">
        <ele>302.234465</ele>
        <time>2021-05-14T08:05:24.547Z</time>
      </trkpt>
      <trkpt lat="49.251158" lon="9.092820">
        <ele>302.124559</ele>
        <time>2021-05-14T08:05:31.546Z</time>
      </trkpt>
      <trkpt lat="49.251122" lon="9.092963">
        <ele>302.003231</ele>
        <time>2021-05-14T08:05:37.551Z</time>
      </trkpt>
      <trkpt lat="49.251090" lon="9.093102">
        <ele>301.886553</ele>
        <time>2021-05-14T08:05:42.546Z</time>
      </trkpt>
      <trkpt lat="49.251047" lon="9.093243">
        <ele>301.763353</ele>
        <time>2021-05-14T08:05:49.549Z</time>
      </trkpt>
      <trkpt lat="49.251010" lon="9.093369">
        <ele>301.646965</ele>
        <time>2021-05-14T08:05:55.547Z</time>
      </trkpt>
      <trkpt lat="49.251001" lon="9.093514">
        <ele>301.508640</ele>
        <time>2021-05-14T08:06:00.559Z</time>
      </trkpt>
      <trkpt lat="49.250976" lon="9.093647">
        <ele>301.377200</ele>
        <time>2021-05-14T08:06:06.550Z</time>
      </trkpt>
      <trkpt lat="49.250957" lon="9.093788">
        <ele>301.240472</ele>
        <time>2021-05-14T08:06:14.563Z</time>
      </trkpt>
      <trkpt lat="49.250930" lon="9.093941">
        <ele>301.089954</ele>
        <time>2021-05-14T08:06:23.561Z</time>
      </trkpt>
      <trkpt lat="49.250897" lon="9.094089">
        <ele>300.941428</ele>
        <time>2021-05-14T08:06:29.551Z</time>
      </trkpt>
      <trkpt lat="49.250859" lon="9.094214">
        <ele>300.810475</ele>
        <time>2021-05-14T08:06:35.509Z</time>
      </trkpt>
      <trkpt lat="49.250868" lon="9.094352">
        <ele>300.678766</ele>
        <time>2021-05-14T08:06:47.526Z</time>
      </trkpt>
      <trkpt lat="49.250841" lon="9.094492">
        <ele>300.540129</ele>
        <time>2021-05-14T08:06:55.539Z</time>
      </trkpt>
      <trkpt lat="49.250823" lon="9.094653">
        <ele>300.385004</ele>
        <time>2021-05-14T08:07:06.561Z</time>
      </trkpt>
      <trkpt lat="49.250789" lon="9.094781">
        <ele>300.253765</ele>
        <time>2021-05-14T08:07:12.573Z</time>
      </trkpt>
      <trkpt lat="49.250750" lon="9.094915">
        <ele>300.114431</ele>
        <time>2021-05-14T08:07:17.543Z</time>
      </trkpt>
      <trkpt lat="49.250708" lon="9.095043">
        <ele>299.978378</ele>
        <time>2021-05-14T08:07:23.570Z</time>
      </trkpt>
      <trkpt lat="49.250660" lon="9.095187">
        <ele>299.824824</ele>
        <time>2021-05-14T08:07:29.547Z</time>
      </trkpt>
      <trkpt lat="49.250610" lon="9.095323">
        <ele>299.676590</ele>
        <time>2021-05-14T08:07:35.571Z</time>
      </trkpt>
      <trkpt lat="49.250583" lon="9.095479">
        <ele>299.523319</ele>
        <time>2021-05-14T08:07:42.541Z</time>
      </trkpt>
      <trkpt lat="49.250564" lon="9.095634">
        <ele>299.373545</ele>
        <time>2021-05-14T08:07:48.576Z</time>
      </trkpt>
      <trkpt lat="49.250523" lon="9.095760">
        <ele>299.239840</ele>
        <time>2021-05-14T08:07:55.546Z</time>
      </trkpt>
      <trkpt lat="49.250493" lon="9.095900">
        <ele>299.099903</ele>
        <time>2021-05-14T08:08:01.561Z</time>
      </trkpt>
      <trkpt lat="49.250468" lon="9.096044">
        <ele>298.977532</ele>
        <time>2021-05-14T08:08:10.550Z</time>
      </trkpt>
      <trkpt lat="49.250440" lon="9.096182">
        <ele>298.863354</ele>
        <time>2021-05-14T08:08:16.563Z</time>
      </trkpt>
      <trkpt lat="49.250564" lon="9.096205">
        <ele>298.712168</ele>
        <time>2021-05-14T08:10:24.558Z</time>
      </trkpt>
      <trkpt lat="49.250550" lon="9.096349">
        <ele>298.597140</ele>
        <time>2021-05-14T08:10:30.552Z</time>
      </trkpt>
      <trkpt lat="49.250535" lon="9.096512">
        <ele>298.467082</ele>
        <time>2021-05-14T08:10:39.581Z</time>
      </trkpt>
      <trkpt lat="49.250531" lon="9.096651">
        <ele>298.357152</ele>
        <time>2021-05-14T08:10:45.575Z</time>
      </trkpt>
      <trkpt lat="49.250509" lon="9.096786">
        <ele>298.247216</ele>
        <time>2021-05-14T08:10:51.554Z</time>
      </trkpt>
      <trkpt lat="49.250495" lon="9.096928">
        <ele>298.133751</ele>
        <time>2021-05-14T08:10:57.550Z</time>
      </trkpt>
      <trkpt lat="49.250470" lon="9.097069">
        <ele>298.018311</ele>
        <time>2021-05-14T08:11:03.548Z</time>
      </trkpt>
      <trkpt lat="49.250445" lon="9.097215">
        <ele>297.899055</ele>
        <time>2021-05-14T08:11:10.550Z</time>
      </trkpt>
      <trkpt lat="49.250454" lon="9.097353">
        <ele>297.789479</ele>
        <time>2021-05-14T08:11:25.548Z</time>
      </trkpt>
      <trkpt lat="49.250442" lon="9.097491">
        <ele>297.679483</ele>
        <time>2021-05-14T08:11:31.546Z</time>
      </trkpt>
      <trkpt lat="49.250427" lon="9.097644">
        <ele>297.557243</ele>
        <time>2021-05-14T08:11:40.555Z</time>
      </trkpt>
      <trkpt lat="49.250432" lon="9.097784">
        <ele>297.446464</ele>
        <time>2021-05-14T08:11:47.551Z</time>
      </trkpt>
      <trkpt lat="49.250442" lon="9.097929">
        <ele>297.331263</ele>
        <time>2021-05-14T08:11:54.557Z</time>
      </trkpt>
      <trkpt lat="49.250451" lon="9.098073">
        <ele>297.216970</ele>
        <time>2021-05-14T08:12:01.552Z</time>
      </trkpt>
      <trkpt lat="49.250541" lon="9.098114">
        <ele>297.103319</ele>
        <time>2021-05-14T08:12:09.560Z</time>
      </trkpt>
      <trkpt lat="49.250628" lon="9.098050">
        <ele>296.986503</ele>
        <time>2021-05-14T08:12:17.555Z</time>
      </trkpt>
      <trkpt lat="49.250706" lon="9.097977">
        <ele>296.888297</ele>
        <time>2021-05-14T08:12:25.553Z</time>
      </trkpt>
      <trkpt lat="49.250792" lon="9.097890">
        <ele>296.843736</ele>
        <time>2021-05-14T08:12:32.567Z</time>
      </trkpt>
      <trkpt lat="49.250869" lon="9.097787">
        <ele>296.799537</ele>
        <time>2021-05-14T08:12:39.567Z</time>
      </trkpt>
      <trkpt lat="49.250942" lon="9.097685">
        <ele>296.756816</ele>
        <time>2021-05-14T08:12:47.554Z</time>
      </trkpt>
      <trkpt lat="49.251017" lon="9.097587">
        <ele>296.714194</ele>
        <time>2021-05-14T08:12:55.555Z</time>
      </trkpt>
      <trkpt lat="49.251096" lon="9.097487">
        <ele>296.669884</ele>
        <time>2021-05-14T08:13:02.566Z</time>
      </trkpt>
      <trkpt lat="49.251167" lon="9.097403">
        <ele>296.631096</ele>
        <time>2021-05-14T08:13:09.539Z</time>
      </trkpt>
      <trkpt lat="49.251246" lon="9.097334">
        <ele>296.591776</ele>
        <time>2021-05-14T08:13:17.548Z</time>
      </trkpt>
      <trkpt lat="49.251334" lon="9.097289">
        <ele>296.551662</ele>
        <time>2021-05-14T08:13:25.559Z</time>
      </trkpt>
      <trkpt lat="49.251394" lon="9.097404">
        <ele>296.510111</ele>
        <time>2021-05-14T08:13:33.560Z</time>
      </trkpt>
      <trkpt lat="49.251409" lon="9.097545">
        <ele>296.469791</ele>
        <time>2021-05-14T08:13:40.554Z</time>
      </trkpt>
      <trkpt lat="49.251420" lon="9.097712">
        <ele>296.422418</ele>
        <time>2021-05-14T08:13:46.558Z</time>
      </trkpt>
      <trkpt lat="49.251419" lon="9.097859">
        <ele>296.380927</ele>
        <time>2021-05-14T08:13:51.552Z</time>
      </trkpt>
      <trkpt lat="49.251437" lon="9.098019">
        <ele>296.335103</ele>
        <time>2021-05-14T08:14:00.574Z</time>
      </trkpt>
      <trkpt lat="49.251458" lon="9.098169">
        <ele>296.291805</ele>
        <time>2021-05-14T08:14:06.553Z</time>
      </trkpt>
      <trkpt lat="49.251466" lon="9.098323">
        <ele>296.248203</ele>
        <time>2021-05-14T08:14:12.561Z</time>
      </trkpt>
      <trkpt lat="49.251468" lon="9.098482">
        <ele>296.203320</ele>
        <time>2021-05-14T08:14:18.547Z</time>
      </trkpt>
      <trkpt lat="49.251478" lon="9.098634">
        <ele>296.160203</ele>
        <time>2021-05-14T08:14:24.535Z</time>
      </trkpt>
      <trkpt lat="49.251473" lon="9.098780">
        <ele>296.118939</ele>
        <time>2021-05-14T08:14:31.558Z</time>
      </trkpt>
      <trkpt lat="49.251471" lon="9.098918">
        <ele>296.098082</ele>
        <time>2021-05-14T08:14:36.533Z</time>
      </trkpt>
      <trkpt lat="49.251475" lon="9.099075">
        <ele>296.075133</ele>
        <time>2021-05-14T08:14:42.556Z</time>
      </trkpt>
      <trkpt lat="49.251469" lon="9.099228">
        <ele>296.052746</ele>
        <time>2021-05-14T08:14:48.555Z</time>
      </trkpt>
      <trkpt lat="49.251463" lon="9.099375">
        <ele>296.031233</ele>
        <time>2021-05-14T08:14:54.546Z</time>
      </trkpt>
      <trkpt lat="49.251466" lon="9.099537">
        <ele>296.007562</ele>
        <time>2021-05-14T08:15:02.550Z</time>
      </trkpt>
      <trkpt lat="49.251469" lon="9.099677">
        <ele>295.987102</ele>
        <time>2021-05-14T08:15:11.541Z</time>
      </trkpt>
      <trkpt lat="49.251475" lon="9.099827">
        <ele>295.965152</ele>
        <time>2021-05-14T08:15:19.564Z</time>
      </trkpt>
      <trkpt lat="49.251478" lon="9.099983">
        <ele>295.942357</ele>
        <time>2021-05-14T08:15:25.543Z</time>
      </trkpt>
      <trkpt lat="49.251475" lon="9.100130">
        <ele>295.920875</ele>
        <time>2021-05-14T08:15:30.558Z</time>
      </trkpt>
      <trkpt lat="49.251479" lon="9.100276">
        <ele>295.899532</ele>
        <time>2021-05-14T08:15:35.545Z</time>
      </trkpt>
      <trkpt lat="49.251481" lon="9.100421">
        <ele>295.878348</ele>
        <time>2021-05-14T08:15:41.564Z</time>
      </trkpt>
      <trkpt lat="49.251478" lon="9.100576">
        <ele>295.855699</ele>
        <time>2021-05-14T08:15:49.542Z</time>
      </trkpt>
      <trkpt lat="49.251489" lon="9.100731">
        <ele>295.832926</ele>
        <time>2021-05-14T08:15:57.556Z</time>
      </trkpt>
      <trkpt lat="49.251496" lon="9.100878">
        <ele>295.811398</ele>
        <time>2021-05-14T08:16:03.548Z</time>
      </trkpt>
      <trkpt lat="49.251513" lon="9.101022">
        <ele>295.790024</ele>
        <time>2021-05-14T08:16:38.547Z</time>
      </trkpt>
      <trkpt lat="49.251492" lon="9.101167">
        <ele>295.768330</ele>
        <time>2021-05-14T08:16:44.547Z</time>
      </trkpt>
      <trkpt lat="49.251471" lon="9.101308">
        <ele>295.747206</ele>
        <time>2021-05-14T08:16:49.541Z</time>
      </trkpt>
      <trkpt lat="49.251445" lon="9.101439">
        <ele>295.727207</ele>
        <time>2021-05-14T08:16:54.547Z</time>
      </trkpt>
      <trkpt lat="49.251415" lon="9.101580">
        <ele>295.720513</ele>
        <time>2021-05-14T08:17:01.554Z</time>
      </trkpt>
      <trkpt lat="49.251382" lon="9.101717">
        <ele>295.732869</ele>
        <time>2021-05-14T08:17:08.562Z</time>
      </trkpt>
      <trkpt lat="49.251349" lon="9.101849">
        <ele>295.744829</ele>
        <time>2021-05-14T08:17:14.537Z</time>
      </trkpt>
      <trkpt lat="49.251321" lon="9.101981">
        <ele>295.756573</ele>
        <time>2021-05-14T08:17:20.548Z</time>
      </trkpt>
      <trkpt lat="49.251299" lon="9.102127">
        <ele>295.769252</ele>
        <time>2021-05-14T08:17:27.544Z</time>
      </trkpt>
      <trkpt lat="49.251276" lon="9.102269">
        <ele>295.781631</ele>
        <time>2021-05-14T08:17:33.540Z</time>
      </trkpt>
      <trkpt lat="49.251246" lon="9.102422">
        <ele>295.795148</ele>
        <time>2021-05-14T08:17:39.560Z</time>
      </trkpt>
      <trkpt lat="49.251216" lon="9.102567">
        <ele>295.808019</ele>
        <time>2021-05-14T08:17:46.554Z</time>
      </trkpt>
      <trkpt lat="49.251193" lon="9.102705">
        <ele>295.820070</ele>
        <time>2021-05-14T08:17:52.551Z</time>
      </trkpt>
      <trkpt lat="49.251173" lon="9.102843">
        <ele>295.832031</ele>
        <time>2021-05-14T08:17:57.542Z</time>
      </trkpt>
      <trkpt lat="49.251164" lon="9.102990">
        <ele>295.844524</ele>
        <time>2021-05-14T08:18:03.556Z</time>
      </trkpt>
      <trkpt lat="49.251142" lon="9.103144">
        <ele>295.857862</ele>
        <time>2021-05-14T08:18:11.545Z</time>
      </trkpt>
      <trkpt lat="49.251122" lon="9.103304">
        <ele>295.871646</ele>
        <time>2021-05-14T08:18:18.547Z</time>
      </trkpt>
      <trkpt lat="49.251103" lon="9.103448">
        <ele>295.884077</ele>
        <time>2021-05-14T08:18:24.548Z</time>
      </trkpt>
      <trkpt lat="49.251081" lon="9.103587">
        <ele>295.896179</ele>
        <time>2021-05-14T08:18:30.542Z</time>
      </trkpt>
      <trkpt lat="49.251066" lon="9.103723">
        <ele>295.907850</ele>
        <time>2021-05-14T08:18:36.549Z</time>
      </trkpt>
      <trkpt lat="49.251039" lon="9.103874">
        <ele>295.921097</ele>
        <time>2021-05-14T08:18:43.539Z</time>
      </trkpt>
      <trkpt lat="49.251005" lon="9.104009">
        <ele>295.933341</ele>
        <time>2021-05-14T08:18:49.536Z</time>
      </trkpt>
      <trkpt lat="49.250980" lon="9.104152">
        <ele>295.945867</ele>
        <time>2021-05-14T08:18:55.548Z</time>
      </trkpt>
      <trkpt lat="49.250967" lon="9.104311">
        <ele>295.959407</ele>
        <time>2021-05-14T08:19:03.549Z</time>
      </trkpt>
      <trkpt lat="49.250959" lon="9.104466">
        <ele>295.972542</ele>
        <time>2021-05-14T08:19:09.543Z</time>
      </trkpt>
      <trkpt lat="49.250940" lon="9.104623">
        <ele>295.986031</ele>
        <time>2021-05-14T08:19:16.539Z</time>
      </trkpt>
      <trkpt lat="49.250919" lon="9.104775">
        <ele>295.999156</ele>
        <time>2021-05-14T08:19:23.561Z</time>
      </trkpt>
      <trkpt lat="49.250901" lon="9.104914">
        <ele>296.011127</ele>
        <time>2021-05-14T08:19:30.545Z</time>
      </trkpt>
      <trkpt lat="49.250902" lon="9.105059">
        <ele>296.023376</ele>
        <time>2021-05-14T08:19:39.552Z</time>
      </trkpt>
      <trkpt lat="49.250891" lon="9.105224">
        <ele>296.037388</ele>
        <time>2021-05-14T08:19:45.548Z</time>
      </trkpt>
      <trkpt lat="49.250885" lon="9.105362">
        <ele>296.049071</ele>
        <time>2021-05-14T08:19:53.412Z</time>
      </trkpt>
      <trkpt lat="49.250859" lon="9.105504">
        <ele>296.061530</ele>
        <time>2021-05-14T08:20:00.441Z</time>
      </trkpt>
      <trkpt lat="49.250845" lon="9.105662">
        <ele>296.075000</ele>
        <time>2021-05-14T08:20:07.443Z</time>
      </trkpt>
      <trkpt lat="49.250828" lon="9.105801">
        <ele>296.086946</ele>
        <time>2021-05-14T08:20:11.442Z</time>
      </trkpt>
      <trkpt lat="49.250802" lon="9.105943">
        <ele>296.099405</ele>
        <time>2021-05-14T08:20:17.445Z</time>
      </trkpt>
      <trkpt lat="49.250769" lon="9.106081">
        <ele>296.111820</ele>
        <time>2021-05-14T08:20:23.423Z</time>
      </trkpt>
      <trkpt lat="49.250751" lon="9.106235">
        <ele>296.125037</ele>
        <time>2021-05-14T08:20:32.415Z</time>
      </trkpt>
      <trkpt lat="49.250721" lon="9.106367">
        <ele>296.136844</ele>
        <time>2021-05-14T08:20:38.432Z</time>
      </trkpt>
      <trkpt lat="49.250695" lon="9.106506">
        <ele>296.149059</ele>
        <time>2021-05-14T08:20:44.428Z</time>
      </trkpt>
      <trkpt lat="49.250674" lon="9.106641">
        <ele>296.160783</ele>
        <time>2021-05-14T08:20:50.427Z</time>
      </trkpt>
      <trkpt lat="49.250641" lon="9.106784">
        <ele>296.173596</ele>
        <time>2021-05-14T08:20:58.421Z</time>
      </trkpt>
      <trkpt lat="49.250634" lon="9.106939">
        <ele>296.151661</ele>
        <time>2021-05-14T08:21:07.427Z</time>
      </trkpt>
      <trkpt lat="49.250620" lon="9.107076">
        <ele>296.092207</ele>
        <time>2021-05-14T08:21:13.419Z</time>
      </trkpt>
      <trkpt lat="49.250604" lon="9.107211">
        <ele>296.033379</ele>
        <time>2021-05-14T08:21:19.420Z</time>
      </trkpt>
      <trkpt lat="49.250586" lon="9.107355">
        <ele>295.970517</ele>
        <time>2021-05-14T08:21:25.433Z</time>
      </trkpt>
      <trkpt lat="49.250561" lon="9.107495">
        <ele>295.908287</ele>
        <time>2021-05-14T08:21:32.427Z</time>
      </trkpt>
      <trkpt lat="49.250540" lon="9.107631">
        <ele>295.848367</ele>
        <time>2021-05-14T08:21:38.425Z</time>
      </trkpt>
      <trkpt lat="49.250515" lon="9.107773">
        <ele>295.785309</ele>
        <time>2021-05-14T08:21:44.439Z</time>
      </trkpt>
      <trkpt lat="49.250529" lon="9.107910">
        <ele>295.725855</ele>
        <time>2021-05-14T08:21:59.420Z</time>
      </trkpt>
      <trkpt lat="49.250603" lon="9.108002">
        <ele>295.663258</ele>
        <time>2021-05-14T08:22:06.429Z</time>
      </trkpt>
      <trkpt lat="49.250685" lon="9.108069">
        <ele>295.602215</ele>
        <time>2021-05-14T08:22:12.416Z</time>
      </trkpt>
      <trkpt lat="49.250773" lon="9.108119">
        <ele>295.540567</ele>
        <time>2021-05-14T08:22:19.424Z</time>
      </trkpt>
      <trkpt lat="49.250860" lon="9.108173">
        <ele>295.478910</ele>
        <time>2021-05-14T08:22:25.417Z</time>
      </trkpt>
      <trkpt lat="49.250948" lon="9.108239">
        <ele>295.414554</ele>
        <time>2021-05-14T08:22:32.421Z</time>
      </trkpt>
      <trkpt lat="49.251033" lon="9.108309">
        <ele>295.351167</ele>
        <time>2021-05-14T08:22:40.433Z</time>
      </trkpt>
      <trkpt lat="49.251119" lon="9.108350">
        <ele>295.292007</ele>
        <time>2021-05-14T08:22:47.427Z</time>
      </trkpt>
      <trkpt lat="49.251202" lon="9.108409">
        <ele>295.231907</ele>
        <time>2021-05-14T08:23:01.439Z</time>
      </trkpt>
      <trkpt lat="49.251285" lon="9.108488">
        <ele>295.167725</ele>
        <time>2021-05-14T08:23:07.426Z</time>
      </trkpt>
      <trkpt lat="49.251362" lon="9.108561">
        <ele>295.108248</ele>
        <time>2021-05-14T08:23:12.432Z</time>
      </trkpt>
      <trkpt lat="49.251440" lon="9.108643">
        <ele>295.046112</ele>
        <time>2021-05-14T08:23:17.428Z</time>
      </trkpt>
      <trkpt lat="49.251526" lon="9.108735">
        <ele>294.980187</ele>
        <time>2021-05-14T08:23:23.436Z</time>
      </trkpt>
      <trkpt lat="49.251611" lon="9.108802">
        <ele>294.925758</ele>
        <time>2021-05-14T08:23:32.420Z</time>
      </trkpt>
      <trkpt lat="49.251698" lon="9.108876">
        <ele>294.869098</ele>
        <time>2021-05-14T08:23:41.439Z</time>
      </trkpt>
      <trkpt lat="49.251776" lon="9.108954">
        <ele>294.816061</ele>
        <time>2021-05-14T08:23:47.421Z</time>
      </trkpt>
      <trkpt lat="49.251848" lon="9.109035">
        <ele>294.765198</ele>
        <time>2021-05-14T08:23:53.434Z</time>
      </trkpt>
      <trkpt lat="49.251932" lon="9.109133">
        <ele>294.705079</ele>
        <time>2021-05-14T08:24:03.436Z</time>
      </trkpt>
      <trkpt lat="49.252009" lon="9.109227">
        <ele>294.649019</ele>
        <time>2021-05-14T08:24:11.429Z</time>
      </trkpt>
      <trkpt lat="49.252083" lon="9.109308">
        <ele>294.597234</ele>
        <time>2021-05-14T08:24:19.435Z</time>
      </trkpt>
      <trkpt lat="49.252161" lon="9.109399">
        <ele>294.541409</ele>
        <time>2021-05-14T08:24:32.426Z</time>
      </trkpt>
      <trkpt lat="49.252231" lon="9.109485">
        <ele>294.490318</ele>
        <time>2021-05-14T08:24:37.437Z</time>
      </trkpt>
      <trkpt lat="49.252310" lon="9.109559">
        <ele>294.437594</ele>
        <time>2021-05-14T08:24:43.425Z</time>
      </trkpt>
      <trkpt lat="49.252390" lon="9.109627">
        <ele>294.385501</ele>
        <time>2021-05-14T08:24:50.395Z</time>
      </trkpt>
      <trkpt lat="49.252476" lon="9.109711">
        <ele>294.327428</ele>
        <time>2021-05-14T08:24:58.455Z</time>
      </trkpt>
      <trkpt lat="49.252566" lon="9.109782">
        <ele>294.269787</ele>
        <time>2021-05-14T08:25:06.422Z</time>
      </trkpt>
      <trkpt lat="49.252654" lon="9.109849">
        <ele>294.213834</ele>
        <time>2021-05-14T08:25:13.418Z</time>
      </trkpt>
      <trkpt lat="49.252751" lon="9.109851">
        <ele>294.158598</ele>
        <time>2021-05-14T08:25:18.437Z</time>
      </trkpt>
      <trkpt lat="49.252858" lon="9.109909">
        <ele>294.093971</ele>
        <time>2021-05-14T08:25:43.434Z</time>
      </trkpt>
      <trkpt lat="49.253040" lon="9.109962">
        <ele>293.988486</ele>
        <time>2021-05-14T08:26:46.413Z</time>
      </trkpt>
      <trkpt lat="49.253110" lon="9.110051">
        <ele>294.030781</ele>
        <time>2021-05-14T08:27:02.424Z</time>
      </trkpt>
      <trkpt lat="49.253180" lon="9.110166">
        <ele>294.114399</ele>
        <time>2021-05-14T08:27:11.432Z</time>
      </trkpt>
      <trkpt lat="49.253253" lon="9.110265">
        <ele>294.193825</ele>
        <time>2021-05-14T08:27:19.423Z</time>
      </trkpt>
      <trkpt lat="49.253285" lon="9.110407">
        <ele>294.273709</ele>
        <time>2021-05-14T08:27:31.433Z</time>
      </trkpt>
      <trkpt lat="49.253247" lon="9.110542">
        <ele>294.351888</ele>
        <time>2021-05-14T08:27:39.435Z</time>
      </trkpt>
      <trkpt lat="49.253210" lon="9.110670">
        <ele>294.426330</ele>
        <time>2021-05-14T08:27:45.423Z</time>
      </trkpt>
      <trkpt lat="49.253170" lon="9.110803">
        <ele>294.504201</ele>
        <time>2021-05-14T08:27:51.435Z</time>
      </trkpt>
      <trkpt lat="49.253123" lon="9.110933">
        <ele>294.583227</ele>
        <time>2021-05-14T08:27:57.429Z</time>
      </trkpt>
      <trkpt lat="49.253077" lon="9.111055">
        <ele>294.658148</ele>
        <time>2021-05-14T08:28:04.438Z</time>
      </trkpt>
      <trkpt lat="49.253046" lon="9.111186">
        <ele>294.732246</ele>
        <time>2021-05-14T08:28:11.424Z</time>
      </trkpt>
      <trkpt lat="49.252998" lon="9.111315">
        <ele>294.811208</ele>
        <time>2021-05-14T08:28:18.428Z</time>
      </trkpt>
      <trkpt lat="49.252944" lon="9.111431">
        <ele>294.886973</ele>
        <time>2021-05-14T08:28:24.439Z</time>
      </trkpt>
      <trkpt lat="49.252886" lon="9.111557">
        <ele>294.968962</ele>
        <time>2021-05-14T08:28:30.428Z</time>
      </trkpt>
      <trkpt lat="49.252834" lon="9.111689">
        <ele>295.050948</ele>
        <time>2021-05-14T08:28:37.427Z</time>
      </trkpt>
      <trkpt lat="49.252778" lon="9.111801">
        <ele>295.125972</ele>
        <time>2021-05-14T08:28:45.428Z</time>
      </trkpt>
      <trkpt lat="49.252723" lon="9.111918">
        <ele>295.202645</ele>
        <time>2021-05-14T08:28:53.430Z</time>
      </trkpt>
      <trkpt lat="49.252666" lon="9.112048">
        <ele>295.285924</ele>
        <time>2021-05-14T08:29:00.439Z</time>
      </trkpt>
      <trkpt lat="49.252610" lon="9.112169">
        <ele>295.364801</ele>
        <time>2021-05-14T08:29:06.432Z</time>
      </trkpt>
      <trkpt lat="49.252545" lon="9.112290">
        <ele>295.444961</ele>
        <time>2021-05-14T08:29:11.436Z</time>
      </trkpt>
      <trkpt lat="49.252489" lon="9.112418">
        <ele>295.491742</ele>
        <time>2021-05-14T08:29:17.435Z</time>
      </trkpt>
      <trkpt lat="49.252436" lon="9.112534">
        <ele>295.534728</ele>
        <time>2021-05-14T08:29:24.426Z</time>
      </trkpt>
      <trkpt lat="49.252384" lon="9.112666">
        <ele>295.581535</ele>
        <time>2021-05-14T08:29:31.435Z</time>
      </trkpt>
      <trkpt lat="49.252335" lon="9.112807">
        <ele>295.630030</ele>
        <time>2021-05-14T08:29:37.432Z</time>
      </trkpt>
      <trkpt lat="49.252294" lon="9.112940">
        <ele>295.674683</ele>
        <time>2021-05-14T08:29:42.438Z</time>
      </trkpt>
      <trkpt lat="49.252250" lon="9.113062">
        <ele>295.716999</ele>
        <time>2021-05-14T08:29:48.417Z</time>
      </trkpt>
      <trkpt lat="49.252202" lon="9.113195">
        <ele>295.763137</ele>
        <time>2021-05-14T08:29:56.422Z</time>
      </trkpt>
      <trkpt lat="49.252158" lon="9.113360">
        <ele>295.817249</ele>
        <time>2021-05-14T08:30:15.439Z</time>
      </trkpt>
      <trkpt lat="49.252133" lon="9.113508">
        <ele>295.863660</ele>
        <time>2021-05-14T08:30:32.452Z</time>
      </trkpt>
      <trkpt lat="49.252113" lon="9.113648">
        <ele>295.907169</ele>
        <time>2021-05-14T08:30:39.429Z</time>
      </trkpt>
      <trkpt lat="49.252150" lon="9.113779">
        <ele>295.950503</ele>
        <time>2021-05-14T08:30:46.417Z</time>
      </trkpt>
      <trkpt lat="49.252220" lon="9.113896">
        <ele>295.998686</ele>
        <time>2021-05-14T08:30:52.434Z</time>
      </trkpt>
      <trkpt lat="49.252243" lon="9.114029">
        <ele>296.040457</ele>
        <time>2021-05-14T08:30:58.420Z</time>
      </trkpt>
      <trkpt lat="49.252197" lon="9.114173">
        <ele>296.089128</ele>
        <time>2021-05-14T08:31:07.425Z</time>
      </trkpt>
      <trkpt lat="49.252161" lon="9.114300">
        <ele>296.131163</ele>
        <time>2021-05-14T08:31:12.426Z</time>
      </trkpt>
      <trkpt lat="49.252113" lon="9.114432">
        <ele>296.177036</ele>
        <time>2021-05-14T08:31:17.430Z</time>
      </trkpt>
      <trkpt lat="49.252066" lon="9.114555">
        <ele>296.220305</ele>
        <time>2021-05-14T08:31:23.430Z</time>
      </trkpt>
      <trkpt lat="49.252086" lon="9.114690">
        <ele>296.262332</ele>
        <time>2021-05-14T08:31:35.425Z</time>
      </trkpt>
      <trkpt lat="49.252069" lon="9.114829">
        <ele>296.297504</ele>
        <time>2021-05-14T08:31:41.436Z</time>
      </trkpt>
      <trkpt lat="49.252045" lon="9.114976">
        <ele>296.330739</ele>
        <time>2021-05-14T08:31:50.426Z</time>
      </trkpt>
      <trkpt lat="49.252005" lon="9.115125">
        <ele>296.366076</ele>
        <time>2021-05-14T08:31:56.415Z</time>
      </trkpt>
      <trkpt lat="49.251984" lon="9.115278">
        <ele>296.400368</ele>
        <time>2021-05-14T08:32:02.433Z</time>
      </trkpt>
      <trkpt lat="49.251970" lon="9.115430">
        <ele>296.434036</ele>
        <time>2021-05-14T08:32:08.439Z</time>
      </trkpt>
      <trkpt lat="49.251939" lon="9.115569">
        <ele>296.466254</ele>
        <time>2021-05-14T08:32:14.460Z</time>
      </trkpt>
      <trkpt lat="49.251902" lon="9.115707">
        <ele>296.498976</ele>
        <time>2021-05-14T08:32:20.435Z</time>
      </trkpt>
      <trkpt lat="49.251859" lon="9.115849">
        <ele>296.533310</ele>
        <time>2021-05-14T08:32:28.431Z</time>
      </trkpt>
      <trkpt lat="49.251823" lon="9.116002">
        <ele>296.568982</ele>
        <time>2021-05-14T08:32:34.444Z</time>
      </trkpt>
      <trkpt lat="49.251796" lon="9.116144">
        <ele>296.601421</ele>
        <time>2021-05-14T08:32:40.925Z</time>
      </trkpt>
      <trkpt lat="49.251755" lon="9.116285">
        <ele>296.635277</ele>
        <time>2021-05-14T08:32:47.925Z</time>
      </trkpt>
      <trkpt lat="49.251724" lon="9.116415">
        <ele>296.665634</ele>
        <time>2021-05-14T08:32:54.925Z</time>
      </trkpt>
      <trkpt lat="49.251678" lon="9.116541">
        <ele>296.697299</ele>
        <time>2021-05-14T08:32:59.922Z</time>
      </trkpt>
      <trkpt lat="49.251625" lon="9.116680">
        <ele>296.732607</ele>
        <time>2021-05-14T08:33:05.925Z</time>
      </trkpt>
      <trkpt lat="49.251572" lon="9.116793">
        <ele>296.763127</ele>
        <time>2021-05-14T08:33:13.926Z</time>
      </trkpt>
      <trkpt lat="49.251526" lon="9.116918">
        <ele>296.794600</ele>
        <time>2021-05-14T08:33:19.919Z</time>
      </trkpt>
      <trkpt lat="49.251481" lon="9.117073">
        <ele>296.831808</ele>
        <time>2021-05-14T08:33:25.913Z</time>
      </trkpt>
      <trkpt lat="49.251447" lon="9.117206">
        <ele>296.863137</ele>
        <time>2021-05-14T08:33:30.928Z</time>
      </trkpt>
      <trkpt lat="49.251408" lon="9.117336">
        <ele>296.879593</ele>
        <time>2021-05-14T08:33:37.927Z</time>
      </trkpt>
      <trkpt lat="49.251376" lon="9.117464">
        <ele>296.874694</ele>
        <time>2021-05-14T08:33:45.916Z</time>
      </trkpt>
      <trkpt lat="49.251337" lon="9.117607">
        <ele>296.869156</ele>
        <time>2021-05-14T08:33:52.928Z</time>
      </trkpt>
      <trkpt lat="49.251305" lon="9.117745">
        <ele>296.863922</ele>
        <time>2021-05-14T08:33:59.920Z</time>
      </trkpt>
      <trkpt lat="49.251261" lon="9.117878">
        <ele>296.858594</ele>
        <time>2021-05-14T08:34:06.919Z</time>
      </trkpt>
      <trkpt lat="49.251206" lon="9.117995">
        <ele>296.853441</ele>
        <time>2021-05-14T08:34:11.913Z</time>
      </trkpt>
      <trkpt lat="49.251155" lon="9.118114">
        <ele>296.848354</ele>
        <time>2021-05-14T08:34:17.913Z</time>
      </trkpt>
      <trkpt lat="49.251098" lon="9.118222">
        <ele>296.843391</ele>
        <time>2021-05-14T08:34:25.919Z</time>
      </trkpt>
      <trkpt lat="49.251073" lon="9.118372">
        <ele>296.837858</ele>
        <time>2021-05-14T08:34:32.917Z</time>
      </trkpt>
      <trkpt lat="49.251047" lon="9.118507">
        <ele>296.832828</ele>
        <time>2021-05-14T08:34:38.928Z</time>
      </trkpt>
      <trkpt lat="49.251016" lon="9.118637">
        <ele>296.827882</ele>
        <time>2021-05-14T08:34:44.926Z</time>
      </trkpt>
      <trkpt lat="49.250985" lon="9.118794">
        <ele>296.822020</ele>
        <time>2021-05-14T08:34:51.907Z</time>
      </trkpt>
      <trkpt lat="49.250951" lon="9.118924">
        <ele>296.817015</ele>
        <time>2021-05-14T08:34:57.927Z</time>
      </trkpt>
      <trkpt lat="49.250919" lon="9.119065">
        <ele>296.811681</ele>
        <time>2021-05-14T08:35:05.917Z</time>
      </trkpt>
      <trkpt lat="49.250908" lon="9.119221">
        <ele>296.806073</ele>
        <time>2021-05-14T08:35:12.917Z</time>
      </trkpt>
      <trkpt lat="49.250942" lon="9.119351">
        <ele>296.801068</ele>
        <time>2021-05-14T08:35:20.926Z</time>
      </trkpt>
      <trkpt lat="49.250997" lon="9.119481">
        <ele>296.795532</ele>
        <time>2021-05-14T08:35:29.929Z</time>
      </trkpt>
      <trkpt lat="49.251058" lon="9.119604">
        <ele>296.790012</ele>
        <time>2021-05-14T08:35:35.916Z</time>
      </trkpt>
      <trkpt lat="49.251119" lon="9.119716">
        <ele>296.784799</ele>
        <time>2021-05-14T08:35:41.933Z</time>
      </trkpt>
      <trkpt lat="49.251191" lon="9.119836">
        <ele>296.672418</ele>
        <time>2021-05-14T08:35:48.919Z</time>
      </trkpt>
      <trkpt lat="49.251244" lon="9.119960">
        <ele>296.533915</ele>
        <time>2021-05-14T08:35:55.913Z</time>
      </trkpt>
      <trkpt lat="49.251304" lon="9.120076">
        <ele>296.395614</ele>
        <time>2021-05-14T08:36:06.916Z</time>
      </trkpt>
      <trkpt lat="49.251333" lon="9.120207">
        <ele>296.266353</ele>
        <time>2021-05-14T08:36:14.921Z</time>
      </trkpt>
      <trkpt lat="49.251390" lon="9.120331">
        <ele>296.124633</ele>
        <time>2021-05-14T08:36:21.910Z</time>
      </trkpt>
      <trkpt lat="49.251463" lon="9.120415">
        <ele>295.993934</ele>
        <time>2021-05-14T08:36:26.922Z</time>
      </trkpt>
      <trkpt lat="49.251508" lon="9.120545">
        <ele>295.856432</ele>
        <time>2021-05-14T08:36:36.915Z</time>
      </trkpt>
      <trkpt lat="49.251565" lon="9.120662">
        <ele>295.720009</ele>
        <time>2021-05-14T08:36:42.921Z</time>
      </trkpt>
      <trkpt lat="49.251612" lon="9.120791">
        <ele>295.581959</ele>
        <time>2021-05-14T08:36:53.928Z</time>
      </trkpt>
      <trkpt lat="49.251659" lon="9.120913">
        <ele>295.449583</ele>
        <time>2021-05-14T08:37:00.931Z</time>
      </trkpt>
      <trkpt lat="49.251708" lon="9.121037">
        <ele>295.314134</ele>
        <time>2021-05-14T08:37:09.922Z</time>
      </trkpt>
      <trkpt lat="49.251746" lon="9.121181">
        <ele>295.168995</ele>
        <time>2021-05-14T08:37:16.920Z</time>
      </trkpt>
      <trkpt lat="49.251794" lon="9.121318">
        <ele>295.023701</ele>
        <time>2021-05-14T08:37:24.917Z</time>
      </trkpt>
      <trkpt lat="49.251852" lon="9.121431">
        <ele>294.889375</ele>
        <time>2021-05-14T08:37:32.909Z</time>
      </trkpt>
      <trkpt lat="49.251929" lon="9.121528">
        <ele>294.746664</ele>
        <time>2021-05-14T08:37:39.915Z</time>
      </trkpt>
      <trkpt lat="49.251954" lon="9.121666">
        <ele>294.612838</ele>
        <time>2021-05-14T08:37:46.909Z</time>
      </trkpt>
      <trkpt lat="49.251980" lon="9.121824">
        <ele>294.460578</ele>
        <time>2021-05-14T08:37:53.921Z</time>
      </trkpt>
      <trkpt lat="49.252043" lon="9.121938">
        <ele>294.321002</ele>
        <time>2021-05-14T08:37:59.931Z</time>
      </trkpt>
      <trkpt lat="49.252098" lon="9.122059">
        <ele>294.164068</ele>
        <time>2021-05-14T08:38:07.937Z</time>
      </trkpt>
      <trkpt lat="49.252157" lon="9.122166">
        <ele>293.933354</ele>
        <time>2021-05-14T08:38:12.916Z</time>
      </trkpt>
      <trkpt lat="49.252243" lon="9.122243">
        <ele>293.681991</ele>
        <time>2021-05-14T08:38:20.921Z</time>
      </trkpt>
      <trkpt lat="49.252312" lon="9.122336">
        <ele>293.450080</ele>
        <time>2021-05-14T08:38:27.938Z</time>
      </trkpt>
      <trkpt lat="49.252435" lon="9.122456">
        <ele>293.082101</ele>
        <time>2021-05-14T08:39:52.925Z</time>
      </trkpt>
      <trkpt lat="49.252523" lon="9.122488">
        <ele>292.853866</ele>
        <time>2021-05-14T08:42:14.909Z</time>
      </trkpt>
      <trkpt lat="49.252583" lon="9.122600">
        <ele>292.615209</ele>
        <time>2021-05-14T08:42:21.911Z</time>
      </trkpt>
      <trkpt lat="49.252616" lon="9.122743">
        <ele>292.365382</ele>
        <time>2021-05-14T08:42:27.916Z</time>
      </trkpt>
      <trkpt lat="49.252637" lon="9.122884">
        <ele>292.127167</ele>
        <time>2021-05-14T08:42:34.918Z</time>
      </trkpt>
      <trkpt lat="49.252661" lon="9.123024">
        <ele>291.888748</ele>
        <time>2021-05-14T08:42:40.926Z</time>
      </trkpt>
      <trkpt lat="49.252686" lon="9.123163">
        <ele>291.651264</ele>
        <time>2021-05-14T08:42:46.929Z</time>
      </trkpt>
      <trkpt lat="49.252713" lon="9.123298">
        <ele>291.418697</ele>
        <time>2021-05-14T08:42:52.941Z</time>
      </trkpt>
      <trkpt lat="49.252738" lon="9.123449">
        <ele>291.162104</ele>
        <time>2021-05-14T08:42:59.922Z</time>
      </trkpt>
      <trkpt lat="49.252765" lon="9.123608">
        <ele>290.891493</ele>
        <time>2021-05-14T08:43:09.912Z</time>
      </trkpt>
      <trkpt lat="49.252799" lon="9.123743">
        <ele>290.653153</ele>
        <time>2021-05-14T08:43:17.929Z</time>
      </trkpt>
      <trkpt lat="49.252820" lon="9.123884">
        <ele>290.414939</ele>
        <time>2021-05-14T08:43:23.921Z</time>
      </trkpt>
      <trkpt lat="49.252861" lon="9.124014">
        <ele>290.177127</ele>
        <time>2021-05-14T08:43:31.915Z</time>
      </trkpt>
      <trkpt lat="49.252887" lon="9.124160">
        <ele>289.927857</ele>
        <time>2021-05-14T08:43:38.939Z</time>
      </trkpt>
      <trkpt lat="49.252899" lon="9.124318">
        <ele>289.666810</ele>
        <time>2021-05-14T08:43:45.915Z</time>
      </trkpt>
      <trkpt lat="49.252926" lon="9.124457">
        <ele>289.490333</ele>
        <time>2021-05-14T08:43:51.918Z</time>
      </trkpt>
      <trkpt lat="49.252937" lon="9.124606">
        <ele>289.307862</ele>
        <time>2021-05-14T08:44:10.930Z</time>
      </trkpt>
      <trkpt lat="49.252949" lon="9.124754">
        <ele>289.126380</ele>
        <time>2021-05-14T08:44:18.913Z</time>
      </trkpt>
      <trkpt lat="49.253121" lon="9.124756">
        <ele>288.805708</ele>
        <time>2021-05-14T08:44:54.937Z</time>
      </trkpt>
      <trkpt lat="49.253257" lon="9.124671">
        <ele>288.531875</ele>
        <time>2021-05-14T08:45:23.922Z</time>
      </trkpt>
      <trkpt lat="49.253345" lon="9.124613">
        <ele>288.353278</ele>
        <time>2021-05-14T08:45:31.925Z</time>
      </trkpt>
      <trkpt lat="49.253454" lon="9.124541">
        <ele>288.131985</ele>
        <time>2021-05-14T08:45:46.928Z</time>
      </trkpt>
      <trkpt lat="49.253548" lon="9.124504">
        <ele>287.951048</ele>
        <time>2021-05-14T08:45:54.927Z</time>
      </trkpt>
      <trkpt lat="49.253688" lon="9.124444">
        <ele>287.680024</ele>
        <time>2021-05-14T08:46:24.936Z</time>
      </trkpt>
      <trkpt lat="49.253784" lon="9.124375">
        <ele>287.482333</ele>
        <time>2021-05-14T08:46:31.917Z</time>
      </trkpt>
      <trkpt lat="49.253876" lon="9.124319">
        <ele>287.297775</ele>
        <time>2021-05-14T08:46:40.927Z</time>
      </trkpt>
      <trkpt lat="49.253967" lon="9.124266">
        <ele>287.116277</ele>
        <time>2021-05-14T08:46:49.926Z</time>
      </trkpt>
      <trkpt lat="49.254066" lon="9.124223">
        <ele>286.924437</ele>
        <time>2021-05-14T08:46:55.921Z</time>
      </trkpt>
      <trkpt lat="49.254151" lon="9.124160">
        <ele>286.748400</ele>
        <time>2021-05-14T08:47:01.918Z</time>
      </trkpt>
      <trkpt lat="49.254237" lon="9.124118">
        <ele>286.580121</ele>
        <time>2021-05-14T08:47:13.926Z</time>
      </trkpt>
      <trkpt lat="49.254329" lon="9.124052">
        <ele>286.390732</ele>
        <time>2021-05-14T08:47:21.922Z</time>
      </trkpt>
      <trkpt lat="49.254422" lon="9.123997">
        <ele>286.207896</ele>
        <time>2021-05-14T08:47:26.917Z</time>
      </trkpt>
      <trkpt lat="49.254516" lon="9.123939">
        <ele>286.024085</ele>
        <time>2021-05-14T08:47:32.910Z</time>
      </trkpt>
      <trkpt lat="49.254603" lon="9.123897">
        <ele>285.858630</ele>
        <time>2021-05-14T08:47:39.918Z</time>
      </trkpt>
      <trkpt lat="49.254689" lon="9.123845">
        <ele>285.690929</ele>
        <time>2021-05-14T08:47:46.911Z</time>
      </trkpt>
      <trkpt lat="49.254771" lon="9.123780">
        <ele>285.523464</ele>
        <time>2021-05-14T08:47:52.914Z</time>
      </trkpt>
      <trkpt lat="49.254864" lon="9.123722">
        <ele>285.341335</ele>
        <time>2021-05-14T08:48:00.928Z</time>
      </trkpt>
      <trkpt lat="49.254949" lon="9.123659">
        <ele>285.170063</ele>
        <time>2021-05-14T08:48:07.896Z</time>
      </trkpt>
      <trkpt lat="49.255031" lon="9.123594">
        <ele>285.002598</ele>
        <time>2021-05-14T08:48:13.878Z</time>
      </trkpt>
      <trkpt lat="49.255109" lon="9.123508">
        <ele>284.828290</ele>
        <time>2021-05-14T08:48:20.890Z</time>
      </trkpt>
      <trkpt lat="49.255200" lon="9.123427">
        <ele>284.637394</ele>
        <time>2021-05-14T08:48:27.902Z</time>
      </trkpt>
      <trkpt lat="49.255275" lon="9.123323">
        <ele>284.453909</ele>
        <time>2021-05-14T08:48:33.941Z</time>
      </trkpt>
      <trkpt lat="49.255348" lon="9.123208">
        <ele>284.263990</ele>
        <time>2021-05-14T08:48:40.922Z</time>
      </trkpt>
      <trkpt lat="49.255416" lon="9.123108">
        <ele>284.093024</ele>
        <time>2021-05-14T08:48:47.913Z</time>
      </trkpt>
      <trkpt lat="49.255498" lon="9.122961">
        <ele>283.864093</ele>
        <time>2021-05-14T08:51:18.926Z</time>
      </trkpt>
      <trkpt lat="49.255562" lon="9.122850">
        <ele>283.688750</ele>
        <time>2021-05-14T08:51:24.905Z</time>
      </trkpt>
      <trkpt lat="49.255630" lon="9.122738">
        <ele>283.507656</ele>
        <time>2021-05-14T08:51:31.918Z</time>
      </trkpt>
      <trkpt lat="49.255689" lon="9.122633">
        <ele>283.343628</ele>
        <time>2021-05-14T08:51:41.899Z</time>
      </trkpt>
      <trkpt lat="49.255750" lon="9.122514">
        <ele>283.164491</ele>
        <time>2021-05-14T08:51:48.921Z</time>
      </trkpt>
      <trkpt lat="49.255809" lon="9.122407">
        <ele>283.001135</ele>
        <time>2021-05-14T08:51:56.910Z</time>
      </trkpt>
      <trkpt lat="49.255874" lon="9.122286">
        <ele>282.823935</ele>
        <time>2021-05-14T08:52:03.916Z</time>
      </trkpt>
      <trkpt lat="49.255934" lon="9.122178">
        <ele>282.663568</ele>
        <time>2021-05-14T08:52:10.914Z</time>
      </trkpt>
      <trkpt lat="49.255978" lon="9.122058">
        <ele>282.507935</ele>
        <time>2021-05-14T08:52:18.927Z</time>
      </trkpt>
      <trkpt lat="49.256052" lon="9.121953">
        <ele>282.333204</ele>
        <time>2021-05-14T08:52:25.926Z</time>
      </trkpt>
      <trkpt lat="49.256122" lon="9.121853">
        <ele>282.167397</ele>
        <time>2021-05-14T08:52:30.917Z</time>
      </trkpt>
      <trkpt lat="49.256201" lon="9.121770">
        <ele>282.001448</ele>
        <time>2021-05-14T08:52:42.904Z</time>
      </trkpt>
      <trkpt lat="49.256247" lon="9.121633">
        <ele>281.827243</ele>
        <time>2021-05-14T08:52:47.910Z</time>
      </trkpt>
      <trkpt lat="49.256272" lon="9.121483">
        <ele>281.652193</ele>
        <time>2021-05-14T08:52:52.910Z</time>
      </trkpt>
      <trkpt lat="49.256274" lon="9.121338">
        <ele>281.488202</ele>
        <time>2021-05-14T08:52:59.901Z</time>
      </trkpt>
      <trkpt lat="49.256146" lon="9.121229">
        <ele>281.234502</ele>
        <time>2021-05-14T08:53:54.918Z</time>
      </trkpt>
      <trkpt lat="49.256067" lon="9.121147">
        <ele>281.069190</ele>
        <time>2021-05-14T08:54:00.951Z</time>
      </trkpt>
      <trkpt lat="49.256001" lon="9.121049">
        <ele>280.909964</ele>
        <time>2021-05-14T08:54:09.907Z</time>
      </trkpt>
      <trkpt lat="49.256046" lon="9.121186">
        <ele>280.736544</ele>
        <time>2021-05-14T08:55:23.898Z</time>
      </trkpt>
      <trkpt lat="49.255973" lon="9.121105">
        <ele>280.580395</ele>
        <time>2021-05-14T08:55:44.902Z</time>
      </trkpt>
      <trkpt lat="49.255890" lon="9.121027">
        <ele>280.411709</ele>
        <time>2021-05-14T08:55:58.909Z</time>
      </trkpt>
      <trkpt lat="49.255796" lon="9.120989">
        <ele>280.243287</ele>
        <time>2021-05-14T08:56:06.910Z</time>
      </trkpt>
      <trkpt lat="49.255691" lon="9.121001">
        <ele>280.060877</ele>
        <time>2021-05-14T08:56:11.902Z</time>
      </trkpt>
      <trkpt lat="49.255605" lon="9.121089">
        <ele>279.898952</ele>
        <time>2021-05-14T08:56:17.904Z</time>
      </trkpt>
      <trkpt lat="49.255522" lon="9.121144">
        <ele>279.790482</ele>
        <time>2021-05-14T08:56:23.908Z</time>
      </trkpt>
      <trkpt lat="49.255437" lon="9.121232">
        <ele>279.667430</ele>
        <time>2021-05-14T08:56:29.903Z</time>
      </trkpt>
      <trkpt lat="49.255372" lon="9.121348">
        <ele>279.547738</ele>
        <time>2021-05-14T08:56:36.918Z</time>
      </trkpt>
      <trkpt lat="49.255330" lon="9.121477">
        <ele>279.434876</ele>
        <time>2021-05-14T08:56:44.934Z</time>
      </trkpt>
      <trkpt lat="49.255281" lon="9.121606">
        <ele>279.318025</ele>
        <time>2021-05-14T08:57:42.910Z</time>
      </trkpt>
      <trkpt lat="49.255100" lon="9.121693">
        <ele>279.090484</ele>
        <time>2021-05-14T08:58:36.918Z</time>
      </trkpt>
      <trkpt lat="49.254999" lon="9.121658">
        <ele>278.966275</ele>
        <time>2021-05-14T08:58:43.923Z</time>
      </trkpt>
      <trkpt lat="49.254931" lon="9.121563">
        <ele>278.855891</ele>
        <time>2021-05-14T08:58:49.894Z</time>
      </trkpt>
      <trkpt lat="49.254971" lon="9.121421">
        <ele>278.734807</ele>
        <time>2021-05-14T09:00:03.901Z</time>
      </trkpt>
      <trkpt lat="49.254947" lon="9.121287">
        <ele>278.626020</ele>
        <time>2021-05-14T09:00:11.907Z</time>
      </trkpt>
      <trkpt lat="49.254913" lon="9.121105">
        <ele>278.477811</ele>
        <time>2021-05-14T09:00:37.912Z</time>
      </trkpt>
      <trkpt lat="49.254899" lon="9.120961">
        <ele>278.363829</ele>
        <time>2021-05-14T09:00:42.903Z</time>
      </trkpt>
      <trkpt lat="49.254889" lon="9.120824">
        <ele>278.255903</ele>
        <time>2021-05-14T09:00:48.905Z</time>
      </trkpt>
      <trkpt lat="49.254854" lon="9.120676">
        <ele>278.132662</ele>
        <time>2021-05-14T09:00:56.919Z</time>
      </trkpt>
      <trkpt lat="49.254829" lon="9.120529">
        <ele>278.013733</ele>
        <time>2021-05-14T09:01:01.904Z</time>
      </trkpt>
      <trkpt lat="49.254799" lon="9.120381">
        <ele>277.892404</ele>
        <time>2021-05-14T09:01:07.909Z</time>
      </trkpt>
      <trkpt lat="49.254771" lon="9.120246">
        <ele>277.781504</ele>
        <time>2021-05-14T09:01:15.888Z</time>
      </trkpt>
      <trkpt lat="49.254756" lon="9.120097">
        <ele>277.784322</ele>
        <time>2021-05-14T09:01:21.914Z</time>
      </trkpt>
      <trkpt lat="49.254743" lon="9.119958">
        <ele>277.788115</ele>
        <time>2021-05-14T09:01:28.906Z</time>
      </trkpt>
      <trkpt lat="49.254746" lon="9.119795">
        <ele>277.792521</ele>
        <time>2021-05-14T09:01:37.915Z</time>
      </trkpt>
      <trkpt lat="49.254740" lon="9.119635">
        <ele>277.796851</ele>
        <time>2021-05-14T09:01:44.906Z</time>
      </trkpt>
      <trkpt lat="49.254735" lon="9.119483">
        <ele>277.800962</ele>
        <time>2021-05-14T09:01:49.920Z</time>
      </trkpt>
      <trkpt lat="49.254726" lon="9.119320">
        <ele>277.805382</ele>
        <time>2021-05-14T09:01:55.907Z</time>
      </trkpt>
      <trkpt lat="49.254705" lon="9.119174">
        <ele>277.809421</ele>
        <time>2021-05-14T09:02:02.906Z</time>
      </trkpt>
      <trkpt lat="49.254664" lon="9.119034">
        <ele>277.813567</ele>
        <time>2021-05-14T09:02:10.922Z</time>
      </trkpt>
      <trkpt lat="49.254631" lon="9.118885">
        <ele>277.817818</ele>
        <time>2021-05-14T09:02:17.909Z</time>
      </trkpt>
      <trkpt lat="49.254608" lon="9.118725">
        <ele>277.822244</ele>
        <time>2021-05-14T09:02:23.901Z</time>
      </trkpt>
      <trkpt lat="49.254599" lon="9.118570">
        <ele>277.826448</ele>
        <time>2021-05-14T09:02:30.905Z</time>
      </trkpt>
      <trkpt lat="49.254614" lon="9.118427">
        <ele>277.830361</ele>
        <time>2021-05-14T09:02:38.917Z</time>
      </trkpt>
      <trkpt lat="49.254615" lon="9.118286">
        <ele>277.834171</ele>
        <time>2021-05-14T09:02:43.926Z</time>
      </trkpt>
      <trkpt lat="49.254601" lon="9.118135">
        <ele>277.838291</ele>
        <time>2021-05-14T09:02:48.917Z</time>
      </trkpt>
      <trkpt lat="49.254593" lon="9.117993">
        <ele>277.842142</ele>
        <time>2021-05-14T09:02:54.916Z</time>
      </trkpt>
      <trkpt lat="49.254564" lon="9.117848">
        <ele>277.846239</ele>
        <time>2021-05-14T09:03:01.908Z</time>
      </trkpt>
      <trkpt lat="49.254576" lon="9.117691">
        <ele>277.850510</ele>
        <time>2021-05-14T09:03:06.902Z</time>
      </trkpt>
      <trkpt lat="49.254579" lon="9.117553">
        <ele>277.854240</ele>
        <time>2021-05-14T09:03:12.921Z</time>
      </trkpt>
      <trkpt lat="49.254617" lon="9.117344">
        <ele>277.921376</ele>
        <time>2021-05-14T09:06:56.921Z</time>
      </trkpt>
      <trkpt lat="49.254624" lon="9.117198">
        <ele>277.970539</ele>
        <time>2021-05-14T09:07:05.927Z</time>
      </trkpt>
      <trkpt lat="49.254649" lon="9.117048">
        <ele>278.022530</ele>
        <time>2021-05-14T09:07:11.911Z</time>
      </trkpt>
      <trkpt lat="49.254642" lon="9.116901">
        <ele>278.072028</ele>
        <time>2021-05-14T09:07:19.930Z</time>
      </trkpt>
      <trkpt lat="49.254642" lon="9.116761">
        <ele>278.119044</ele>
        <time>2021-05-14T09:07:26.914Z</time>
      </trkpt>
      <trkpt lat="49.254659" lon="9.116608">
        <ele>278.171165</ele>
        <time>2021-05-14T09:07:32.906Z</time>
      </trkpt>
      <trkpt lat="49.254699" lon="9.116476">
        <ele>278.220039</ele>
        <time>2021-05-14T09:07:37.907Z</time>
      </trkpt>
      <trkpt lat="49.254724" lon="9.116333">
        <ele>278.269755</ele>
        <time>2021-05-14T09:07:43.915Z</time>
      </trkpt>
      <trkpt lat="49.254739" lon="9.116180">
        <ele>278.321713</ele>
        <time>2021-05-14T09:07:50.905Z</time>
      </trkpt>
      <trkpt lat="49.254762" lon="9.116039">
        <ele>278.370521</ele>
        <time>2021-05-14T09:07:57.904Z</time>
      </trkpt>
      <trkpt lat="49.254786" lon="9.115888">
        <ele>278.422713</ele>
        <time>2021-05-14T09:08:04.906Z</time>
      </trkpt>
      <trkpt lat="49.254804" lon="9.115737">
        <ele>278.474262</ele>
        <time>2021-05-14T09:08:10.899Z</time>
      </trkpt>
      <trkpt lat="49.254804" lon="9.115587">
        <ele>278.524636</ele>
        <time>2021-05-14T09:08:16.922Z</time>
      </trkpt>
      <trkpt lat="49.254814" lon="9.115433">
        <ele>278.576609</ele>
        <time>2021-05-14T09:08:23.909Z</time>
      </trkpt>
      <trkpt lat="49.254818" lon="9.115288">
        <ele>278.625347</ele>
        <time>2021-05-14T09:08:30.928Z</time>
      </trkpt>
      <trkpt lat="49.254832" lon="9.115134">
        <ele>278.677564</ele>
        <time>2021-05-14T09:08:38.911Z</time>
      </trkpt>
      <trkpt lat="49.254841" lon="9.114974">
        <ele>278.731495</ele>
        <time>2021-05-14T09:08:45.927Z</time>
      </trkpt>
      <trkpt lat="49.254862" lon="9.114829">
        <ele>278.780877</ele>
        <time>2021-05-14T09:08:51.909Z</time>
      </trkpt>
      <trkpt lat="49.254873" lon="9.114666">
        <ele>278.812863</ele>
        <time>2021-05-14T09:08:57.894Z</time>
      </trkpt>
      <trkpt lat="49.254879" lon="9.114512">
        <ele>278.842977</ele>
        <time>2021-05-14T09:09:03.924Z</time>
      </trkpt>
      <trkpt lat="49.254960" lon="9.114442">
        <ele>278.870789</ele>
        <time>2021-05-14T09:09:11.910Z</time>
      </trkpt>
      <trkpt lat="49.255031" lon="9.114534">
        <ele>278.898598</ele>
        <time>2021-05-14T09:09:19.889Z</time>
      </trkpt>
      <trkpt lat="49.254993" lon="9.114311">
        <ele>278.943585</ele>
        <time>2021-05-14T09:10:11.909Z</time>
      </trkpt>
      <trkpt lat="49.254929" lon="9.114204">
        <ele>278.971915</ele>
        <time>2021-05-14T09:10:27.911Z</time>
      </trkpt>
      <trkpt lat="49.254937" lon="9.114047">
        <ele>279.002654</ele>
        <time>2021-05-14T09:10:34.907Z</time>
      </trkpt>
      <trkpt lat="49.254949" lon="9.113898">
        <ele>279.031958</ele>
        <time>2021-05-14T09:10:41.923Z</time>
      </trkpt>
      <trkpt lat="49.254962" lon="9.113739">
        <ele>279.063237</ele>
        <time>2021-05-14T09:10:48.914Z</time>
      </trkpt>
      <trkpt lat="49.254987" lon="9.113598">
        <ele>279.091757</ele>
        <time>2021-05-14T09:10:55.947Z</time>
      </trkpt>
      <trkpt lat="49.255014" lon="9.113460">
        <ele>279.119878</ele>
        <time>2021-05-14T09:11:04.918Z</time>
      </trkpt>
      <trkpt lat="49.255031" lon="9.113300">
        <ele>279.151520</ele>
        <time>2021-05-14T09:11:12.915Z</time>
      </trkpt>
      <trkpt lat="49.255053" lon="9.113163">
        <ele>279.179060</ele>
        <time>2021-05-14T09:11:17.910Z</time>
      </trkpt>
      <trkpt lat="49.255089" lon="9.113034">
        <ele>279.206445</ele>
        <time>2021-05-14T09:11:24.932Z</time>
      </trkpt>
      <trkpt lat="49.255120" lon="9.112891">
        <ele>279.235857</ele>
        <time>2021-05-14T09:11:30.925Z</time>
      </trkpt>
      <trkpt lat="49.255149" lon="9.112748">
        <ele>279.265086</ele>
        <time>2021-05-14T09:11:36.923Z</time>
      </trkpt>
      <trkpt lat="49.255174" lon="9.112587">
        <ele>279.297390</ele>
        <time>2021-05-14T09:11:43.907Z</time>
      </trkpt>
      <trkpt lat="49.255203" lon="9.112448">
        <ele>279.318971</ele>
        <time>2021-05-14T09:11:49.924Z</time>
      </trkpt>
      <trkpt lat="49.255234" lon="9.112313">
        <ele>279.322135</ele>
        <time>2021-05-14T09:11:55.914Z</time>
      </trkpt>
      <trkpt lat="49.255256" lon="9.112166">
        <ele>279.325470</ele>
        <time>2021-05-14T09:12:02.925Z</time>
      </trkpt>
      <trkpt lat="49.255241" lon="9.112023">
        <ele>279.328672</ele>
        <time>2021-05-14T09:12:16.907Z</time>
      </trkpt>
      <trkpt lat="49.255274" lon="9.111890">
        <ele>279.331818</ele>
        <time>2021-05-14T09:12:23.906Z</time>
      </trkpt>
      <trkpt lat="49.255280" lon="9.111746">
        <ele>279.335009</ele>
        <time>2021-05-14T09:12:30.906Z</time>
      </trkpt>
      <trkpt lat="49.255312" lon="9.111614">
        <ele>279.338122</ele>
        <time>2021-05-14T09:12:37.913Z</time>
      </trkpt>
      <trkpt lat="49.255351" lon="9.111473">
        <ele>279.341508</ele>
        <time>2021-05-14T09:12:45.912Z</time>
      </trkpt>
      <trkpt lat="49.255375" lon="9.111336">
        <ele>279.344644</ele>
        <time>2021-05-14T09:12:52.908Z</time>
      </trkpt>
      <trkpt lat="49.255404" lon="9.111204">
        <ele>279.347724</ele>
        <time>2021-05-14T09:13:01.909Z</time>
      </trkpt>
      <trkpt lat="49.255409" lon="9.111063">
        <ele>279.350846</ele>
        <time>2021-05-14T09:13:08.896Z</time>
      </trkpt>
      <trkpt lat="49.255423" lon="9.110906">
        <ele>279.354349</ele>
        <time>2021-05-14T09:13:22.890Z</time>
      </trkpt>
      <trkpt lat="49.255435" lon="9.110746">
        <ele>279.357910</ele>
        <time>2021-05-14T09:13:29.900Z</time>
      </trkpt>
      <trkpt lat="49.255489" lon="9.110630">
        <ele>279.361060</ele>
        <time>2021-05-14T09:13:36.912Z</time>
      </trkpt>
      <trkpt lat="49.255522" lon="9.110502">
        <ele>279.364103</ele>
        <time>2021-05-14T09:13:44.867Z</time>
      </trkpt>
      <trkpt lat="49.255551" lon="9.110362">
        <ele>279.367351</ele>
        <time>2021-05-14T09:13:52.917Z</time>
      </trkpt>
      <trkpt lat="49.255578" lon="9.110223">
        <ele>279.370557</ele>
        <time>2021-05-14T09:13:58.908Z</time>
      </trkpt>
      <trkpt lat="49.255605" lon="9.110085">
        <ele>279.373743</ele>
        <time>2021-05-14T09:14:04.912Z</time>
      </trkpt>
      <trkpt lat="49.255644" lon="9.109933">
        <ele>279.377354</ele>
        <time>2021-05-14T09:14:11.914Z</time>
      </trkpt>
      <trkpt lat="49.255609" lon="9.109717">
        <ele>279.439271</ele>
        <time>2021-05-14T09:15:08.925Z</time>
      </trkpt>
      <trkpt lat="49.255643" lon="9.109569">
        <ele>279.503480</ele>
        <time>2021-05-14T09:15:16.920Z</time>
      </trkpt>
      <trkpt lat="49.255684" lon="9.109429">
        <ele>279.566275</ele>
        <time>2021-05-14T09:15:22.935Z</time>
      </trkpt>
      <trkpt lat="49.255725" lon="9.109278">
        <ele>279.633203</ele>
        <time>2021-05-14T09:15:28.907Z</time>
      </trkpt>
      <trkpt lat="49.255748" lon="9.109137">
        <ele>279.692680</ele>
        <time>2021-05-14T09:15:35.925Z</time>
      </trkpt>
      <trkpt lat="49.255798" lon="9.109008">
        <ele>279.754077</ele>
        <time>2021-05-14T09:15:41.911Z</time>
      </trkpt>
      <trkpt lat="49.255816" lon="9.108858">
        <ele>279.816491</ele>
        <time>2021-05-14T09:15:48.919Z</time>
      </trkpt>
      <trkpt lat="49.255845" lon="9.108713">
        <ele>279.878553</ele>
        <time>2021-05-14T09:15:54.910Z</time>
      </trkpt>
      <trkpt lat="49.255874" lon="9.108564">
        <ele>279.942182</ele>
        <time>2021-05-14T09:16:00.912Z</time>
      </trkpt>
      <trkpt lat="49.255905" lon="9.108421">
        <ele>280.003845</ele>
        <time>2021-05-14T09:16:07.906Z</time>
      </trkpt>
      <trkpt lat="49.255932" lon="9.108282">
        <ele>280.063194</ele>
        <time>2021-05-14T09:16:13.905Z</time>
      </trkpt>
      <trkpt lat="49.255970" lon="9.108157">
        <ele>280.119624</ele>
        <time>2021-05-14T09:16:18.903Z</time>
      </trkpt>
      <trkpt lat="49.256009" lon="9.107997">
        <ele>280.189518</ele>
        <time>2021-05-14T09:16:24.944Z</time>
      </trkpt>
      <trkpt lat="49.256051" lon="9.107848">
        <ele>280.255937</ele>
        <time>2021-05-14T09:16:32.905Z</time>
      </trkpt>
      <trkpt lat="49.256086" lon="9.107707">
        <ele>280.317670</ele>
        <time>2021-05-14T09:16:38.922Z</time>
      </trkpt>
      <trkpt lat="49.256121" lon="9.107579">
        <ele>280.374463</ele>
        <time>2021-05-14T09:16:43.925Z</time>
      </trkpt>
      <trkpt lat="49.256140" lon="9.107444">
        <ele>280.430978</ele>
        <time>2021-05-14T09:16:49.907Z</time>
      </trkpt>
      <trkpt lat="49.256159" lon="9.107281">
        <ele>280.498738</ele>
        <time>2021-05-14T09:16:56.921Z</time>
      </trkpt>
      <trkpt lat="49.256166" lon="9.107136">
        <ele>280.555687</ele>
        <time>2021-05-14T09:17:02.919Z</time>
      </trkpt>
      <trkpt lat="49.256205" lon="9.106989">
        <ele>280.617405</ele>
        <time>2021-05-14T09:17:09.914Z</time>
      </trkpt>
      <trkpt lat="49.256233" lon="9.106858">
        <ele>280.671020</ele>
        <time>2021-05-14T09:17:15.925Z</time>
      </trkpt>
      <trkpt lat="49.256284" lon="9.106744">
        <ele>280.724775</ele>
        <time>2021-05-14T09:17:21.916Z</time>
      </trkpt>
      <trkpt lat="49.256333" lon="9.106613">
        <ele>280.783501</ele>
        <time>2021-05-14T09:17:28.917Z</time>
      </trkpt>
      <trkpt lat="49.256382" lon="9.106496">
        <ele>280.837571</ele>
        <time>2021-05-14T09:17:35.920Z</time>
      </trkpt>
      <trkpt lat="49.256447" lon="9.106381">
        <ele>280.896740</ele>
        <time>2021-05-14T09:17:49.922Z</time>
      </trkpt>
      <trkpt lat="49.256518" lon="9.106263">
        <ele>280.959163</ele>
        <time>2021-05-14T09:17:56.918Z</time>
      </trkpt>
      <trkpt lat="49.256563" lon="9.106136">
        <ele>281.015368</ele>
        <time>2021-05-14T09:18:03.864Z</time>
      </trkpt>
      <trkpt lat="49.256626" lon="9.106025">
        <ele>281.072582</ele>
        <time>2021-05-14T09:18:10.908Z</time>
      </trkpt>
      <trkpt lat="49.256679" lon="9.105898">
        <ele>281.131212</ele>
        <time>2021-05-14T09:18:17.912Z</time>
      </trkpt>
      <trkpt lat="49.256722" lon="9.105770">
        <ele>281.187204</ele>
        <time>2021-05-14T09:18:24.892Z</time>
      </trkpt>
      <trkpt lat="49.256783" lon="9.105644">
        <ele>281.248221</ele>
        <time>2021-05-14T09:18:31.925Z</time>
      </trkpt>
      <trkpt lat="49.256849" lon="9.105549">
        <ele>281.302185</ele>
        <time>2021-05-14T09:18:38.909Z</time>
      </trkpt>
      <trkpt lat="49.256922" lon="9.105429">
        <ele>281.365988</ele>
        <time>2021-05-14T09:18:44.910Z</time>
      </trkpt>
      <trkpt lat="49.257002" lon="9.105309">
        <ele>281.432705</ele>
        <time>2021-05-14T09:18:51.912Z</time>
      </trkpt>
      <trkpt lat="49.257058" lon="9.105178">
        <ele>281.493612</ele>
        <time>2021-05-14T09:18:58.914Z</time>
      </trkpt>
      <trkpt lat="49.257119" lon="9.105073">
        <ele>281.548286</ele>
        <time>2021-05-14T09:19:05.916Z</time>
      </trkpt>
      <trkpt lat="49.257182" lon="9.104941">
        <ele>281.641910</ele>
        <time>2021-05-14T09:19:11.912Z</time>
      </trkpt>
      <trkpt lat="49.257227" lon="9.104816">
        <ele>281.747534</ele>
        <time>2021-05-14T09:19:19.912Z</time>
      </trkpt>
      <trkpt lat="49.257268" lon="9.104688">
        <ele>281.853033</ele>
        <time>2021-05-14T09:19:27.949Z</time>
      </trkpt>
      <trkpt lat="49.257316" lon="9.104569">
        <ele>281.956540</ele>
        <time>2021-05-14T09:19:32.904Z</time>
      </trkpt>
      <trkpt lat="49.257362" lon="9.104418">
        <ele>282.079836</ele>
        <time>2021-05-14T09:19:51.949Z</time>
      </trkpt>
      <trkpt lat="49.257408" lon="9.104292">
        <ele>282.186658</ele>
        <time>2021-05-14T09:19:57.913Z</time>
      </trkpt>
      <trkpt lat="49.257451" lon="9.104159">
        <ele>282.296477</ele>
        <time>2021-05-14T09:20:05.916Z</time>
      </trkpt>
      <trkpt lat="49.257491" lon="9.104024">
        <ele>282.406175</ele>
        <time>2021-05-14T09:20:13.926Z</time>
      </trkpt>
      <trkpt lat="49.257528" lon="9.103889">
        <ele>282.514512</ele>
        <time>2021-05-14T09:20:20.905Z</time>
      </trkpt>
      <trkpt lat="49.257564" lon="9.103757">
        <ele>282.620363</ele>
        <time>2021-05-14T09:20:30.909Z</time>
      </trkpt>
      <trkpt lat="49.257608" lon="9.103627">
        <ele>282.728714</ele>
        <time>2021-05-14T09:20:38.922Z</time>
      </trkpt>
      <trkpt lat="49.257632" lon="9.103483">
        <ele>282.838679</ele>
        <time>2021-05-14T09:21:00.910Z</time>
      </trkpt>
      <trkpt lat="49.257672" lon="9.103351">
        <ele>282.946359</ele>
        <time>2021-05-14T09:21:06.919Z</time>
      </trkpt>
      <trkpt lat="49.257724" lon="9.103203">
        <ele>283.070724</ele>
        <time>2021-05-14T09:21:12.917Z</time>
      </trkpt>
      <trkpt lat="49.257765" lon="9.103076">
        <ele>283.175558</ele>
        <time>2021-05-14T09:21:18.925Z</time>
      </trkpt>
      <trkpt lat="49.257803" lon="9.102943">
        <ele>283.282980</ele>
        <time>2021-05-14T09:21:25.920Z</time>
      </trkpt>
      <trkpt lat="49.257860" lon="9.102831">
        <ele>283.388065</ele>
        <time>2021-05-14T09:21:31.918Z</time>
      </trkpt>
      <trkpt lat="49.257907" lon="9.102713">
        <ele>283.490347</ele>
        <time>2021-05-14T09:21:37.920Z</time>
      </trkpt>
      <trkpt lat="49.257952" lon="9.102592">
        <ele>283.593389</ele>
        <time>2021-05-14T09:21:43.906Z</time>
      </trkpt>
      <trkpt lat="49.258005" lon="9.102467">
        <ele>283.743363</ele>
        <time>2021-05-14T09:21:49.919Z</time>
      </trkpt>
      <trkpt lat="49.258056" lon="9.102338">
        <ele>283.906451</ele>
        <time>2021-05-14T09:21:56.908Z</time>
      </trkpt>
      <trkpt lat="49.258095" lon="9.102208">
        <ele>284.061163</ele>
        <time>2021-05-14T09:22:02.946Z</time>
      </trkpt>
      <trkpt lat="49.258102" lon="9.102056">
        <ele>284.225932</ele>
        <time>2021-05-14T09:22:11.914Z</time>
      </trkpt>
      <trkpt lat="49.258082" lon="9.101847">
        <ele>284.454346</ele>
        <time>2021-05-14T09:22:30.912Z</time>
      </trkpt>
      <trkpt lat="49.258079" lon="9.101691">
        <ele>284.623105</ele>
        <time>2021-05-14T09:22:36.929Z</time>
      </trkpt>
      <trkpt lat="49.258070" lon="9.101550">
        <ele>284.776299</ele>
        <time>2021-05-14T09:22:46.914Z</time>
      </trkpt>
      <trkpt lat="49.258064" lon="9.101411">
        <ele>284.926932</ele>
        <time>2021-05-14T09:22:53.918Z</time>
      </trkpt>
      <trkpt lat="49.258045" lon="9.101257">
        <ele>285.096405</ele>
        <time>2021-05-14T09:22:59.913Z</time>
      </trkpt>
      <trkpt lat="49.258020" lon="9.101104">
        <ele>285.266954</ele>
        <time>2021-05-14T09:23:06.925Z</time>
      </trkpt>
      <trkpt lat="49.258002" lon="9.100952">
        <ele>285.433999</ele>
        <time>2021-05-14T09:23:13.916Z</time>
      </trkpt>
      <trkpt lat="49.257897" lon="9.100936">
        <ele>285.608823</ele>
        <time>2021-05-14T09:24:31.922Z</time>
      </trkpt>
      <trkpt lat="49.257809" lon="9.100901">
        <ele>285.759455</ele>
        <time>2021-05-14T09:24:38.932Z</time>
      </trkpt>
      <trkpt lat="49.257727" lon="9.100836">
        <ele>285.912418</ele>
        <time>2021-05-14T09:24:58.919Z</time>
      </trkpt>
      <trkpt lat="49.257647" lon="9.100771">
        <ele>286.062446</ele>
        <time>2021-05-14T09:25:05.930Z</time>
      </trkpt>
      <trkpt lat="49.257561" lon="9.100697">
        <ele>286.225863</ele>
        <time>2021-05-14T09:25:14.925Z</time>
      </trkpt>
      <trkpt lat="49.257470" lon="9.100567">
        <ele>286.432001</ele>
        <time>2021-05-14T09:25:37.926Z</time>
      </trkpt>
      <trkpt lat="49.257392" lon="9.100481">
        <ele>286.591214</ele>
        <time>2021-05-14T09:25:47.914Z</time>
      </trkpt>
      <trkpt lat="49.257321" lon="9.100392">
        <ele>286.819107</ele>
        <time>2021-05-14T09:25:53.942Z</time>
      </trkpt>
      <trkpt lat="49.257250" lon="9.100296">
        <ele>287.057845</ele>
        <time>2021-05-14T09:26:01.920Z</time>
      </trkpt>
      <trkpt lat="49.257158" lon="9.100236">
        <ele>287.309930</ele>
        <time>2021-05-14T09:26:13.919Z</time>
      </trkpt>
      <trkpt lat="49.257066" lon="9.100194">
        <ele>287.551955</ele>
        <time>2021-05-14T09:26:20.923Z</time>
      </trkpt>
      <trkpt lat="49.256989" lon="9.100103">
        <ele>287.797125</ele>
        <time>2021-05-14T09:26:28.910Z</time>
      </trkpt>
      <trkpt lat="49.256914" lon="9.100014">
        <ele>288.036294</ele>
        <time>2021-05-14T09:26:36.919Z</time>
      </trkpt>
      <trkpt lat="49.256849" lon="9.099892">
        <ele>288.295438</ele>
        <time>2021-05-14T09:26:45.926Z</time>
      </trkpt>
      <trkpt lat="49.256783" lon="9.099796">
        <ele>288.524876</ele>
        <time>2021-05-14T09:26:53.925Z</time>
      </trkpt>
      <trkpt lat="49.256720" lon="9.099664">
        <ele>288.793961</ele>
        <time>2021-05-14T09:27:00.924Z</time>
      </trkpt>
      <trkpt lat="49.256722" lon="9.099508">
        <ele>289.050707</ele>
        <time>2021-05-14T09:27:04.918Z</time>
      </trkpt>
      <trkpt lat="49.256683" lon="9.099361">
        <ele>289.311816</ele>
        <time>2021-05-14T09:27:09.917Z</time>
      </trkpt>
      <trkpt lat="49.256668" lon="9.099191">
        <ele>289.594096</ele>
        <time>2021-05-14T09:27:16.913Z</time>
      </trkpt>
      <trkpt lat="49.256632" lon="9.099053">
        <ele>289.838641</ele>
        <time>2021-05-14T09:27:26.910Z</time>
      </trkpt>
      <trkpt lat="49.256571" lon="9.098944">
        <ele>290.074907</ele>
        <time>2021-05-14T09:27:36.925Z</time>
      </trkpt>
      <trkpt lat="49.256587" lon="9.098806">
        <ele>290.305542</ele>
        <time>2021-05-14T09:27:42.917Z</time>
      </trkpt>
      <trkpt lat="49.256577" lon="9.098670">
        <ele>290.530745</ele>
        <time>2021-05-14T09:27:52.960Z</time>
      </trkpt>
      <trkpt lat="49.256573" lon="9.098526">
        <ele>290.767912</ele>
        <time>2021-05-14T09:28:01.915Z</time>
      </trkpt>
      <trkpt lat="49.256540" lon="9.098391">
        <ele>291.005124</ele>
        <time>2021-05-14T09:28:06.925Z</time>
      </trkpt>
      <trkpt lat="49.256488" lon="9.098240">
        <ele>291.272838</ele>
        <time>2021-05-14T09:28:12.922Z</time>
      </trkpt>
      <trkpt lat="49.256442" lon="9.098120">
        <ele>291.482134</ele>
        <time>2021-05-14T09:28:17.915Z</time>
      </trkpt>
      <trkpt lat="49.256407" lon="9.097992">
        <ele>291.690847</ele>
        <time>2021-05-14T09:28:23.917Z</time>
      </trkpt>
      <trkpt lat="49.256370" lon="9.097844">
        <ele>291.929198</ele>
        <time>2021-05-14T09:28:31.935Z</time>
      </trkpt>
      <trkpt lat="49.256323" lon="9.097724">
        <ele>292.139670</ele>
        <time>2021-05-14T09:28:37.910Z</time>
      </trkpt>
      <trkpt lat="49.256327" lon="9.097541">
        <ele>292.415043</ele>
        <time>2021-05-14T09:28:44.923Z</time>
      </trkpt>
      <trkpt lat="49.256465" lon="9.097382">
        <ele>292.812907</ele>
        <time>2021-05-14T09:28:46.921Z</time>
      </trkpt>
      <trkpt lat="49.256421" lon="9.097254">
        <ele>293.030476</ele>
        <time>2021-05-14T09:28:54.768Z</time>
      </trkpt>
      <trkpt lat="49.256380" lon="9.097118">
        <ele>293.255774</ele>
        <time>2021-05-14T09:29:04.780Z</time>
      </trkpt>
      <trkpt lat="49.256295" lon="9.097065">
        <ele>293.467233</ele>
        <time>2021-05-14T09:29:10.768Z</time>
      </trkpt>
      <trkpt lat="49.256198" lon="9.097023">
        <ele>293.699499</ele>
        <time>2021-05-14T09:29:17.790Z</time>
      </trkpt>
      <trkpt lat="49.256108" lon="9.096990">
        <ele>293.912737</ele>
        <time>2021-05-14T09:29:22.769Z</time>
      </trkpt>
      <trkpt lat="49.256004" lon="9.096965">
        <ele>294.155310</ele>
        <time>2021-05-14T09:29:30.770Z</time>
      </trkpt>
      <trkpt lat="49.255915" lon="9.096914">
        <ele>294.374262</ele>
        <time>2021-05-14T09:29:36.793Z</time>
      </trkpt>
      <trkpt lat="49.255830" lon="9.096869">
        <ele>294.581486</ele>
        <time>2021-05-14T09:29:43.780Z</time>
      </trkpt>
      <trkpt lat="49.255736" lon="9.096853">
        <ele>294.799418</ele>
        <time>2021-05-14T09:29:51.775Z</time>
      </trkpt>
      <trkpt lat="49.255639" lon="9.096816">
        <ele>295.029752</ele>
        <time>2021-05-14T09:30:01.774Z</time>
      </trkpt>
      <trkpt lat="49.255541" lon="9.096710">
        <ele>295.304469</ele>
        <time>2021-05-14T09:30:10.774Z</time>
      </trkpt>
      <trkpt lat="49.255522" lon="9.096573">
        <ele>295.502858</ele>
        <time>2021-05-14T09:31:25.771Z</time>
      </trkpt>
      <trkpt lat="49.255534" lon="9.096416">
        <ele>295.726764</ele>
        <time>2021-05-14T09:31:32.766Z</time>
      </trkpt>
      <trkpt lat="49.255527" lon="9.096277">
        <ele>295.924240</ele>
        <time>2021-05-14T09:31:41.757Z</time>
      </trkpt>
      <trkpt lat="49.255515" lon="9.096118">
        <ele>296.150960</ele>
        <time>2021-05-14T09:31:49.788Z</time>
      </trkpt>
      <trkpt lat="49.255512" lon="9.095946">
        <ele>296.394680</ele>
        <time>2021-05-14T09:31:54.776Z</time>
      </trkpt>
      <trkpt lat="49.255485" lon="9.095792">
        <ele>296.620551</ele>
        <time>2021-05-14T09:31:59.778Z</time>
      </trkpt>
      <trkpt lat="49.255457" lon="9.095642">
        <ele>296.841541</ele>
        <time>2021-05-14T09:32:05.781Z</time>
      </trkpt>
      <trkpt lat="49.255427" lon="9.095511">
        <ele>297.038190</ele>
        <time>2021-05-14T09:32:10.779Z</time>
      </trkpt>
      <trkpt lat="49.255404" lon="9.095365">
        <ele>297.250934</ele>
        <time>2021-05-14T09:32:16.795Z</time>
      </trkpt>
      <trkpt lat="49.255363" lon="9.095222">
        <ele>297.472172</ele>
        <time>2021-05-14T09:32:23.769Z</time>
      </trkpt>
      <trkpt lat="49.255323" lon="9.095096">
        <ele>297.670640</ele>
        <time>2021-05-14T09:32:31.778Z</time>
      </trkpt>
      <trkpt lat="49.255284" lon="9.094961">
        <ele>297.879759</ele>
        <time>2021-05-14T09:32:46.782Z</time>
      </trkpt>
      <trkpt lat="49.255257" lon="9.094828">
        <ele>298.077054</ele>
        <time>2021-05-14T09:32:52.765Z</time>
      </trkpt>
      <trkpt lat="49.255252" lon="9.094688">
        <ele>298.275658</ele>
        <time>2021-05-14T09:32:58.768Z</time>
      </trkpt>
      <trkpt lat="49.255254" lon="9.094541">
        <ele>298.483926</ele>
        <time>2021-05-14T09:33:05.773Z</time>
      </trkpt>
      <trkpt lat="49.255252" lon="9.094371">
        <ele>298.724767</ele>
        <time>2021-05-14T09:33:11.803Z</time>
      </trkpt>
      <trkpt lat="49.255250" lon="9.094214">
        <ele>298.947197</ele>
        <time>2021-05-14T09:33:17.788Z</time>
      </trkpt>
      <trkpt lat="49.255250" lon="9.094055">
        <ele>299.172418</ele>
        <time>2021-05-14T09:33:23.771Z</time>
      </trkpt>
      <trkpt lat="49.255248" lon="9.093903">
        <ele>299.353075</ele>
        <time>2021-05-14T09:33:30.764Z</time>
      </trkpt>
      <trkpt lat="49.255239" lon="9.093765">
        <ele>299.516664</ele>
        <time>2021-05-14T09:33:36.768Z</time>
      </trkpt>
      <trkpt lat="49.255242" lon="9.093617">
        <ele>299.691322</ele>
        <time>2021-05-14T09:33:50.772Z</time>
      </trkpt>
      <trkpt lat="49.255239" lon="9.093470">
        <ele>299.864801</ele>
        <time>2021-05-14T09:33:57.775Z</time>
      </trkpt>
      <trkpt lat="49.255248" lon="9.093316">
        <ele>300.047179</ele>
        <time>2021-05-14T09:34:03.777Z</time>
      </trkpt>
      <trkpt lat="49.255246" lon="9.093161">
        <ele>300.230045</ele>
        <time>2021-05-14T09:34:08.768Z</time>
      </trkpt>
      <trkpt lat="49.255248" lon="9.093008">
        <ele>300.410553</ele>
        <time>2021-05-14T09:34:14.782Z</time>
      </trkpt>
      <trkpt lat="49.255249" lon="9.092862">
        <ele>300.582777</ele>
        <time>2021-05-14T09:34:21.784Z</time>
      </trkpt>
      <trkpt lat="49.255231" lon="9.092719">
        <ele>300.754561</ele>
        <time>2021-05-14T09:34:27.791Z</time>
      </trkpt>
      <trkpt lat="49.255230" lon="9.092567">
        <ele>300.933862</ele>
        <time>2021-05-14T09:34:33.766Z</time>
      </trkpt>
      <trkpt lat="49.255229" lon="9.092404">
        <ele>301.126138</ele>
        <time>2021-05-14T09:34:39.786Z</time>
      </trkpt>
      <trkpt lat="49.255231" lon="9.092266">
        <ele>301.288956</ele>
        <time>2021-05-14T09:34:45.775Z</time>
      </trkpt>
      <trkpt lat="49.255214" lon="9.092130">
        <ele>301.452291</ele>
        <time>2021-05-14T09:34:52.788Z</time>
      </trkpt>
      <trkpt lat="49.255214" lon="9.091973">
        <ele>301.637481</ele>
        <time>2021-05-14T09:34:58.765Z</time>
      </trkpt>
      <trkpt lat="49.255220" lon="9.091823">
        <ele>301.814746</ele>
        <time>2021-05-14T09:35:04.770Z</time>
      </trkpt>
      <trkpt lat="49.255211" lon="9.091677">
        <ele>301.987727</ele>
        <time>2021-05-14T09:35:10.759Z</time>
      </trkpt>
      <trkpt lat="49.255215" lon="9.091526">
        <ele>302.165986</ele>
        <time>2021-05-14T09:35:16.769Z</time>
      </trkpt>
      <trkpt lat="49.255216" lon="9.091383">
        <ele>302.334672</ele>
        <time>2021-05-14T09:35:22.774Z</time>
      </trkpt>
      <trkpt lat="49.255215" lon="9.091232">
        <ele>302.501871</ele>
        <time>2021-05-14T09:35:29.765Z</time>
      </trkpt>
      <trkpt lat="49.255255" lon="9.091100">
        <ele>302.650639</ele>
        <time>2021-05-14T09:35:37.778Z</time>
      </trkpt>
      <trkpt lat="49.255306" lon="9.090964">
        <ele>302.810975</ele>
        <time>2021-05-14T09:35:43.777Z</time>
      </trkpt>
      <trkpt lat="49.255344" lon="9.090829">
        <ele>302.961262</ele>
        <time>2021-05-14T09:35:50.781Z</time>
      </trkpt>
      <trkpt lat="49.255394" lon="9.090694">
        <ele>303.119933</ele>
        <time>2021-05-14T09:35:57.777Z</time>
      </trkpt>
      <trkpt lat="49.255437" lon="9.090559">
        <ele>303.273490</ele>
        <time>2021-05-14T09:36:03.781Z</time>
      </trkpt>
      <trkpt lat="49.255483" lon="9.090412">
        <ele>303.440135</ele>
        <time>2021-05-14T09:36:10.762Z</time>
      </trkpt>
      <trkpt lat="49.255531" lon="9.090280">
        <ele>303.594598</ele>
        <time>2021-05-14T09:36:17.773Z</time>
      </trkpt>
      <trkpt lat="49.255568" lon="9.090155">
        <ele>303.734902</ele>
        <time>2021-05-14T09:36:23.778Z</time>
      </trkpt>
      <trkpt lat="49.255614" lon="9.090019">
        <ele>303.891483</ele>
        <time>2021-05-14T09:36:30.768Z</time>
      </trkpt>
      <trkpt lat="49.255678" lon="9.089902">
        <ele>304.047532</ele>
        <time>2021-05-14T09:36:35.765Z</time>
      </trkpt>
      <trkpt lat="49.255706" lon="9.089763">
        <ele>304.196234</ele>
        <time>2021-05-14T09:36:41.766Z</time>
      </trkpt>
      <trkpt lat="49.255752" lon="9.089636">
        <ele>304.344707</ele>
        <time>2021-05-14T09:36:47.767Z</time>
      </trkpt>
      <trkpt lat="49.255797" lon="9.089499">
        <ele>304.501485</ele>
        <time>2021-05-14T09:36:54.766Z</time>
      </trkpt>
      <trkpt lat="49.255839" lon="9.089356">
        <ele>304.661781</ele>
        <time>2021-05-14T09:37:01.767Z</time>
      </trkpt>
      <trkpt lat="49.255890" lon="9.089220">
        <ele>304.822115</ele>
        <time>2021-05-14T09:37:07.768Z</time>
      </trkpt>
      <trkpt lat="49.255945" lon="9.089084">
        <ele>304.985661</ele>
        <time>2021-05-14T09:37:14.772Z</time>
      </trkpt>
      <trkpt lat="49.255984" lon="9.088958">
        <ele>305.128209</ele>
        <time>2021-05-14T09:37:22.789Z</time>
      </trkpt>
      <trkpt lat="49.256035" lon="9.088832">
        <ele>305.323092</ele>
        <time>2021-05-14T09:37:29.775Z</time>
      </trkpt>
      <trkpt lat="49.256078" lon="9.088710">
        <ele>305.657517</ele>
        <time>2021-05-14T09:37:35.774Z</time>
      </trkpt>
      <trkpt lat="49.256127" lon="9.088588">
        <ele>306.003030</ele>
        <time>2021-05-14T09:37:41.782Z</time>
      </trkpt>
      <trkpt lat="49.256175" lon="9.088469">
        <ele>306.340443</ele>
        <time>2021-05-14T09:37:47.767Z</time>
      </trkpt>
      <trkpt lat="49.256226" lon="9.088349">
        <ele>306.685833</ele>
        <time>2021-05-14T09:37:52.767Z</time>
      </trkpt>
      <trkpt lat="49.256282" lon="9.088213">
        <ele>307.073685</ele>
        <time>2021-05-14T09:37:57.802Z</time>
      </trkpt>
      <trkpt lat="49.256328" lon="9.088082">
        <ele>307.432478</ele>
        <time>2021-05-14T09:38:02.776Z</time>
      </trkpt>
      <trkpt lat="49.256377" lon="9.087955">
        <ele>307.788316</ele>
        <time>2021-05-14T09:38:08.778Z</time>
      </trkpt>
      <trkpt lat="49.256440" lon="9.087840">
        <ele>308.150449</ele>
        <time>2021-05-14T09:38:14.779Z</time>
      </trkpt>
      <trkpt lat="49.256491" lon="9.087719">
        <ele>308.497861</ele>
        <time>2021-05-14T09:38:21.771Z</time>
      </trkpt>
      <trkpt lat="49.256542" lon="9.087590">
        <ele>308.861633</ele>
        <time>2021-05-14T09:38:29.778Z</time>
      </trkpt>
      <trkpt lat="49.256600" lon="9.087464">
        <ele>309.233519</ele>
        <time>2021-05-14T09:38:36.780Z</time>
      </trkpt>
      <trkpt lat="49.256648" lon="9.087339">
        <ele>309.583324</ele>
        <time>2021-05-14T09:38:42.757Z</time>
      </trkpt>
      <trkpt lat="49.256691" lon="9.087197">
        <ele>309.960888</ele>
        <time>2021-05-14T09:38:49.781Z</time>
      </trkpt>
      <trkpt lat="49.256727" lon="9.087052">
        <ele>310.335068</ele>
        <time>2021-05-14T09:38:55.770Z</time>
      </trkpt>
      <trkpt lat="49.256741" lon="9.086897">
        <ele>310.712482</ele>
        <time>2021-05-14T09:39:02.778Z</time>
      </trkpt>
      <trkpt lat="49.256679" lon="9.086767">
        <ele>311.100826</ele>
        <time>2021-05-14T09:39:08.780Z</time>
      </trkpt>
      <trkpt lat="49.256598" lon="9.086672">
        <ele>311.477793</ele>
        <time>2021-05-14T09:39:15.774Z</time>
      </trkpt>
      <trkpt lat="49.256512" lon="9.086599">
        <ele>311.841119</ele>
        <time>2021-05-14T09:39:23.807Z</time>
      </trkpt>
      <trkpt lat="49.256425" lon="9.086518">
        <ele>312.172855</ele>
        <time>2021-05-14T09:39:30.769Z</time>
      </trkpt>
      <trkpt lat="49.256349" lon="9.086434">
        <ele>312.471411</ele>
        <time>2021-05-14T09:39:37.787Z</time>
      </trkpt>
      <trkpt lat="49.256263" lon="9.086388">
        <ele>312.761618</ele>
        <time>2021-05-14T09:40:31.771Z</time>
      </trkpt>
      <trkpt lat="49.256185" lon="9.086304">
        <ele>313.065365</ele>
        <time>2021-05-14T09:40:37.765Z</time>
      </trkpt>
      <trkpt lat="49.256104" lon="9.086216">
        <ele>313.381718</ele>
        <time>2021-05-14T09:40:43.756Z</time>
      </trkpt>
      <trkpt lat="49.256021" lon="9.086139">
        <ele>313.690847</ele>
        <time>2021-05-14T09:40:49.751Z</time>
      </trkpt>
      <trkpt lat="49.255939" lon="9.086073">
        <ele>313.985947</ele>
        <time>2021-05-14T09:40:56.782Z</time>
      </trkpt>
      <trkpt lat="49.255861" lon="9.086002">
        <ele>314.274998</ele>
        <time>2021-05-14T09:41:02.763Z</time>
      </trkpt>
      <trkpt lat="49.255770" lon="9.085936">
        <ele>314.595760</ele>
        <time>2021-05-14T09:41:10.787Z</time>
      </trkpt>
      <trkpt lat="49.255683" lon="9.085859">
        <ele>314.915859</ele>
        <time>2021-05-14T09:41:16.776Z</time>
      </trkpt>
      <trkpt lat="49.255599" lon="9.085786">
        <ele>315.223530</ele>
        <time>2021-05-14T09:41:22.774Z</time>
      </trkpt>
      <trkpt lat="49.255510" lon="9.085713">
        <ele>315.545154</ele>
        <time>2021-05-14T09:41:29.767Z</time>
      </trkpt>
      <trkpt lat="49.255438" lon="9.085616">
        <ele>315.850609</ele>
        <time>2021-05-14T09:41:38.772Z</time>
      </trkpt>
      <trkpt lat="49.255362" lon="9.085537">
        <ele>316.143206</ele>
        <time>2021-05-14T09:41:43.781Z</time>
      </trkpt>
      <trkpt lat="49.255285" lon="9.085435">
        <ele>316.467501</ele>
        <time>2021-05-14T09:41:50.781Z</time>
      </trkpt>
      <trkpt lat="49.255212" lon="9.085347">
        <ele>316.763432</ele>
        <time>2021-05-14T09:41:55.767Z</time>
      </trkpt>
      <trkpt lat="49.255133" lon="9.085231">
        <ele>317.112045</ele>
        <time>2021-05-14T09:42:01.762Z</time>
      </trkpt>
      <trkpt lat="49.255052" lon="9.085131">
        <ele>317.443460</ele>
        <time>2021-05-14T09:42:08.764Z</time>
      </trkpt>
      <trkpt lat="49.254988" lon="9.085028">
        <ele>317.656999</ele>
        <time>2021-05-14T09:42:18.777Z</time>
      </trkpt>
      <trkpt lat="49.255005" lon="9.084889">
        <ele>317.739193</ele>
        <time>2021-05-14T09:42:25.770Z</time>
      </trkpt>
      <trkpt lat="49.255056" lon="9.084750">
        <ele>317.831869</ele>
        <time>2021-05-14T09:42:31.773Z</time>
      </trkpt>
      <trkpt lat="49.255079" lon="9.084608">
        <ele>317.916904</ele>
        <time>2021-05-14T09:42:38.776Z</time>
      </trkpt>
      <trkpt lat="49.255046" lon="9.084463">
        <ele>318.006154</ele>
        <time>2021-05-14T09:42:56.768Z</time>
      </trkpt>
      <trkpt lat="49.254990" lon="9.084348">
        <ele>318.089545</ele>
        <time>2021-05-14T09:43:05.758Z</time>
      </trkpt>
      <trkpt lat="49.255041" lon="9.084204">
        <ele>318.184766</ele>
        <time>2021-05-14T09:43:17.782Z</time>
      </trkpt>
      <trkpt lat="49.255100" lon="9.083969">
        <ele>318.331104</ele>
        <time>2021-05-14T09:43:51.785Z</time>
      </trkpt>
      <trkpt lat="49.255082" lon="9.083829">
        <ele>318.414036</ele>
        <time>2021-05-14T09:43:56.761Z</time>
      </trkpt>
      <trkpt lat="49.255089" lon="9.083683">
        <ele>318.499121</ele>
        <time>2021-05-14T09:44:03.785Z</time>
      </trkpt>
      <trkpt lat="49.255078" lon="9.083544">
        <ele>318.580500</ele>
        <time>2021-05-14T09:44:08.767Z</time>
      </trkpt>
      <trkpt lat="49.255088" lon="9.083400">
        <ele>318.664665</ele>
        <time>2021-05-14T09:44:17.761Z</time>
      </trkpt>
      <trkpt lat="49.255179" lon="9.083451">
        <ele>318.750949</ele>
        <time>2021-05-14T09:44:57.762Z</time>
      </trkpt>
      <trkpt lat="49.255131" lon="9.083329">
        <ele>318.833742</ele>
        <time>2021-05-14T09:45:17.789Z</time>
      </trkpt>
      <trkpt lat="49.255122" lon="9.083186">
        <ele>318.917239</ele>
        <time>2021-05-14T09:45:22.777Z</time>
      </trkpt>
      <trkpt lat="49.255139" lon="9.083047">
        <ele>318.999432</ele>
        <time>2021-05-14T09:45:28.764Z</time>
      </trkpt>
      <trkpt lat="49.255129" lon="9.082891">
        <ele>319.090536</ele>
        <time>2021-05-14T09:46:00.768Z</time>
      </trkpt>
      <trkpt lat="49.255125" lon="9.082747">
        <ele>319.174305</ele>
        <time>2021-05-14T09:46:09.750Z</time>
      </trkpt>
      <trkpt lat="49.255232" lon="9.082671">
        <ele>319.276901</ele>
        <time>2021-05-14T09:46:52.776Z</time>
      </trkpt>
      <trkpt lat="49.255324" lon="9.082664">
        <ele>319.355142</ele>
        <time>2021-05-14T09:47:05.765Z</time>
      </trkpt>
      <trkpt lat="49.255422" lon="9.082733">
        <ele>319.446751</ele>
        <time>2021-05-14T09:47:55.764Z</time>
      </trkpt>
      <trkpt lat="49.255526" lon="9.082738">
        <ele>319.535132</ele>
        <time>2021-05-14T09:49:49.777Z</time>
      </trkpt>
      <trkpt lat="49.255619" lon="9.082717">
        <ele>319.614979</ele>
        <time>2021-05-14T09:49:57.758Z</time>
      </trkpt>
      <trkpt lat="49.255713" lon="9.082717">
        <ele>319.694822</ele>
        <time>2021-05-14T09:50:04.761Z</time>
      </trkpt>
      <trkpt lat="49.255808" lon="9.082660">
        <ele>319.781481</ele>
        <time>2021-05-14T09:50:10.753Z</time>
      </trkpt>
      <trkpt lat="49.255893" lon="9.082594">
        <ele>319.862422</ele>
        <time>2021-05-14T09:50:17.812Z</time>
      </trkpt>
      <trkpt lat="49.255982" lon="9.082569">
        <ele>319.939278</ele>
        <time>2021-05-14T09:50:25.769Z</time>
      </trkpt>
      <trkpt lat="49.255958" lon="9.082432">
        <ele>320.017917</ele>
        <time>2021-05-14T09:50:34.724Z</time>
      </trkpt>
      <trkpt lat="49.255912" lon="9.082186">
        <ele>320.159782</ele>
        <time>2021-05-14T09:50:50.755Z</time>
      </trkpt>
      <trkpt lat="49.255920" lon="9.082017">
        <ele>320.253719</ele>
        <time>2021-05-14T09:51:03.768Z</time>
      </trkpt>
      <trkpt lat="49.255945" lon="9.081874">
        <ele>320.335790</ele>
        <time>2021-05-14T09:51:15.769Z</time>
      </trkpt>
      <trkpt lat="49.256037" lon="9.081841">
        <ele>320.416047</ele>
        <time>2021-05-14T09:52:03.779Z</time>
      </trkpt>
      <trkpt lat="49.256017" lon="9.081695">
        <ele>320.498751</ele>
        <time>2021-05-14T09:52:12.751Z</time>
      </trkpt>
      <trkpt lat="49.256001" lon="9.081557">
        <ele>320.576453</ele>
        <time>2021-05-14T09:52:31.739Z</time>
      </trkpt>
      <trkpt lat="49.256015" lon="9.081359">
        <ele>320.686864</ele>
        <time>2021-05-14T09:52:59.766Z</time>
      </trkpt>
      <trkpt lat="49.256013" lon="9.081204">
        <ele>320.779428</ele>
        <time>2021-05-14T09:53:03.760Z</time>
      </trkpt>
      <trkpt lat="49.255986" lon="9.081046">
        <ele>320.902727</ele>
        <time>2021-05-14T09:53:08.752Z</time>
      </trkpt>
      <trkpt lat="49.255993" lon="9.080895">
        <ele>321.017009</ele>
        <time>2021-05-14T09:53:15.779Z</time>
      </trkpt>
      <trkpt lat="49.256023" lon="9.080749">
        <ele>321.132562</ele>
        <time>2021-05-14T09:53:22.784Z</time>
      </trkpt>
      <trkpt lat="49.256032" lon="9.080572">
        <ele>321.266589</ele>
        <time>2021-05-14T09:53:28.756Z</time>
      </trkpt>
      <trkpt lat="49.256002" lon="9.080421">
        <ele>321.385748</ele>
        <time>2021-05-14T09:53:35.770Z</time>
      </trkpt>
      <trkpt lat="49.255988" lon="9.080284">
        <ele>321.490433</ele>
        <time>2021-05-14T09:53:41.751Z</time>
      </trkpt>
      <trkpt lat="49.255973" lon="9.080148">
        <ele>321.594559</ele>
        <time>2021-05-14T09:53:48.753Z</time>
      </trkpt>
      <trkpt lat="49.255943" lon="9.080012">
        <ele>321.702935</ele>
        <time>2021-05-14T09:53:54.766Z</time>
      </trkpt>
      <trkpt lat="49.255913" lon="9.079833">
        <ele>321.842452</ele>
        <time>2021-05-14T09:54:00.773Z</time>
      </trkpt>
      <trkpt lat="49.255925" lon="9.079682">
        <ele>321.957288</ele>
        <time>2021-05-14T09:54:08.934Z</time>
      </trkpt>
      <trkpt lat="49.255954" lon="9.079531">
        <ele>322.076115</ele>
        <time>2021-05-14T09:54:15.773Z</time>
      </trkpt>
      <trkpt lat="49.255955" lon="9.079371">
        <ele>322.196910</ele>
        <time>2021-05-14T09:54:20.755Z</time>
      </trkpt>
      <trkpt lat="49.255973" lon="9.079228">
        <ele>322.306854</ele>
        <time>2021-05-14T09:54:25.792Z</time>
      </trkpt>
      <trkpt lat="49.255956" lon="9.079067">
        <ele>322.429978</ele>
        <time>2021-05-14T09:54:33.764Z</time>
      </trkpt>
      <trkpt lat="49.255934" lon="9.078932">
        <ele>322.535022</ele>
        <time>2021-05-14T09:54:41.771Z</time>
      </trkpt>
      <trkpt lat="49.255936" lon="9.078789">
        <ele>322.643002</ele>
        <time>2021-05-14T09:54:47.762Z</time>
      </trkpt>
      <trkpt lat="49.255928" lon="9.078640">
        <ele>322.755867</ele>
        <time>2021-05-14T09:54:52.766Z</time>
      </trkpt>
      <trkpt lat="49.255895" lon="9.078502">
        <ele>322.898440</ele>
        <time>2021-05-14T09:54:57.772Z</time>
      </trkpt>
      <trkpt lat="49.255899" lon="9.078351">
        <ele>323.125666</ele>
        <time>2021-05-14T09:55:04.766Z</time>
      </trkpt>
      <trkpt lat="49.255841" lon="9.078222">
        <ele>323.361194</ele>
        <time>2021-05-14T09:55:15.751Z</time>
      </trkpt>
      <trkpt lat="49.255847" lon="9.078053">
        <ele>323.615674</ele>
        <time>2021-05-14T09:55:20.771Z</time>
      </trkpt>
      <trkpt lat="49.255883" lon="9.077916">
        <ele>323.837731</ele>
        <time>2021-05-14T09:55:28.757Z</time>
      </trkpt>
      <trkpt lat="49.255875" lon="9.077771">
        <ele>324.056526</ele>
        <time>2021-05-14T09:55:35.761Z</time>
      </trkpt>
      <trkpt lat="49.255927" lon="9.077653">
        <ele>324.270602</ele>
        <time>2021-05-14T09:55:43.771Z</time>
      </trkpt>
      <trkpt lat="49.255950" lon="9.077513">
        <ele>324.487668</ele>
        <time>2021-05-14T09:55:48.762Z</time>
      </trkpt>
      <trkpt lat="49.255958" lon="9.077350">
        <ele>324.733442</ele>
        <time>2021-05-14T09:55:53.761Z</time>
      </trkpt>
      <trkpt lat="49.255934" lon="9.077182">
        <ele>324.992021</ele>
        <time>2021-05-14T09:56:01.785Z</time>
      </trkpt>
      <trkpt lat="49.255892" lon="9.077059">
        <ele>325.200741</ele>
        <time>2021-05-14T09:56:07.765Z</time>
      </trkpt>
      <trkpt lat="49.255887" lon="9.076894">
        <ele>325.449098</ele>
        <time>2021-05-14T09:56:12.792Z</time>
      </trkpt>
      <trkpt lat="49.255882" lon="9.076748">
        <ele>325.668921</ele>
        <time>2021-05-14T09:56:18.751Z</time>
      </trkpt>
      <trkpt lat="49.255912" lon="9.076595">
        <ele>325.909124</ele>
        <time>2021-05-14T09:56:29.778Z</time>
      </trkpt>
      <trkpt lat="49.255928" lon="9.076448">
        <ele>326.133201</ele>
        <time>2021-05-14T09:56:35.771Z</time>
      </trkpt>
      <trkpt lat="49.255927" lon="9.076246">
        <ele>326.436931</ele>
        <time>2021-05-14T09:56:44.751Z</time>
      </trkpt>
      <trkpt lat="49.255895" lon="9.076090">
        <ele>326.682800</ele>
        <time>2021-05-14T09:56:49.764Z</time>
      </trkpt>
      <trkpt lat="49.255832" lon="9.075943">
        <ele>326.947215</ele>
        <time>2021-05-14T09:56:57.757Z</time>
      </trkpt>
      <trkpt lat="49.255823" lon="9.075779">
        <ele>327.208219</ele>
        <time>2021-05-14T09:57:01.781Z</time>
      </trkpt>
      <trkpt lat="49.255815" lon="9.075640">
        <ele>327.431172</ele>
        <time>2021-05-14T09:57:07.758Z</time>
      </trkpt>
      <trkpt lat="49.255805" lon="9.075496">
        <ele>327.662550</ele>
        <time>2021-05-14T09:57:13.765Z</time>
      </trkpt>
      <trkpt lat="49.255806" lon="9.075358">
        <ele>327.883057</ele>
        <time>2021-05-14T09:57:19.753Z</time>
      </trkpt>
      <trkpt lat="49.255793" lon="9.075221">
        <ele>328.104254</ele>
        <time>2021-05-14T09:57:25.766Z</time>
      </trkpt>
      <trkpt lat="49.255770" lon="9.075069">
        <ele>328.353558</ele>
        <time>2021-05-14T09:57:30.768Z</time>
      </trkpt>
      <trkpt lat="49.255740" lon="9.074918">
        <ele>328.605752</ele>
        <time>2021-05-14T09:57:38.767Z</time>
      </trkpt>
      <trkpt lat="49.255743" lon="9.074764">
        <ele>328.851920</ele>
        <time>2021-05-14T09:57:44.771Z</time>
      </trkpt>
      <trkpt lat="49.255744" lon="9.074620">
        <ele>329.082013</ele>
        <time>2021-05-14T09:57:50.775Z</time>
      </trkpt>
      <trkpt lat="49.255749" lon="9.074471">
        <ele>329.320396</ele>
        <time>2021-05-14T09:57:56.770Z</time>
      </trkpt>
      <trkpt lat="49.255740" lon="9.074328">
        <ele>329.549939</ele>
        <time>2021-05-14T09:58:01.750Z</time>
      </trkpt>
      <trkpt lat="49.255711" lon="9.074181">
        <ele>329.795307</ele>
        <time>2021-05-14T09:58:07.754Z</time>
      </trkpt>
      <trkpt lat="49.255737" lon="9.074034">
        <ele>330.038652</ele>
        <time>2021-05-14T09:58:19.767Z</time>
      </trkpt>
      <trkpt lat="49.255733" lon="9.073891">
        <ele>330.267344</ele>
        <time>2021-05-14T09:58:26.759Z</time>
      </trkpt>
      <trkpt lat="49.255740" lon="9.073738">
        <ele>330.512404</ele>
        <time>2021-05-14T09:58:34.763Z</time>
      </trkpt>
      <trkpt lat="49.255735" lon="9.073578">
        <ele>330.768342</ele>
        <time>2021-05-14T09:58:39.768Z</time>
      </trkpt>
      <trkpt lat="49.255701" lon="9.073438">
        <ele>331.007014</ele>
        <time>2021-05-14T09:58:45.770Z</time>
      </trkpt>
      <trkpt lat="49.255678" lon="9.073289">
        <ele>331.251651</ele>
        <time>2021-05-14T09:58:55.768Z</time>
      </trkpt>
      <trkpt lat="49.255673" lon="9.073133">
        <ele>331.512472</ele>
        <time>2021-05-14T09:59:00.750Z</time>
      </trkpt>
      <trkpt lat="49.255682" lon="9.072993">
        <ele>331.758407</ele>
        <time>2021-05-14T09:59:05.761Z</time>
      </trkpt>
      <trkpt lat="49.255689" lon="9.072828">
        <ele>332.047472</ele>
        <time>2021-05-14T09:59:11.753Z</time>
      </trkpt>
      <trkpt lat="49.255692" lon="9.072682">
        <ele>332.302839</ele>
        <time>2021-05-14T09:59:17.763Z</time>
      </trkpt>
      <trkpt lat="49.255668" lon="9.072532">
        <ele>332.572837</ele>
        <time>2021-05-14T09:59:23.754Z</time>
      </trkpt>
      <trkpt lat="49.255644" lon="9.072382">
        <ele>332.842834</ele>
        <time>2021-05-14T09:59:29.760Z</time>
      </trkpt>
      <trkpt lat="49.255633" lon="9.072241">
        <ele>333.091088</ele>
        <time>2021-05-14T09:59:37.756Z</time>
      </trkpt>
      <trkpt lat="49.255631" lon="9.072093">
        <ele>333.349880</ele>
        <time>2021-05-14T09:59:44.778Z</time>
      </trkpt>
      <trkpt lat="49.255586" lon="9.071946">
        <ele>333.633732</ele>
        <time>2021-05-14T09:59:51.776Z</time>
      </trkpt>
      <trkpt lat="49.255525" lon="9.071774">
        <ele>333.975950</ele>
        <time>2021-05-14T10:01:37.778Z</time>
      </trkpt>
      <trkpt lat="49.255531" lon="9.071559">
        <ele>334.352162</ele>
        <time>2021-05-14T10:02:10.791Z</time>
      </trkpt>
      <trkpt lat="49.255528" lon="9.071413">
        <ele>334.607529</ele>
        <time>2021-05-14T10:02:16.775Z</time>
      </trkpt>
      <trkpt lat="49.255536" lon="9.071253">
        <ele>334.888065</ele>
        <time>2021-05-14T10:02:25.777Z</time>
      </trkpt>
      <trkpt lat="49.255516" lon="9.071108">
        <ele>335.147156</ele>
        <time>2021-05-14T10:02:31.755Z</time>
      </trkpt>
      <trkpt lat="49.255438" lon="9.071032">
        <ele>335.394749</ele>
        <time>2021-05-14T10:02:43.757Z</time>
      </trkpt>
      <trkpt lat="49.255344" lon="9.070986">
        <ele>335.659060</ele>
        <time>2021-05-14T10:02:49.750Z</time>
      </trkpt>
      <trkpt lat="49.255250" lon="9.070972">
        <ele>335.912026</ele>
        <time>2021-05-14T10:02:54.766Z</time>
      </trkpt>
      <trkpt lat="49.255151" lon="9.070968">
        <ele>336.177291</ele>
        <time>2021-05-14T10:03:01.757Z</time>
      </trkpt>
      <trkpt lat="49.255034" lon="9.070948">
        <ele>336.304387</ele>
        <time>2021-05-14T10:03:07.754Z</time>
      </trkpt>
      <trkpt lat="49.254938" lon="9.070972">
        <ele>336.397776</ele>
        <time>2021-05-14T10:03:13.767Z</time>
      </trkpt>
      <trkpt lat="49.254846" lon="9.070943">
        <ele>336.487956</ele>
        <time>2021-05-14T10:03:38.768Z</time>
      </trkpt>
      <trkpt lat="49.254753" lon="9.070945">
        <ele>336.577254</ele>
        <time>2021-05-14T10:03:50.775Z</time>
      </trkpt>
      <trkpt lat="49.254651" lon="9.070936">
        <ele>336.675346</ele>
        <time>2021-05-14T10:03:56.766Z</time>
      </trkpt>
      <trkpt lat="49.254551" lon="9.070921">
        <ele>336.771816</ele>
        <time>2021-05-14T10:04:03.753Z</time>
      </trkpt>
      <trkpt lat="49.254451" lon="9.070939">
        <ele>336.868486</ele>
        <time>2021-05-14T10:04:09.765Z</time>
      </trkpt>
      <trkpt lat="49.254362" lon="9.070967">
        <ele>336.955718</ele>
        <time>2021-05-14T10:04:14.768Z</time>
      </trkpt>
      <trkpt lat="49.254267" lon="9.070968">
        <ele>337.046930</ele>
        <time>2021-05-14T10:04:22.773Z</time>
      </trkpt>
      <trkpt lat="49.254172" lon="9.070960">
        <ele>337.138277</ele>
        <time>2021-05-14T10:04:30.756Z</time>
      </trkpt>
      <trkpt lat="49.254065" lon="9.070998">
        <ele>337.243732</ele>
        <time>2021-05-14T10:04:36.787Z</time>
      </trkpt>
      <trkpt lat="49.253967" lon="9.071032">
        <ele>337.340204</ele>
        <time>2021-05-14T10:04:43.760Z</time>
      </trkpt>
      <trkpt lat="49.253873" lon="9.071060">
        <ele>337.432144</ele>
        <time>2021-05-14T10:04:50.759Z</time>
      </trkpt>
      <trkpt lat="49.253767" lon="9.071051">
        <ele>337.534071</ele>
        <time>2021-05-14T10:04:55.766Z</time>
      </trkpt>
      <trkpt lat="49.253657" lon="9.071065">
        <ele>337.640046</ele>
        <time>2021-05-14T10:05:01.754Z</time>
      </trkpt>
      <trkpt lat="49.253568" lon="9.071084">
        <ele>337.726320</ele>
        <time>2021-05-14T10:05:08.767Z</time>
      </trkpt>
      <trkpt lat="49.253476" lon="9.071122">
        <ele>337.817804</ele>
        <time>2021-05-14T10:05:15.770Z</time>
      </trkpt>
      <trkpt lat="49.253375" lon="9.071105">
        <ele>337.915357</ele>
        <time>2021-05-14T10:05:22.765Z</time>
      </trkpt>
      <trkpt lat="49.253278" lon="9.071118">
        <ele>337.944171</ele>
        <time>2021-05-14T10:05:28.758Z</time>
      </trkpt>
      <trkpt lat="49.253189" lon="9.071140">
        <ele>337.963075</ele>
        <time>2021-05-14T10:05:35.774Z</time>
      </trkpt>
      <trkpt lat="49.253090" lon="9.071146">
        <ele>337.983850</ele>
        <time>2021-05-14T10:05:40.766Z</time>
      </trkpt>
      <trkpt lat="49.252995" lon="9.071182">
        <ele>338.004372</ele>
        <time>2021-05-14T10:05:46.754Z</time>
      </trkpt>
      <trkpt lat="49.252899" lon="9.071182">
        <ele>338.024502</ele>
        <time>2021-05-14T10:05:53.775Z</time>
      </trkpt>
      <trkpt lat="49.252799" lon="9.071165">
        <ele>338.045600</ele>
        <time>2021-05-14T10:06:01.757Z</time>
      </trkpt>
      <trkpt lat="49.252713" lon="9.071092">
        <ele>338.066217</ele>
        <time>2021-05-14T10:06:11.756Z</time>
      </trkpt>
      <trkpt lat="49.252627" lon="9.071013">
        <ele>338.087243</ele>
        <time>2021-05-14T10:06:17.752Z</time>
      </trkpt>
      <trkpt lat="49.252484" lon="9.070942">
        <ele>338.118765</ele>
        <time>2021-05-14T10:06:39.763Z</time>
      </trkpt>
      <trkpt lat="49.252409" lon="9.070867">
        <ele>338.137546</ele>
        <time>2021-05-14T10:06:44.768Z</time>
      </trkpt>
      <trkpt lat="49.252329" lon="9.070779">
        <ele>338.158197</ele>
        <time>2021-05-14T10:06:52.752Z</time>
      </trkpt>
      <trkpt lat="49.252236" lon="9.070743">
        <ele>338.178311</ele>
        <time>2021-05-14T10:07:01.752Z</time>
      </trkpt>
      <trkpt lat="49.252134" lon="9.070740">
        <ele>338.199704</ele>
        <time>2021-05-14T10:07:10.758Z</time>
      </trkpt>
      <trkpt lat="49.252044" lon="9.070800">
        <ele>338.220286</ele>
        <time>2021-05-14T10:07:18.810Z</time>
      </trkpt>
      <trkpt lat="49.251952" lon="9.070860">
        <ele>338.241253</ele>
        <time>2021-05-14T10:07:23.755Z</time>
      </trkpt>
      <trkpt lat="49.251863" lon="9.070920">
        <ele>338.261642</ele>
        <time>2021-05-14T10:07:28.765Z</time>
      </trkpt>
      <trkpt lat="49.251808" lon="9.071036">
        <ele>338.281266</ele>
        <time>2021-05-14T10:07:38.764Z</time>
      </trkpt>
      <trkpt lat="49.251719" lon="9.071103">
        <ele>338.302060</ele>
        <time>2021-05-14T10:07:44.770Z</time>
      </trkpt>
      <trkpt lat="49.251636" lon="9.071177">
        <ele>338.209138</ele>
        <time>2021-05-14T10:07:49.764Z</time>
      </trkpt>
      <trkpt lat="49.251655" lon="9.071320">
        <ele>338.109858</ele>
        <time>2021-05-14T10:08:05.756Z</time>
      </trkpt>
      <trkpt lat="49.251596" lon="9.071489">
        <ele>337.979473</ele>
        <time>2021-05-14T10:08:39.784Z</time>
      </trkpt>
      <trkpt lat="49.251532" lon="9.071602">
        <ele>337.877692</ele>
        <time>2021-05-14T10:08:46.771Z</time>
      </trkpt>
      <trkpt lat="49.251469" lon="9.071711">
        <ele>337.778644</ele>
        <time>2021-05-14T10:08:51.763Z</time>
      </trkpt>
      <trkpt lat="49.251404" lon="9.071822">
        <ele>337.677194</ele>
        <time>2021-05-14T10:08:58.757Z</time>
      </trkpt>
      <trkpt lat="49.251340" lon="9.071938">
        <ele>337.573862</ele>
        <time>2021-05-14T10:09:04.747Z</time>
      </trkpt>
      <trkpt lat="49.251254" lon="9.072044">
        <ele>337.458820</ele>
        <time>2021-05-14T10:09:11.761Z</time>
      </trkpt>
      <trkpt lat="49.251177" lon="9.072134">
        <ele>337.357877</ele>
        <time>2021-05-14T10:09:19.763Z</time>
      </trkpt>
      <trkpt lat="49.251096" lon="9.072193">
        <ele>337.264398</ele>
        <time>2021-05-14T10:09:25.765Z</time>
      </trkpt>
      <trkpt lat="49.251050" lon="9.072322">
        <ele>337.164394</ele>
        <time>2021-05-14T10:09:31.764Z</time>
      </trkpt>
      <trkpt lat="49.251016" lon="9.072456">
        <ele>337.066585</ele>
        <time>2021-05-14T10:09:36.777Z</time>
      </trkpt>
      <trkpt lat="49.250952" lon="9.072561">
        <ele>336.968849</ele>
        <time>2021-05-14T10:09:41.752Z</time>
      </trkpt>
      <trkpt lat="49.250884" lon="9.072667">
        <ele>336.867738</ele>
        <time>2021-05-14T10:09:46.760Z</time>
      </trkpt>
      <trkpt lat="49.250797" lon="9.072754">
        <ele>336.759454</ele>
        <time>2021-05-14T10:09:56.764Z</time>
      </trkpt>
      <trkpt lat="49.250723" lon="9.072841">
        <ele>336.662233</ele>
        <time>2021-05-14T10:10:02.764Z</time>
      </trkpt>
      <trkpt lat="49.250626" lon="9.072875">
        <ele>336.558523</ele>
        <time>2021-05-14T10:10:09.770Z</time>
      </trkpt>
      <trkpt lat="49.250516" lon="9.072889">
        <ele>336.443480</ele>
        <time>2021-05-14T10:10:16.787Z</time>
      </trkpt>
      <trkpt lat="49.250422" lon="9.072902">
        <ele>336.257310</ele>
        <time>2021-05-14T10:10:23.769Z</time>
      </trkpt>
      <trkpt lat="49.250319" lon="9.072923">
        <ele>336.035151</ele>
        <time>2021-05-14T10:10:32.754Z</time>
      </trkpt>
      <trkpt lat="49.250224" lon="9.072917">
        <ele>335.831866</ele>
        <time>2021-05-14T10:10:38.761Z</time>
      </trkpt>
      <trkpt lat="49.250127" lon="9.072862">
        <ele>335.610728</ele>
        <time>2021-05-14T10:10:43.753Z</time>
      </trkpt>
      <trkpt lat="49.250019" lon="9.072870">
        <ele>335.379551</ele>
        <time>2021-05-14T10:10:49.770Z</time>
      </trkpt>
      <trkpt lat="49.249928" lon="9.072937">
        <ele>335.163687</ele>
        <time>2021-05-14T10:10:54.754Z</time>
      </trkpt>
      <trkpt lat="49.249854" lon="9.073031">
        <ele>334.958158</ele>
        <time>2021-05-14T10:11:01.750Z</time>
      </trkpt>
      <trkpt lat="49.249781" lon="9.073176">
        <ele>334.702596</ele>
        <time>2021-05-14T10:11:21.762Z</time>
      </trkpt>
      <trkpt lat="49.249726" lon="9.073303">
        <ele>334.489891</ele>
        <time>2021-05-14T10:11:28.752Z</time>
      </trkpt>
      <trkpt lat="49.249699" lon="9.073440">
        <ele>334.290166</ele>
        <time>2021-05-14T10:11:33.762Z</time>
      </trkpt>
      <trkpt lat="49.249678" lon="9.073590">
        <ele>334.076061</ele>
        <time>2021-05-14T10:11:40.757Z</time>
      </trkpt>
      <trkpt lat="49.249693" lon="9.073742">
        <ele>333.861515</ele>
        <time>2021-05-14T10:11:47.772Z</time>
      </trkpt>
      <trkpt lat="49.249761" lon="9.073849">
        <ele>333.653100</ele>
        <time>2021-05-14T10:11:53.754Z</time>
      </trkpt>
      <trkpt lat="49.249835" lon="9.073940">
        <ele>333.450217</ele>
        <time>2021-05-14T10:11:58.734Z</time>
      </trkpt>
      <trkpt lat="49.249898" lon="9.074040">
        <ele>333.256257</ele>
        <time>2021-05-14T10:12:03.749Z</time>
      </trkpt>
      <trkpt lat="49.249957" lon="9.074154">
        <ele>333.053217</ele>
        <time>2021-05-14T10:12:09.803Z</time>
      </trkpt>
      <trkpt lat="49.250003" lon="9.074282">
        <ele>332.849294</ele>
        <time>2021-05-14T10:12:15.765Z</time>
      </trkpt>
      <trkpt lat="49.250042" lon="9.074416">
        <ele>332.644534</ele>
        <time>2021-05-14T10:12:22.764Z</time>
      </trkpt>
      <trkpt lat="49.250097" lon="9.074544">
        <ele>332.423663</ele>
        <time>2021-05-14T10:12:28.780Z</time>
      </trkpt>
      <trkpt lat="49.250163" lon="9.074711">
        <ele>332.138689</ele>
        <time>2021-05-14T10:13:16.769Z</time>
      </trkpt>
      <trkpt lat="49.250214" lon="9.074834">
        <ele>331.925981</ele>
        <time>2021-05-14T10:13:22.751Z</time>
      </trkpt>
      <trkpt lat="49.250272" lon="9.074948">
        <ele>331.714995</ele>
        <time>2021-05-14T10:13:30.767Z</time>
      </trkpt>
      <trkpt lat="49.250339" lon="9.075068">
        <ele>331.484489</ele>
        <time>2021-05-14T10:13:36.765Z</time>
      </trkpt>
      <trkpt lat="49.250377" lon="9.075198">
        <ele>331.276566</ele>
        <time>2021-05-14T10:13:41.770Z</time>
      </trkpt>
      <trkpt lat="49.250424" lon="9.075317">
        <ele>331.073536</ele>
        <time>2021-05-14T10:13:55.755Z</time>
      </trkpt>
      <trkpt lat="49.250478" lon="9.075440">
        <ele>330.857158</ele>
        <time>2021-05-14T10:14:01.773Z</time>
      </trkpt>
      <trkpt lat="49.250542" lon="9.075549">
        <ele>330.643149</ele>
        <time>2021-05-14T10:14:06.759Z</time>
      </trkpt>
      <trkpt lat="49.250618" lon="9.075639">
        <ele>330.428336</ele>
        <time>2021-05-14T10:14:13.768Z</time>
      </trkpt>
      <trkpt lat="49.250710" lon="9.075710">
        <ele>330.197970</ele>
        <time>2021-05-14T10:14:21.757Z</time>
      </trkpt>
      <trkpt lat="49.250810" lon="9.075769">
        <ele>329.958333</ele>
        <time>2021-05-14T10:14:29.775Z</time>
      </trkpt>
      <trkpt lat="49.250904" lon="9.075832">
        <ele>329.728889</ele>
        <time>2021-05-14T10:14:35.761Z</time>
      </trkpt>
      <trkpt lat="49.250999" lon="9.075885">
        <ele>329.502795</ele>
        <time>2021-05-14T10:14:42.749Z</time>
      </trkpt>
      <trkpt lat="49.251066" lon="9.075978">
        <ele>329.300613</ele>
        <time>2021-05-14T10:14:49.776Z</time>
      </trkpt>
      <trkpt lat="49.251157" lon="9.076028">
        <ele>329.084420</ele>
        <time>2021-05-14T10:14:57.756Z</time>
      </trkpt>
      <trkpt lat="49.251219" lon="9.076128">
        <ele>328.883098</ele>
        <time>2021-05-14T10:15:04.754Z</time>
      </trkpt>
      <trkpt lat="49.251180" lon="9.076261">
        <ele>328.670267</ele>
        <time>2021-05-14T10:15:23.765Z</time>
      </trkpt>
      <trkpt lat="49.251110" lon="9.076372">
        <ele>328.484641</ele>
        <time>2021-05-14T10:15:29.799Z</time>
      </trkpt>
      <trkpt lat="49.251046" lon="9.076469">
        <ele>328.352244</ele>
        <time>2021-05-14T10:15:36.764Z</time>
      </trkpt>
      <trkpt lat="49.250983" lon="9.076604">
        <ele>328.192940</ele>
        <time>2021-05-14T10:15:44.782Z</time>
      </trkpt>
      <trkpt lat="49.250923" lon="9.076730">
        <ele>328.043222</ele>
        <time>2021-05-14T10:15:50.759Z</time>
      </trkpt>
      <trkpt lat="49.250859" lon="9.076829">
        <ele>327.909468</ele>
        <time>2021-05-14T10:15:56.774Z</time>
      </trkpt>
      <trkpt lat="49.250786" lon="9.076934">
        <ele>327.762211</ele>
        <time>2021-05-14T10:16:03.768Z</time>
      </trkpt>
      <trkpt lat="49.250728" lon="9.077052">
        <ele>327.620414</ele>
        <time>2021-05-14T10:16:09.776Z</time>
      </trkpt>
      <trkpt lat="49.250687" lon="9.077182">
        <ele>327.481818</ele>
        <time>2021-05-14T10:16:15.791Z</time>
      </trkpt>
      <trkpt lat="49.250627" lon="9.077288">
        <ele>327.347134</ele>
        <time>2021-05-14T10:16:21.775Z</time>
      </trkpt>
      <trkpt lat="49.250559" lon="9.077380">
        <ele>327.213717</ele>
        <time>2021-05-14T10:16:27.756Z</time>
      </trkpt>
      <trkpt lat="49.250498" lon="9.077508">
        <ele>327.061581</ele>
        <time>2021-05-14T10:16:35.760Z</time>
      </trkpt>
      <trkpt lat="49.250438" lon="9.077632">
        <ele>326.913409</ele>
        <time>2021-05-14T10:16:40.756Z</time>
      </trkpt>
      <trkpt lat="49.250361" lon="9.077746">
        <ele>326.755933</ele>
        <time>2021-05-14T10:16:47.753Z</time>
      </trkpt>
      <trkpt lat="49.250297" lon="9.077846">
        <ele>326.621495</ele>
        <time>2021-05-14T10:16:53.769Z</time>
      </trkpt>
      <trkpt lat="49.250228" lon="9.077967">
        <ele>326.467259</ele>
        <time>2021-05-14T10:17:00.757Z</time>
      </trkpt>
      <trkpt lat="49.250162" lon="9.078095">
        <ele>326.310673</ele>
        <time>2021-05-14T10:17:06.770Z</time>
      </trkpt>
      <trkpt lat="49.250101" lon="9.078199">
        <ele>326.176455</ele>
        <time>2021-05-14T10:17:12.757Z</time>
      </trkpt>
      <trkpt lat="49.250021" lon="9.078285">
        <ele>326.032729</ele>
        <time>2021-05-14T10:17:19.769Z</time>
      </trkpt>
      <trkpt lat="49.249957" lon="9.078410">
        <ele>325.858779</ele>
        <time>2021-05-14T10:17:26.764Z</time>
      </trkpt>
      <trkpt lat="49.249910" lon="9.078528">
        <ele>325.645882</ele>
        <time>2021-05-14T10:17:32.771Z</time>
      </trkpt>
      <trkpt lat="49.249848" lon="9.078668">
        <ele>325.385323</ele>
        <time>2021-05-14T10:17:37.759Z</time>
      </trkpt>
      <trkpt lat="49.249790" lon="9.078773">
        <ele>325.173477</ele>
        <time>2021-05-14T10:17:43.774Z</time>
      </trkpt>
      <trkpt lat="49.249730" lon="9.078905">
        <ele>324.925745</ele>
        <time>2021-05-14T10:17:52.772Z</time>
      </trkpt>
      <trkpt lat="49.249666" lon="9.079015">
        <ele>324.698801</ele>
        <time>2021-05-14T10:18:00.774Z</time>
      </trkpt>
      <trkpt lat="49.249601" lon="9.079112">
        <ele>324.484701</ele>
        <time>2021-05-14T10:18:08.763Z</time>
      </trkpt>
      <trkpt lat="49.249540" lon="9.079228">
        <ele>324.255283</ele>
        <time>2021-05-14T10:18:13.777Z</time>
      </trkpt>
      <trkpt lat="49.249495" lon="9.079355">
        <ele>324.032725</ele>
        <time>2021-05-14T10:18:20.759Z</time>
      </trkpt>
      <trkpt lat="49.249436" lon="9.079465">
        <ele>323.813453</ele>
        <time>2021-05-14T10:18:27.766Z</time>
      </trkpt>
      <trkpt lat="49.249366" lon="9.079574">
        <ele>323.577953</ele>
        <time>2021-05-14T10:18:34.770Z</time>
      </trkpt>
      <trkpt lat="49.249303" lon="9.079686">
        <ele>323.350246</ele>
        <time>2021-05-14T10:18:41.761Z</time>
      </trkpt>
      <trkpt lat="49.249233" lon="9.079780">
        <ele>323.130616</ele>
        <time>2021-05-14T10:18:45.757Z</time>
      </trkpt>
      <trkpt lat="49.249176" lon="9.079888">
        <ele>322.916712</ele>
        <time>2021-05-14T10:18:49.767Z</time>
      </trkpt>
      <trkpt lat="49.249135" lon="9.080027">
        <ele>322.681788</ele>
        <time>2021-05-14T10:18:54.764Z</time>
      </trkpt>
      <trkpt lat="49.249087" lon="9.080157">
        <ele>322.451757</ele>
        <time>2021-05-14T10:19:02.763Z</time>
      </trkpt>
      <trkpt lat="49.249026" lon="9.080263">
        <ele>322.234116</ele>
        <time>2021-05-14T10:19:17.767Z</time>
      </trkpt>
      <trkpt lat="49.248975" lon="9.080406">
        <ele>321.983145</ele>
        <time>2021-05-14T10:19:22.776Z</time>
      </trkpt>
      <trkpt lat="49.248920" lon="9.080525">
        <ele>321.758575</ele>
        <time>2021-05-14T10:19:38.763Z</time>
      </trkpt>
      <trkpt lat="49.248847" lon="9.080620">
        <ele>321.580699</ele>
        <time>2021-05-14T10:19:46.753Z</time>
      </trkpt>
      <trkpt lat="49.248789" lon="9.080737">
        <ele>321.432550</ele>
        <time>2021-05-14T10:19:53.771Z</time>
      </trkpt>
      <trkpt lat="49.248710" lon="9.080831">
        <ele>321.278021</ele>
        <time>2021-05-14T10:20:02.805Z</time>
      </trkpt>
      <trkpt lat="49.248656" lon="9.080948">
        <ele>321.133524</ele>
        <time>2021-05-14T10:20:08.773Z</time>
      </trkpt>
      <trkpt lat="49.248594" lon="9.081048">
        <ele>320.994447</ele>
        <time>2021-05-14T10:20:14.769Z</time>
      </trkpt>
      <trkpt lat="49.248527" lon="9.081149">
        <ele>320.849236</ele>
        <time>2021-05-14T10:20:20.776Z</time>
      </trkpt>
      <trkpt lat="49.248482" lon="9.081269">
        <ele>320.709679</ele>
        <time>2021-05-14T10:20:27.760Z</time>
      </trkpt>
      <trkpt lat="49.248428" lon="9.081380">
        <ele>320.570079</ele>
        <time>2021-05-14T10:20:34.756Z</time>
      </trkpt>
      <trkpt lat="49.248364" lon="9.081499">
        <ele>320.414594</ele>
        <time>2021-05-14T10:20:41.751Z</time>
      </trkpt>
      <trkpt lat="49.248311" lon="9.081622">
        <ele>320.265972</ele>
        <time>2021-05-14T10:20:48.766Z</time>
      </trkpt>
      <trkpt lat="49.248242" lon="9.081731">
        <ele>320.112858</ele>
        <time>2021-05-14T10:20:54.773Z</time>
      </trkpt>
      <trkpt lat="49.248189" lon="9.081848">
        <ele>319.969247</ele>
        <time>2021-05-14T10:21:00.757Z</time>
      </trkpt>
      <trkpt lat="49.248133" lon="9.081959">
        <ele>319.827778</ele>
        <time>2021-05-14T10:21:07.764Z</time>
      </trkpt>
      <trkpt lat="49.248053" lon="9.082070">
        <ele>319.661037</ele>
        <time>2021-05-14T10:21:12.766Z</time>
      </trkpt>
      <trkpt lat="49.247988" lon="9.082165">
        <ele>319.522254</ele>
        <time>2021-05-14T10:21:17.772Z</time>
      </trkpt>
      <trkpt lat="49.247923" lon="9.082262">
        <ele>319.382072</ele>
        <time>2021-05-14T10:21:23.752Z</time>
      </trkpt>
      <trkpt lat="49.247857" lon="9.082398">
        <ele>319.211179</ele>
        <time>2021-05-14T10:21:31.761Z</time>
      </trkpt>
      <trkpt lat="49.247800" lon="9.082513">
        <ele>319.065568</ele>
        <time>2021-05-14T10:21:37.770Z</time>
      </trkpt>
      <trkpt lat="49.247738" lon="9.082637">
        <ele>318.908056</ele>
        <time>2021-05-14T10:21:44.790Z</time>
      </trkpt>
      <trkpt lat="49.247694" lon="9.082779">
        <ele>318.807450</ele>
        <time>2021-05-14T10:21:52.760Z</time>
      </trkpt>
      <trkpt lat="49.247638" lon="9.082907">
        <ele>318.714613</ele>
        <time>2021-05-14T10:21:58.774Z</time>
      </trkpt>
      <trkpt lat="49.247571" lon="9.083014">
        <ele>318.625283</ele>
        <time>2021-05-14T10:22:04.781Z</time>
      </trkpt>
      <trkpt lat="49.247494" lon="9.083087">
        <ele>318.541707</ele>
        <time>2021-05-14T10:22:10.761Z</time>
      </trkpt>
      <trkpt lat="49.247439" lon="9.083216">
        <ele>318.448877</ele>
        <time>2021-05-14T10:22:17.777Z</time>
      </trkpt>
      <trkpt lat="49.247387" lon="9.083329">
        <ele>318.365580</ele>
        <time>2021-05-14T10:22:33.766Z</time>
      </trkpt>
      <trkpt lat="49.247333" lon="9.083529">
        <ele>318.235180</ele>
        <time>2021-05-14T10:24:00.758Z</time>
      </trkpt>
      <trkpt lat="49.247268" lon="9.083636">
        <ele>318.147118</ele>
        <time>2021-05-14T10:24:07.766Z</time>
      </trkpt>
      <trkpt lat="49.247214" lon="9.083747">
        <ele>318.063713</ele>
        <time>2021-05-14T10:24:13.773Z</time>
      </trkpt>
      <trkpt lat="49.247145" lon="9.083840">
        <ele>317.978888</ele>
        <time>2021-05-14T10:24:19.779Z</time>
      </trkpt>
      <trkpt lat="49.247078" lon="9.083939">
        <ele>317.892972</ele>
        <time>2021-05-14T10:24:28.759Z</time>
      </trkpt>
      <trkpt lat="49.247017" lon="9.084056">
        <ele>317.802756</ele>
        <time>2021-05-14T10:24:33.767Z</time>
      </trkpt>
      <trkpt lat="49.246950" lon="9.084172">
        <ele>317.709437</ele>
        <time>2021-05-14T10:24:39.770Z</time>
      </trkpt>
      <trkpt lat="49.246896" lon="9.084288">
        <ele>317.623597</ele>
        <time>2021-05-14T10:24:48.777Z</time>
      </trkpt>
      <trkpt lat="49.246835" lon="9.084401">
        <ele>317.535251</ele>
        <time>2021-05-14T10:24:56.765Z</time>
      </trkpt>
      <trkpt lat="49.246758" lon="9.084496">
        <ele>317.444001</ele>
        <time>2021-05-14T10:25:05.761Z</time>
      </trkpt>
      <trkpt lat="49.246703" lon="9.084628">
        <ele>317.349651</ele>
        <time>2021-05-14T10:25:11.752Z</time>
      </trkpt>
      <trkpt lat="49.246646" lon="9.084734">
        <ele>317.266908</ele>
        <time>2021-05-14T10:25:18.759Z</time>
      </trkpt>
      <trkpt lat="49.246585" lon="9.084845">
        <ele>317.251151</ele>
        <time>2021-05-14T10:25:24.750Z</time>
      </trkpt>
      <trkpt lat="49.246532" lon="9.084969">
        <ele>317.280689</ele>
        <time>2021-05-14T10:25:33.751Z</time>
      </trkpt>
      <trkpt lat="49.246490" lon="9.085112">
        <ele>317.311940</ele>
        <time>2021-05-14T10:25:37.773Z</time>
      </trkpt>
      <trkpt lat="49.246415" lon="9.085210">
        <ele>317.342035</ele>
        <time>2021-05-14T10:25:43.766Z</time>
      </trkpt>
      <trkpt lat="49.246357" lon="9.085319">
        <ele>317.370061</ele>
        <time>2021-05-14T10:25:49.767Z</time>
      </trkpt>
      <trkpt lat="49.246311" lon="9.085447">
        <ele>317.399180</ele>
        <time>2021-05-14T10:25:59.762Z</time>
      </trkpt>
      <trkpt lat="49.246266" lon="9.085608">
        <ele>317.434084</ele>
        <time>2021-05-14T10:26:08.751Z</time>
      </trkpt>
      <trkpt lat="49.246217" lon="9.085725">
        <ele>317.461788</ele>
        <time>2021-05-14T10:26:15.754Z</time>
      </trkpt>
      <trkpt lat="49.246062" lon="9.085840">
        <ele>317.514366</ele>
        <time>2021-05-14T10:27:43.774Z</time>
      </trkpt>
      <trkpt lat="49.246007" lon="9.085965">
        <ele>317.544408</ele>
        <time>2021-05-14T10:27:49.765Z</time>
      </trkpt>
      <trkpt lat="49.245940" lon="9.086062">
        <ele>317.572553</ele>
        <time>2021-05-14T10:27:56.762Z</time>
      </trkpt>
      <trkpt lat="49.245874" lon="9.086159">
        <ele>317.600476</ele>
        <time>2021-05-14T10:28:05.760Z</time>
      </trkpt>
      <trkpt lat="49.245835" lon="9.086284">
        <ele>317.628087</ele>
        <time>2021-05-14T10:28:12.760Z</time>
      </trkpt>
      <trkpt lat="49.245776" lon="9.086393">
        <ele>317.656306</ele>
        <time>2021-05-14T10:28:19.768Z</time>
      </trkpt>
      <trkpt lat="49.245701" lon="9.086600">
        <ele>317.703489</ele>
        <time>2021-05-14T10:29:03.772Z</time>
      </trkpt>
      <trkpt lat="49.245653" lon="9.086718">
        <ele>317.731198</ele>
        <time>2021-05-14T10:29:08.766Z</time>
      </trkpt>
      <trkpt lat="49.245582" lon="9.086818">
        <ele>317.760643</ele>
        <time>2021-05-14T10:29:14.773Z</time>
      </trkpt>
      <trkpt lat="49.245512" lon="9.086928">
        <ele>317.770216</ele>
        <time>2021-05-14T10:29:21.769Z</time>
      </trkpt>
      <trkpt lat="49.245443" lon="9.087040">
        <ele>317.727633</ele>
        <time>2021-05-14T10:29:27.777Z</time>
      </trkpt>
      <trkpt lat="49.245378" lon="9.087156">
        <ele>317.685361</ele>
        <time>2021-05-14T10:29:33.754Z</time>
      </trkpt>
      <trkpt lat="49.245319" lon="9.087267">
        <ele>317.645780</ele>
        <time>2021-05-14T10:29:38.757Z</time>
      </trkpt>
      <trkpt lat="49.245267" lon="9.087398">
        <ele>317.603385</ele>
        <time>2021-05-14T10:29:44.773Z</time>
      </trkpt>
      <trkpt lat="49.245217" lon="9.087533">
        <ele>317.560466</ele>
        <time>2021-05-14T10:29:51.758Z</time>
      </trkpt>
      <trkpt lat="49.245183" lon="9.087683">
        <ele>317.516559</ele>
        <time>2021-05-14T10:29:58.767Z</time>
      </trkpt>
      <trkpt lat="49.245147" lon="9.087833">
        <ele>317.472367</ele>
        <time>2021-05-14T10:30:08.760Z</time>
      </trkpt>
      <trkpt lat="49.245128" lon="9.087970">
        <ele>317.433638</ele>
        <time>2021-05-14T10:30:12.762Z</time>
      </trkpt>
      <trkpt lat="49.245103" lon="9.088137">
        <ele>317.386261</ele>
        <time>2021-05-14T10:30:17.755Z</time>
      </trkpt>
      <trkpt lat="49.245066" lon="9.088278">
        <ele>317.344240</ele>
        <time>2021-05-14T10:30:24.778Z</time>
      </trkpt>
      <trkpt lat="49.245023" lon="9.088412">
        <ele>317.302951</ele>
        <time>2021-05-14T10:30:31.760Z</time>
      </trkpt>
      <trkpt lat="49.244982" lon="9.088555">
        <ele>317.259763</ele>
        <time>2021-05-14T10:30:36.768Z</time>
      </trkpt>
      <trkpt lat="49.244967" lon="9.088696">
        <ele>317.220260</ele>
        <time>2021-05-14T10:30:43.776Z</time>
      </trkpt>
      <trkpt lat="49.244917" lon="9.088928">
        <ele>317.152701</ele>
        <time>2021-05-14T10:31:06.766Z</time>
      </trkpt>
      <trkpt lat="49.244911" lon="9.089083">
        <ele>317.109765</ele>
        <time>2021-05-14T10:31:11.776Z</time>
      </trkpt>
      <trkpt lat="49.244905" lon="9.089237">
        <ele>317.067105</ele>
        <time>2021-05-14T10:31:20.758Z</time>
      </trkpt>
      <trkpt lat="49.244881" lon="9.089386">
        <ele>317.024668</ele>
        <time>2021-05-14T10:31:26.754Z</time>
      </trkpt>
      <trkpt lat="49.244854" lon="9.089518">
        <ele>316.925451</ele>
        <time>2021-05-14T10:31:32.752Z</time>
      </trkpt>
      <trkpt lat="49.244807" lon="9.089643">
        <ele>316.814388</ele>
        <time>2021-05-14T10:31:38.761Z</time>
      </trkpt>
      <trkpt lat="49.244756" lon="9.089757">
        <ele>316.707984</ele>
        <time>2021-05-14T10:31:46.772Z</time>
      </trkpt>
      <trkpt lat="49.244749" lon="9.089896">
        <ele>316.600646</ele>
        <time>2021-05-14T10:31:51.774Z</time>
      </trkpt>
      <trkpt lat="49.244723" lon="9.090035">
        <ele>316.489319</ele>
        <time>2021-05-14T10:31:57.776Z</time>
      </trkpt>
      <trkpt lat="49.244654" lon="9.090149">
        <ele>316.369627</ele>
        <time>2021-05-14T10:32:03.773Z</time>
      </trkpt>
      <trkpt lat="49.244592" lon="9.090278">
        <ele>316.246292</ele>
        <time>2021-05-14T10:32:08.770Z</time>
      </trkpt>
      <trkpt lat="49.244544" lon="9.090408">
        <ele>316.131300</ele>
        <time>2021-05-14T10:32:14.754Z</time>
      </trkpt>
      <trkpt lat="49.244490" lon="9.090529">
        <ele>316.018450</ele>
        <time>2021-05-14T10:32:20.759Z</time>
      </trkpt>
      <trkpt lat="49.244426" lon="9.090656">
        <ele>315.894924</ele>
        <time>2021-05-14T10:32:27.776Z</time>
      </trkpt>
      <trkpt lat="49.244367" lon="9.090768">
        <ele>315.784119</ele>
        <time>2021-05-14T10:32:33.770Z</time>
      </trkpt>
      <trkpt lat="49.244316" lon="9.090893">
        <ele>315.670627</ele>
        <time>2021-05-14T10:32:39.755Z</time>
      </trkpt>
      <trkpt lat="49.244286" lon="9.091038">
        <ele>315.553513</ele>
        <time>2021-05-14T10:32:45.777Z</time>
      </trkpt>
      <trkpt lat="49.244292" lon="9.091181">
        <ele>315.443185</ele>
        <time>2021-05-14T10:32:51.761Z</time>
      </trkpt>
      <trkpt lat="49.244326" lon="9.091315">
        <ele>315.332494</ele>
        <time>2021-05-14T10:32:58.757Z</time>
      </trkpt>
      <trkpt lat="49.244356" lon="9.091445">
        <ele>315.226333</ele>
        <time>2021-05-14T10:33:04.774Z</time>
      </trkpt>
      <trkpt lat="49.244360" lon="9.091592">
        <ele>315.113054</ele>
        <time>2021-05-14T10:33:15.759Z</time>
      </trkpt>
      <trkpt lat="49.244387" lon="9.091758">
        <ele>314.981337</ele>
        <time>2021-05-14T10:33:20.758Z</time>
      </trkpt>
      <trkpt lat="49.244421" lon="9.091892">
        <ele>314.863195</ele>
        <time>2021-05-14T10:33:25.766Z</time>
      </trkpt>
      <trkpt lat="49.244456" lon="9.092032">
        <ele>314.717758</ele>
        <time>2021-05-14T10:33:29.753Z</time>
      </trkpt>
      <trkpt lat="49.244473" lon="9.092177">
        <ele>314.574838</ele>
        <time>2021-05-14T10:33:36.778Z</time>
      </trkpt>
      <trkpt lat="49.244450" lon="9.092321">
        <ele>314.431018</ele>
        <time>2021-05-14T10:33:44.768Z</time>
      </trkpt>
      <trkpt lat="49.244411" lon="9.092447">
        <ele>314.295738</ele>
        <time>2021-05-14T10:33:49.756Z</time>
      </trkpt>
      <trkpt lat="49.244375" lon="9.092585">
        <ele>314.151566</ele>
        <time>2021-05-14T10:33:55.746Z</time>
      </trkpt>
      <trkpt lat="49.244362" lon="9.092725">
        <ele>314.014380</ele>
        <time>2021-05-14T10:34:01.755Z</time>
      </trkpt>
      <trkpt lat="49.244341" lon="9.092866">
        <ele>313.874076</ele>
        <time>2021-05-14T10:34:09.752Z</time>
      </trkpt>
      <trkpt lat="49.244361" lon="9.093025">
        <ele>313.716987</ele>
        <time>2021-05-14T10:34:17.770Z</time>
      </trkpt>
      <trkpt lat="49.244407" lon="9.093160">
        <ele>313.569252</ele>
        <time>2021-05-14T10:34:23.758Z</time>
      </trkpt>
      <trkpt lat="49.244437" lon="9.093310">
        <ele>313.417056</ele>
        <time>2021-05-14T10:34:31.771Z</time>
      </trkpt>
      <trkpt lat="49.244467" lon="9.093440">
        <ele>313.283291</ele>
        <time>2021-05-14T10:34:37.752Z</time>
      </trkpt>
      <trkpt lat="49.244462" lon="9.093593">
        <ele>313.134674</ele>
        <time>2021-05-14T10:34:41.757Z</time>
      </trkpt>
      <trkpt lat="49.244365" lon="9.093635">
        <ele>312.984880</ele>
        <time>2021-05-14T10:34:49.762Z</time>
      </trkpt>
      <trkpt lat="49.244271" lon="9.093615">
        <ele>312.843852</ele>
        <time>2021-05-14T10:34:55.776Z</time>
      </trkpt>
      <trkpt lat="49.244160" lon="9.093635">
        <ele>312.677764</ele>
        <time>2021-05-14T10:35:03.764Z</time>
      </trkpt>
      <trkpt lat="49.244071" lon="9.093658">
        <ele>312.543638</ele>
        <time>2021-05-14T10:35:09.773Z</time>
      </trkpt>
      <trkpt lat="49.243968" lon="9.093680">
        <ele>312.389095</ele>
        <time>2021-05-14T10:35:16.757Z</time>
      </trkpt>
      <trkpt lat="49.243871" lon="9.093707">
        <ele>312.242588</ele>
        <time>2021-05-14T10:35:23.775Z</time>
      </trkpt>
      <trkpt lat="49.243774" lon="9.093718">
        <ele>312.080618</ele>
        <time>2021-05-14T10:35:30.749Z</time>
      </trkpt>
      <trkpt lat="49.243675" lon="9.093724">
        <ele>311.913398</ele>
        <time>2021-05-14T10:35:36.782Z</time>
      </trkpt>
      <trkpt lat="49.243577" lon="9.093724">
        <ele>311.747997</ele>
        <time>2021-05-14T10:35:41.754Z</time>
      </trkpt>
      <trkpt lat="49.243481" lon="9.093782">
        <ele>311.573824</ele>
        <time>2021-05-14T10:35:49.777Z</time>
      </trkpt>
      <trkpt lat="49.243397" lon="9.093842">
        <ele>311.417395</ele>
        <time>2021-05-14T10:35:55.766Z</time>
      </trkpt>
      <trkpt lat="49.243302" lon="9.093853">
        <ele>311.256600</ele>
        <time>2021-05-14T10:36:00.774Z</time>
      </trkpt>
      <trkpt lat="49.243212" lon="9.093868">
        <ele>311.103804</ele>
        <time>2021-05-14T10:36:05.787Z</time>
      </trkpt>
      <trkpt lat="49.243120" lon="9.093855">
        <ele>310.947871</ele>
        <time>2021-05-14T10:36:11.768Z</time>
      </trkpt>
      <trkpt lat="49.243029" lon="9.093904">
        <ele>310.785071</ele>
        <time>2021-05-14T10:36:16.759Z</time>
      </trkpt>
      <trkpt lat="49.242940" lon="9.093926">
        <ele>310.632916</ele>
        <time>2021-05-14T10:36:25.759Z</time>
      </trkpt>
      <trkpt lat="49.242844" lon="9.093896">
        <ele>310.467553</ele>
        <time>2021-05-14T10:36:33.765Z</time>
      </trkpt>
      <trkpt lat="49.242750" lon="9.093858">
        <ele>310.303471</ele>
        <time>2021-05-14T10:36:38.770Z</time>
      </trkpt>
      <trkpt lat="49.242653" lon="9.093870">
        <ele>310.139225</ele>
        <time>2021-05-14T10:36:44.761Z</time>
      </trkpt>
      <trkpt lat="49.242552" lon="9.093874">
        <ele>309.968704</ele>
        <time>2021-05-14T10:36:53.769Z</time>
      </trkpt>
      <trkpt lat="49.242454" lon="9.093850">
        <ele>309.801202</ele>
        <time>2021-05-14T10:37:00.769Z</time>
      </trkpt>
      <trkpt lat="49.242359" lon="9.093811">
        <ele>309.635205</ele>
        <time>2021-05-14T10:37:05.753Z</time>
      </trkpt>
      <trkpt lat="49.242262" lon="9.093771">
        <ele>309.465663</ele>
        <time>2021-05-14T10:37:12.777Z</time>
      </trkpt>
      <trkpt lat="49.242166" lon="9.093720">
        <ele>309.294169</ele>
        <time>2021-05-14T10:37:20.764Z</time>
      </trkpt>
      <trkpt lat="49.242066" lon="9.093676">
        <ele>309.083032</ele>
        <time>2021-05-14T10:37:26.774Z</time>
      </trkpt>
      <trkpt lat="49.241975" lon="9.093612">
        <ele>308.830848</ele>
        <time>2021-05-14T10:37:32.770Z</time>
      </trkpt>
      <trkpt lat="49.241878" lon="9.093564">
        <ele>308.574126</ele>
        <time>2021-05-14T10:37:39.775Z</time>
      </trkpt>
      <trkpt lat="49.241790" lon="9.093528">
        <ele>308.344733</ele>
        <time>2021-05-14T10:37:46.808Z</time>
      </trkpt>
      <trkpt lat="49.241690" lon="9.093497">
        <ele>308.087781</ele>
        <time>2021-05-14T10:37:52.771Z</time>
      </trkpt>
      <trkpt lat="49.241603" lon="9.093458">
        <ele>307.859485</ele>
        <time>2021-05-14T10:37:58.757Z</time>
      </trkpt>
      <trkpt lat="49.241510" lon="9.093400">
        <ele>307.606598</ele>
        <time>2021-05-14T10:38:05.767Z</time>
      </trkpt>
      <trkpt lat="49.241415" lon="9.093359">
        <ele>307.358028</ele>
        <time>2021-05-14T10:38:13.754Z</time>
      </trkpt>
      <trkpt lat="49.241317" lon="9.093314">
        <ele>307.100367</ele>
        <time>2021-05-14T10:38:20.778Z</time>
      </trkpt>
      <trkpt lat="49.241228" lon="9.093274">
        <ele>306.866774</ele>
        <time>2021-05-14T10:38:26.791Z</time>
      </trkpt>
      <trkpt lat="49.241134" lon="9.093228">
        <ele>306.618251</ele>
        <time>2021-05-14T10:38:32.756Z</time>
      </trkpt>
      <trkpt lat="49.241038" lon="9.093170">
        <ele>306.358350</ele>
        <time>2021-05-14T10:38:39.769Z</time>
      </trkpt>
      <trkpt lat="49.240946" lon="9.093121">
        <ele>306.113044</ele>
        <time>2021-05-14T10:38:44.801Z</time>
      </trkpt>
      <trkpt lat="49.240834" lon="9.093012">
        <ele>305.778854</ele>
        <time>2021-05-14T10:39:46.782Z</time>
      </trkpt>
      <trkpt lat="49.240752" lon="9.092948">
        <ele>305.547074</ele>
        <time>2021-05-14T10:39:53.756Z</time>
      </trkpt>
      <trkpt lat="49.240656" lon="9.092899">
        <ele>305.292231</ele>
        <time>2021-05-14T10:40:02.776Z</time>
      </trkpt>
      <trkpt lat="49.240564" lon="9.092924">
        <ele>305.056915</ele>
        <time>2021-05-14T10:40:07.755Z</time>
      </trkpt>
      <trkpt lat="49.240464" lon="9.092901">
        <ele>304.802246</ele>
        <time>2021-05-14T10:40:13.771Z</time>
      </trkpt>
      <trkpt lat="49.240369" lon="9.092869">
        <ele>304.576896</ele>
        <time>2021-05-14T10:40:24.762Z</time>
      </trkpt>
      <trkpt lat="49.240278" lon="9.092791">
        <ele>304.363970</ele>
        <time>2021-05-14T10:40:31.769Z</time>
      </trkpt>
      <trkpt lat="49.240179" lon="9.092743">
        <ele>304.151939</ele>
        <time>2021-05-14T10:40:36.772Z</time>
      </trkpt>
      <trkpt lat="49.240095" lon="9.092690">
        <ele>303.966439</ele>
        <time>2021-05-14T10:40:41.757Z</time>
      </trkpt>
      <trkpt lat="49.239992" lon="9.092699">
        <ele>303.755784</ele>
        <time>2021-05-14T10:40:48.775Z</time>
      </trkpt>
      <trkpt lat="49.239955" lon="9.092828">
        <ele>303.567949</ele>
        <time>2021-05-14T10:40:53.752Z</time>
      </trkpt>
      <trkpt lat="49.239934" lon="9.092977">
        <ele>303.364738</ele>
        <time>2021-05-14T10:41:02.768Z</time>
      </trkpt>
      <trkpt lat="49.239927" lon="9.093129">
        <ele>303.161600</ele>
        <time>2021-05-14T10:41:10.760Z</time>
      </trkpt>
      <trkpt lat="49.239912" lon="9.093280">
        <ele>302.957982</ele>
        <time>2021-05-14T10:41:17.777Z</time>
      </trkpt>
      <trkpt lat="49.239873" lon="9.093415">
        <ele>302.761180</ele>
        <time>2021-05-14T10:41:23.767Z</time>
      </trkpt>
      <trkpt lat="49.239860" lon="9.093561">
        <ele>302.564743</ele>
        <time>2021-05-14T10:41:28.761Z</time>
      </trkpt>
      <trkpt lat="49.239819" lon="9.093701">
        <ele>302.360190</ele>
        <time>2021-05-14T10:41:36.783Z</time>
      </trkpt>
      <trkpt lat="49.239804" lon="9.093853">
        <ele>302.155253</ele>
        <time>2021-05-14T10:41:42.763Z</time>
      </trkpt>
      <trkpt lat="49.239807" lon="9.093990">
        <ele>301.972512</ele>
        <time>2021-05-14T10:41:48.760Z</time>
      </trkpt>
      <trkpt lat="49.239796" lon="9.094145">
        <ele>301.764661</ele>
        <time>2021-05-14T10:41:54.776Z</time>
      </trkpt>
      <trkpt lat="49.239770" lon="9.094277">
        <ele>301.580855</ele>
        <time>2021-05-14T10:42:00.797Z</time>
      </trkpt>
      <trkpt lat="49.239761" lon="9.094437">
        <ele>301.366764</ele>
        <time>2021-05-14T10:42:07.772Z</time>
      </trkpt>
      <trkpt lat="49.239747" lon="9.094577">
        <ele>301.177950</ele>
        <time>2021-05-14T10:42:13.769Z</time>
      </trkpt>
      <trkpt lat="49.239753" lon="9.094722">
        <ele>300.984433</ele>
        <time>2021-05-14T10:42:20.765Z</time>
      </trkpt>
      <trkpt lat="49.239738" lon="9.094862">
        <ele>300.803305</ele>
        <time>2021-05-14T10:42:27.772Z</time>
      </trkpt>
      <trkpt lat="49.239688" lon="9.094982">
        <ele>300.621561</ele>
        <time>2021-05-14T10:42:33.772Z</time>
      </trkpt>
      <trkpt lat="49.239647" lon="9.095113">
        <ele>300.436090</ele>
        <time>2021-05-14T10:42:38.772Z</time>
      </trkpt>
      <trkpt lat="49.239628" lon="9.095266">
        <ele>300.237253</ele>
        <time>2021-05-14T10:42:44.764Z</time>
      </trkpt>
      <trkpt lat="49.239593" lon="9.095414">
        <ele>300.036288</ele>
        <time>2021-05-14T10:42:51.785Z</time>
      </trkpt>
      <trkpt lat="49.239543" lon="9.095531">
        <ele>299.857761</ele>
        <time>2021-05-14T10:43:03.765Z</time>
      </trkpt>
      <trkpt lat="49.239524" lon="9.095676">
        <ele>299.668947</ele>
        <time>2021-05-14T10:43:10.762Z</time>
      </trkpt>
      <trkpt lat="49.239525" lon="9.095823">
        <ele>299.481262</ele>
        <time>2021-05-14T10:43:17.762Z</time>
      </trkpt>
      <trkpt lat="49.239530" lon="9.095980">
        <ele>299.280581</ele>
        <time>2021-05-14T10:43:25.771Z</time>
      </trkpt>
      <trkpt lat="49.239539" lon="9.096120">
        <ele>299.100978</ele>
        <time>2021-05-14T10:43:34.793Z</time>
      </trkpt>
      <trkpt lat="49.239449" lon="9.096169">
        <ele>298.914200</ele>
        <time>2021-05-14T10:43:45.760Z</time>
      </trkpt>
      <trkpt lat="49.239364" lon="9.096222">
        <ele>298.734742</ele>
        <time>2021-05-14T10:43:55.762Z</time>
      </trkpt>
      <trkpt lat="49.239377" lon="9.096364">
        <ele>298.551676</ele>
        <time>2021-05-14T10:44:03.773Z</time>
      </trkpt>
      <trkpt lat="49.239425" lon="9.096487">
        <ele>298.368728</ele>
        <time>2021-05-14T10:44:10.765Z</time>
      </trkpt>
      <trkpt lat="49.239415" lon="9.096639">
        <ele>298.173686</ele>
        <time>2021-05-14T10:44:18.766Z</time>
      </trkpt>
      <trkpt lat="49.239393" lon="9.096776">
        <ele>297.993565</ele>
        <time>2021-05-14T10:44:25.774Z</time>
      </trkpt>
      <trkpt lat="49.239346" lon="9.096893">
        <ele>297.818181</ele>
        <time>2021-05-14T10:44:30.776Z</time>
      </trkpt>
      <trkpt lat="49.239284" lon="9.097011">
        <ele>297.624805</ele>
        <time>2021-05-14T10:44:38.770Z</time>
      </trkpt>
      <trkpt lat="49.239208" lon="9.097097">
        <ele>297.440322</ele>
        <time>2021-05-14T10:44:47.771Z</time>
      </trkpt>
      <trkpt lat="49.239142" lon="9.097281">
        <ele>297.174794</ele>
        <time>2021-05-14T10:46:02.770Z</time>
      </trkpt>
      <trkpt lat="49.239069" lon="9.097365">
        <ele>296.997918</ele>
        <time>2021-05-14T10:46:28.770Z</time>
      </trkpt>
      <trkpt lat="49.238965" lon="9.097340">
        <ele>296.793986</ele>
        <time>2021-05-14T10:46:40.781Z</time>
      </trkpt>
      <trkpt lat="49.238874" lon="9.097397">
        <ele>296.603531</ele>
        <time>2021-05-14T10:46:46.779Z</time>
      </trkpt>
      <trkpt lat="49.238859" lon="9.097534">
        <ele>296.427835</ele>
        <time>2021-05-14T10:46:52.770Z</time>
      </trkpt>
      <trkpt lat="49.238730" lon="9.097581">
        <ele>296.170967</ele>
        <time>2021-05-14T10:47:13.790Z</time>
      </trkpt>
      <trkpt lat="49.238650" lon="9.097646">
        <ele>295.995537</ele>
        <time>2021-05-14T10:47:18.773Z</time>
      </trkpt>
      <trkpt lat="49.238559" lon="9.097693">
        <ele>295.809501</ele>
        <time>2021-05-14T10:47:26.781Z</time>
      </trkpt>
      <trkpt lat="49.238464" lon="9.097758">
        <ele>295.607941</ele>
        <time>2021-05-14T10:47:35.795Z</time>
      </trkpt>
      <trkpt lat="49.238392" lon="9.097847">
        <ele>295.428707</ele>
        <time>2021-05-14T10:47:41.765Z</time>
      </trkpt>
      <trkpt lat="49.238366" lon="9.097982">
        <ele>295.250684</ele>
        <time>2021-05-14T10:47:47.777Z</time>
      </trkpt>
      <trkpt lat="49.238412" lon="9.098111">
        <ele>295.064777</ele>
        <time>2021-05-14T10:47:53.783Z</time>
      </trkpt>
      <trkpt lat="49.238453" lon="9.098239">
        <ele>294.884449</ele>
        <time>2021-05-14T10:47:58.771Z</time>
      </trkpt>
      <trkpt lat="49.238481" lon="9.098372">
        <ele>294.707702</ele>
        <time>2021-05-14T10:48:05.761Z</time>
      </trkpt>
      <trkpt lat="49.238491" lon="9.098513">
        <ele>294.528315</ele>
        <time>2021-05-14T10:48:11.776Z</time>
      </trkpt>
      <trkpt lat="49.238501" lon="9.098682">
        <ele>294.313688</ele>
        <time>2021-05-14T10:48:18.771Z</time>
      </trkpt>
      <trkpt lat="49.238510" lon="9.098822">
        <ele>294.135759</ele>
        <time>2021-05-14T10:48:23.759Z</time>
      </trkpt>
      <trkpt lat="49.238497" lon="9.098967">
        <ele>293.986949</ele>
        <time>2021-05-14T10:48:29.771Z</time>
      </trkpt>
      <trkpt lat="49.238490" lon="9.099104">
        <ele>293.986949</ele>
        <time>2021-05-14T10:48:36.787Z</time>
      </trkpt>
      <trkpt lat="49.238496" lon="9.099242">
        <ele>293.986949</ele>
        <time>2021-05-14T10:48:41.765Z</time>
      </trkpt>
      <trkpt lat="49.238495" lon="9.099396">
        <ele>293.986949</ele>
        <time>2021-05-14T10:48:47.771Z</time>
      </trkpt>
      <trkpt lat="49.238496" lon="9.099547">
        <ele>293.986949</ele>
        <time>2021-05-14T10:48:55.772Z</time>
      </trkpt>
      <trkpt lat="49.238502" lon="9.099693">
        <ele>293.986949</ele>
        <time>2021-05-14T10:49:02.768Z</time>
      </trkpt>
      <trkpt lat="49.238511" lon="9.099834">
        <ele>293.986949</ele>
        <time>2021-05-14T10:49:08.777Z</time>
      </trkpt>
      <trkpt lat="49.238515" lon="9.099989">
        <ele>293.986949</ele>
        <time>2021-05-14T10:49:14.778Z</time>
      </trkpt>
      <trkpt lat="49.238498" lon="9.100135">
        <ele>293.986949</ele>
        <time>2021-05-14T10:49:21.768Z</time>
      </trkpt>
      <trkpt lat="49.238479" lon="9.100280">
        <ele>293.986949</ele>
        <time>2021-05-14T10:49:28.787Z</time>
      </trkpt>
      <trkpt lat="49.238492" lon="9.100422">
        <ele>293.986949</ele>
        <time>2021-05-14T10:49:34.770Z</time>
      </trkpt>
      <trkpt lat="49.238497" lon="9.100576">
        <ele>293.986949</ele>
        <time>2021-05-14T10:49:40.788Z</time>
      </trkpt>
      <trkpt lat="49.238491" lon="9.100730">
        <ele>293.986949</ele>
        <time>2021-05-14T10:49:46.785Z</time>
      </trkpt>
      <trkpt lat="49.238498" lon="9.100874">
        <ele>293.986949</ele>
        <time>2021-05-14T10:49:55.780Z</time>
      </trkpt>
      <trkpt lat="49.238510" lon="9.101024">
        <ele>293.986949</ele>
        <time>2021-05-14T10:50:02.780Z</time>
      </trkpt>
      <trkpt lat="49.238543" lon="9.101154">
        <ele>293.986949</ele>
        <time>2021-05-14T10:50:08.774Z</time>
      </trkpt>
      <trkpt lat="49.238570" lon="9.101309">
        <ele>293.986949</ele>
        <time>2021-05-14T10:50:15.772Z</time>
      </trkpt>
      <trkpt lat="49.238599" lon="9.101455">
        <ele>293.986949</ele>
        <time>2021-05-14T10:50:22.778Z</time>
      </trkpt>
      <trkpt lat="49.238503" lon="9.101518">
        <ele>293.986949</ele>
        <time>2021-05-14T10:50:30.779Z</time>
      </trkpt>
      <trkpt lat="49.238397" lon="9.101522">
        <ele>293.986949</ele>
        <time>2021-05-14T10:50:34.762Z</time>
      </trkpt>
      <trkpt lat="49.238294" lon="9.101520">
        <ele>293.986949</ele>
        <time>2021-05-14T10:50:41.769Z</time>
      </trkpt>
      <trkpt lat="49.238203" lon="9.101542">
        <ele>293.986949</ele>
        <time>2021-05-14T10:50:47.784Z</time>
      </trkpt>
      <trkpt lat="49.238166" lon="9.101582">
        <ele>293.986949</ele>
        <time>2021-05-14T10:50:52.479Z</time>
      </trkpt>
    </trkseg>
  </trk>
</gpx>